<?xml version="1.0" encoding="UTF-8" standalone="no" ?>
<gpx xmlns="http://www.topografix.com/GPX/1/1" xmlns:xsi="http://www.w3.org/2001/XMLSchema-instance" xsi:schemaLocation="http://www.topografix.com/GPX/1/1 http://www.topografix.com/GPX/1/1/gpx.xsd" version="1.1" creator="VisuGPX - https://www.visugpx.com">
  <metadata>
    <name>samuscup2016</name>
    <desc><![CDATA[Garches 01 / Elan 45 PEP'S / First 34.7 / Dufour 410
21 au 27 mai
]]></desc>
  </metadata>
  <trk>
    <name><![CDATA[Tracé actuel: 25 MAI 2016 11:46]]></name>
    <trkseg>
      <trkpt lat="43.1277" lon="5.75681">
        <ele>-10.44</ele>
        <time>2016-05-25T09:46:37Z</time>
      </trkpt>
      <trkpt lat="43.12745" lon="5.75644">
        <ele>-9.96</ele>
        <time>2016-05-25T09:46:59Z</time>
      </trkpt>
      <trkpt lat="43.12732" lon="5.75604">
        <ele>-12.84</ele>
        <time>2016-05-25T09:47:19Z</time>
      </trkpt>
      <trkpt lat="43.12711" lon="5.75564">
        <ele>1.58</ele>
        <time>2016-05-25T09:47:40Z</time>
      </trkpt>
      <trkpt lat="43.1269" lon="5.75526">
        <ele>2.54</ele>
        <time>2016-05-25T09:48:00Z</time>
      </trkpt>
      <trkpt lat="43.12666" lon="5.75478">
        <ele>2.54</ele>
        <time>2016-05-25T09:48:23Z</time>
      </trkpt>
      <trkpt lat="43.12644" lon="5.75434">
        <ele>2.06</ele>
        <time>2016-05-25T09:48:44Z</time>
      </trkpt>
      <trkpt lat="43.12617" lon="5.75383">
        <ele>2.06</ele>
        <time>2016-05-25T09:49:07Z</time>
      </trkpt>
      <trkpt lat="43.12591" lon="5.75331">
        <ele>1.58</ele>
        <time>2016-05-25T09:49:30Z</time>
      </trkpt>
      <trkpt lat="43.12583" lon="5.75318">
        <ele>2.54</ele>
        <time>2016-05-25T09:49:36Z</time>
      </trkpt>
      <trkpt lat="43.12575" lon="5.75319">
        <ele>2.54</ele>
        <time>2016-05-25T09:49:41Z</time>
      </trkpt>
      <trkpt lat="43.12571" lon="5.75323">
        <ele>3.02</ele>
        <time>2016-05-25T09:49:45Z</time>
      </trkpt>
      <trkpt lat="43.12558" lon="5.7534">
        <ele>3.02</ele>
        <time>2016-05-25T09:50:06Z</time>
      </trkpt>
      <trkpt lat="43.12548" lon="5.75356">
        <ele>1.58</ele>
        <time>2016-05-25T09:50:25Z</time>
      </trkpt>
      <trkpt lat="43.12539" lon="5.75371">
        <ele>1.58</ele>
        <time>2016-05-25T09:50:42Z</time>
      </trkpt>
      <trkpt lat="43.12532" lon="5.75393">
        <ele>0.14</ele>
        <time>2016-05-25T09:51:00Z</time>
      </trkpt>
      <trkpt lat="43.12525" lon="5.75421">
        <ele>0.62</ele>
        <time>2016-05-25T09:51:20Z</time>
      </trkpt>
      <trkpt lat="43.12518" lon="5.75459">
        <ele>0.14</ele>
        <time>2016-05-25T09:51:44Z</time>
      </trkpt>
      <trkpt lat="43.12508" lon="5.75493">
        <ele>0.14</ele>
        <time>2016-05-25T09:52:05Z</time>
      </trkpt>
      <trkpt lat="43.12498" lon="5.7553">
        <ele>-0.34</ele>
        <time>2016-05-25T09:52:28Z</time>
      </trkpt>
      <trkpt lat="43.12486" lon="5.75559">
        <ele>0.14</ele>
        <time>2016-05-25T09:52:48Z</time>
      </trkpt>
      <trkpt lat="43.12476" lon="5.75586">
        <ele>0.14</ele>
        <time>2016-05-25T09:53:06Z</time>
      </trkpt>
      <trkpt lat="43.12465" lon="5.75614">
        <ele>0.14</ele>
        <time>2016-05-25T09:53:24Z</time>
      </trkpt>
      <trkpt lat="43.12454" lon="5.75646">
        <ele>-0.34</ele>
        <time>2016-05-25T09:53:43Z</time>
      </trkpt>
      <trkpt lat="43.12442" lon="5.75684">
        <ele>-0.34</ele>
        <time>2016-05-25T09:54:04Z</time>
      </trkpt>
      <trkpt lat="43.1243" lon="5.75722">
        <ele>-0.34</ele>
        <time>2016-05-25T09:54:23Z</time>
      </trkpt>
      <trkpt lat="43.12417" lon="5.75758">
        <ele>-0.82</ele>
        <time>2016-05-25T09:54:41Z</time>
      </trkpt>
      <trkpt lat="43.12404" lon="5.75793">
        <ele>-0.82</ele>
        <time>2016-05-25T09:55:00Z</time>
      </trkpt>
      <trkpt lat="43.12388" lon="5.75831">
        <ele>-1.3</ele>
        <time>2016-05-25T09:55:22Z</time>
      </trkpt>
      <trkpt lat="43.12378" lon="5.75854">
        <ele>0.14</ele>
        <time>2016-05-25T09:55:38Z</time>
      </trkpt>
      <trkpt lat="43.12364" lon="5.75882">
        <ele>0.14</ele>
        <time>2016-05-25T09:55:59Z</time>
      </trkpt>
      <trkpt lat="43.12353" lon="5.75903">
        <ele>-0.34</ele>
        <time>2016-05-25T09:56:17Z</time>
      </trkpt>
      <trkpt lat="43.12341" lon="5.75923">
        <ele>0.14</ele>
        <time>2016-05-25T09:56:35Z</time>
      </trkpt>
      <trkpt lat="43.12332" lon="5.75945">
        <ele>0.62</ele>
        <time>2016-05-25T09:56:54Z</time>
      </trkpt>
      <trkpt lat="43.12324" lon="5.75967">
        <ele>0.62</ele>
        <time>2016-05-25T09:57:12Z</time>
      </trkpt>
      <trkpt lat="43.12316" lon="5.75985">
        <ele>-0.34</ele>
        <time>2016-05-25T09:57:28Z</time>
      </trkpt>
      <trkpt lat="43.1231" lon="5.76007">
        <ele>0.14</ele>
        <time>2016-05-25T09:57:47Z</time>
      </trkpt>
      <trkpt lat="43.12304" lon="5.76031">
        <ele>0.62</ele>
        <time>2016-05-25T09:58:07Z</time>
      </trkpt>
      <trkpt lat="43.12298" lon="5.7605">
        <ele>0.14</ele>
        <time>2016-05-25T09:58:24Z</time>
      </trkpt>
      <trkpt lat="43.12292" lon="5.76074">
        <ele>0.14</ele>
        <time>2016-05-25T09:58:45Z</time>
      </trkpt>
      <trkpt lat="43.12286" lon="5.76096">
        <ele>0.14</ele>
        <time>2016-05-25T09:59:04Z</time>
      </trkpt>
      <trkpt lat="43.12282" lon="5.76119">
        <ele>0.14</ele>
        <time>2016-05-25T09:59:23Z</time>
      </trkpt>
      <trkpt lat="43.12276" lon="5.76149">
        <ele>0.62</ele>
        <time>2016-05-25T09:59:45Z</time>
      </trkpt>
      <trkpt lat="43.12267" lon="5.76179">
        <ele>0.62</ele>
        <time>2016-05-25T10:00:09Z</time>
      </trkpt>
      <trkpt lat="43.12262" lon="5.76198">
        <ele>-0.34</ele>
        <time>2016-05-25T10:00:26Z</time>
      </trkpt>
      <trkpt lat="43.12259" lon="5.76214">
        <ele>0.14</ele>
        <time>2016-05-25T10:00:42Z</time>
      </trkpt>
      <trkpt lat="43.12259" lon="5.76218">
        <ele>0.14</ele>
        <time>2016-05-25T10:00:45Z</time>
      </trkpt>
      <trkpt lat="43.1226" lon="5.76242">
        <ele>0.62</ele>
        <time>2016-05-25T10:01:03Z</time>
      </trkpt>
      <trkpt lat="43.12256" lon="5.76275">
        <ele>2.06</ele>
        <time>2016-05-25T10:01:23Z</time>
      </trkpt>
      <trkpt lat="43.12249" lon="5.76305">
        <ele>1.58</ele>
        <time>2016-05-25T10:01:44Z</time>
      </trkpt>
      <trkpt lat="43.1225" lon="5.76324">
        <ele>1.1</ele>
        <time>2016-05-25T10:01:59Z</time>
      </trkpt>
      <trkpt lat="43.1225" lon="5.76354">
        <ele>0.62</ele>
        <time>2016-05-25T10:02:20Z</time>
      </trkpt>
      <trkpt lat="43.1225" lon="5.76381">
        <ele>0.14</ele>
        <time>2016-05-25T10:02:38Z</time>
      </trkpt>
      <trkpt lat="43.12252" lon="5.76416">
        <ele>0.62</ele>
        <time>2016-05-25T10:03:00Z</time>
      </trkpt>
      <trkpt lat="43.12251" lon="5.76446">
        <ele>1.1</ele>
        <time>2016-05-25T10:03:20Z</time>
      </trkpt>
      <trkpt lat="43.12251" lon="5.76475">
        <ele>0.14</ele>
        <time>2016-05-25T10:03:39Z</time>
      </trkpt>
      <trkpt lat="43.12252" lon="5.76503">
        <ele>0.62</ele>
        <time>2016-05-25T10:03:57Z</time>
      </trkpt>
      <trkpt lat="43.12253" lon="5.76537">
        <ele>0.62</ele>
        <time>2016-05-25T10:04:17Z</time>
      </trkpt>
      <trkpt lat="43.12251" lon="5.76581">
        <ele>1.1</ele>
        <time>2016-05-25T10:04:41Z</time>
      </trkpt>
      <trkpt lat="43.12247" lon="5.76615">
        <ele>1.58</ele>
        <time>2016-05-25T10:05:00Z</time>
      </trkpt>
      <trkpt lat="43.12242" lon="5.76649">
        <ele>2.06</ele>
        <time>2016-05-25T10:05:21Z</time>
      </trkpt>
      <trkpt lat="43.12239" lon="5.76683">
        <ele>1.58</ele>
        <time>2016-05-25T10:05:41Z</time>
      </trkpt>
      <trkpt lat="43.12235" lon="5.76723">
        <ele>1.58</ele>
        <time>2016-05-25T10:06:02Z</time>
      </trkpt>
      <trkpt lat="43.12232" lon="5.76767">
        <ele>0.62</ele>
        <time>2016-05-25T10:06:23Z</time>
      </trkpt>
      <trkpt lat="43.12228" lon="5.76801">
        <ele>0.14</ele>
        <time>2016-05-25T10:06:42Z</time>
      </trkpt>
      <trkpt lat="43.12225" lon="5.76831">
        <ele>1.1</ele>
        <time>2016-05-25T10:06:59Z</time>
      </trkpt>
      <trkpt lat="43.12215" lon="5.76873">
        <ele>1.58</ele>
        <time>2016-05-25T10:07:22Z</time>
      </trkpt>
      <trkpt lat="43.12204" lon="5.76885">
        <ele>1.58</ele>
        <time>2016-05-25T10:07:38Z</time>
      </trkpt>
      <trkpt lat="43.122" lon="5.76881">
        <ele>1.58</ele>
        <time>2016-05-25T10:07:43Z</time>
      </trkpt>
      <trkpt lat="43.12173" lon="5.76851">
        <ele>2.54</ele>
        <time>2016-05-25T10:08:04Z</time>
      </trkpt>
      <trkpt lat="43.12141" lon="5.76818">
        <ele>1.58</ele>
        <time>2016-05-25T10:08:20Z</time>
      </trkpt>
      <trkpt lat="43.12099" lon="5.76772">
        <ele>1.58</ele>
        <time>2016-05-25T10:08:42Z</time>
      </trkpt>
      <trkpt lat="43.12058" lon="5.76729">
        <ele>2.06</ele>
        <time>2016-05-25T10:09:06Z</time>
      </trkpt>
      <trkpt lat="43.12025" lon="5.76696">
        <ele>2.54</ele>
        <time>2016-05-25T10:09:26Z</time>
      </trkpt>
      <trkpt lat="43.11996" lon="5.76662">
        <ele>2.06</ele>
        <time>2016-05-25T10:09:47Z</time>
      </trkpt>
      <trkpt lat="43.11966" lon="5.76629">
        <ele>2.06</ele>
        <time>2016-05-25T10:10:10Z</time>
      </trkpt>
      <trkpt lat="43.1194" lon="5.76602">
        <ele>2.06</ele>
        <time>2016-05-25T10:10:29Z</time>
      </trkpt>
      <trkpt lat="43.11912" lon="5.76575">
        <ele>3.02</ele>
        <time>2016-05-25T10:10:49Z</time>
      </trkpt>
      <trkpt lat="43.11889" lon="5.76555">
        <ele>3.5</ele>
        <time>2016-05-25T10:11:06Z</time>
      </trkpt>
      <trkpt lat="43.11863" lon="5.76529">
        <ele>3.5</ele>
        <time>2016-05-25T10:11:28Z</time>
      </trkpt>
      <trkpt lat="43.11845" lon="5.76512">
        <ele>3.5</ele>
        <time>2016-05-25T10:11:44Z</time>
      </trkpt>
      <trkpt lat="43.11819" lon="5.76484">
        <ele>3.5</ele>
        <time>2016-05-25T10:12:07Z</time>
      </trkpt>
      <trkpt lat="43.11797" lon="5.76466">
        <ele>2.06</ele>
        <time>2016-05-25T10:12:22Z</time>
      </trkpt>
      <trkpt lat="43.11769" lon="5.76442">
        <ele>1.1</ele>
        <time>2016-05-25T10:12:39Z</time>
      </trkpt>
      <trkpt lat="43.11726" lon="5.76407">
        <ele>0.62</ele>
        <time>2016-05-25T10:13:01Z</time>
      </trkpt>
      <trkpt lat="43.11691" lon="5.76384">
        <ele>0.14</ele>
        <time>2016-05-25T10:13:18Z</time>
      </trkpt>
      <trkpt lat="43.11659" lon="5.76361">
        <ele>-0.34</ele>
        <time>2016-05-25T10:13:35Z</time>
      </trkpt>
      <trkpt lat="43.11631" lon="5.76337">
        <ele>-0.82</ele>
        <time>2016-05-25T10:13:52Z</time>
      </trkpt>
      <trkpt lat="43.11607" lon="5.76317">
        <ele>0.14</ele>
        <time>2016-05-25T10:14:07Z</time>
      </trkpt>
      <trkpt lat="43.11578" lon="5.76295">
        <ele>1.1</ele>
        <time>2016-05-25T10:14:26Z</time>
      </trkpt>
      <trkpt lat="43.11569" lon="5.76289">
        <ele>1.1</ele>
        <time>2016-05-25T10:14:33Z</time>
      </trkpt>
      <trkpt lat="43.11546" lon="5.76276">
        <ele>1.1</ele>
        <time>2016-05-25T10:14:51Z</time>
      </trkpt>
      <trkpt lat="43.11526" lon="5.76259">
        <ele>1.1</ele>
        <time>2016-05-25T10:15:10Z</time>
      </trkpt>
      <trkpt lat="43.11502" lon="5.7624">
        <ele>1.1</ele>
        <time>2016-05-25T10:15:30Z</time>
      </trkpt>
      <trkpt lat="43.11476" lon="5.76219">
        <ele>0.62</ele>
        <time>2016-05-25T10:15:50Z</time>
      </trkpt>
      <trkpt lat="43.11448" lon="5.76197">
        <ele>1.1</ele>
        <time>2016-05-25T10:16:09Z</time>
      </trkpt>
      <trkpt lat="43.11423" lon="5.76183">
        <ele>0.62</ele>
        <time>2016-05-25T10:16:26Z</time>
      </trkpt>
      <trkpt lat="43.11396" lon="5.76167">
        <ele>-0.34</ele>
        <time>2016-05-25T10:16:45Z</time>
      </trkpt>
      <trkpt lat="43.11374" lon="5.76155">
        <ele>-0.82</ele>
        <time>2016-05-25T10:17:03Z</time>
      </trkpt>
      <trkpt lat="43.11356" lon="5.76145">
        <ele>-0.34</ele>
        <time>2016-05-25T10:17:21Z</time>
      </trkpt>
      <trkpt lat="43.11337" lon="5.76126">
        <ele>1.1</ele>
        <time>2016-05-25T10:17:42Z</time>
      </trkpt>
      <trkpt lat="43.11323" lon="5.76129">
        <ele>0.62</ele>
        <time>2016-05-25T10:17:59Z</time>
      </trkpt>
      <trkpt lat="43.11314" lon="5.7614">
        <ele>0.62</ele>
        <time>2016-05-25T10:18:19Z</time>
      </trkpt>
      <trkpt lat="43.11313" lon="5.7615">
        <ele>0.62</ele>
        <time>2016-05-25T10:18:29Z</time>
      </trkpt>
      <trkpt lat="43.1131" lon="5.7617">
        <ele>0.62</ele>
        <time>2016-05-25T10:18:48Z</time>
      </trkpt>
      <trkpt lat="43.11307" lon="5.76195">
        <ele>0.14</ele>
        <time>2016-05-25T10:19:07Z</time>
      </trkpt>
      <trkpt lat="43.11303" lon="5.7622">
        <ele>-0.82</ele>
        <time>2016-05-25T10:19:25Z</time>
      </trkpt>
      <trkpt lat="43.11299" lon="5.76242">
        <ele>0.14</ele>
        <time>2016-05-25T10:19:41Z</time>
      </trkpt>
      <trkpt lat="43.11295" lon="5.76271">
        <ele>-0.34</ele>
        <time>2016-05-25T10:20:03Z</time>
      </trkpt>
      <trkpt lat="43.11295" lon="5.76296">
        <ele>-1.3</ele>
        <time>2016-05-25T10:20:23Z</time>
      </trkpt>
      <trkpt lat="43.11299" lon="5.76323">
        <ele>-1.3</ele>
        <time>2016-05-25T10:20:43Z</time>
      </trkpt>
      <trkpt lat="43.11299" lon="5.76324">
        <ele>-1.3</ele>
        <time>2016-05-25T10:20:44Z</time>
      </trkpt>
      <trkpt lat="43.11303" lon="5.76348">
        <ele>-0.82</ele>
        <time>2016-05-25T10:21:01Z</time>
      </trkpt>
      <trkpt lat="43.11307" lon="5.76376">
        <ele>-1.3</ele>
        <time>2016-05-25T10:21:21Z</time>
      </trkpt>
      <trkpt lat="43.11312" lon="5.76401">
        <ele>-1.79</ele>
        <time>2016-05-25T10:21:41Z</time>
      </trkpt>
      <trkpt lat="43.11315" lon="5.76417">
        <ele>-1.3</ele>
        <time>2016-05-25T10:21:54Z</time>
      </trkpt>
      <trkpt lat="43.11321" lon="5.76443">
        <ele>-2.27</ele>
        <time>2016-05-25T10:22:14Z</time>
      </trkpt>
      <trkpt lat="43.11328" lon="5.76473">
        <ele>-3.23</ele>
        <time>2016-05-25T10:22:34Z</time>
      </trkpt>
      <trkpt lat="43.11336" lon="5.76508">
        <ele>-2.27</ele>
        <time>2016-05-25T10:22:56Z</time>
      </trkpt>
      <trkpt lat="43.11343" lon="5.76536">
        <ele>-1.79</ele>
        <time>2016-05-25T10:23:14Z</time>
      </trkpt>
      <trkpt lat="43.1135" lon="5.76571">
        <ele>-1.3</ele>
        <time>2016-05-25T10:23:35Z</time>
      </trkpt>
      <trkpt lat="43.11357" lon="5.76607">
        <ele>-0.82</ele>
        <time>2016-05-25T10:23:55Z</time>
      </trkpt>
      <trkpt lat="43.11362" lon="5.76638">
        <ele>-0.82</ele>
        <time>2016-05-25T10:24:13Z</time>
      </trkpt>
      <trkpt lat="43.11367" lon="5.76669">
        <ele>-1.3</ele>
        <time>2016-05-25T10:24:33Z</time>
      </trkpt>
      <trkpt lat="43.11372" lon="5.76688">
        <ele>-1.79</ele>
        <time>2016-05-25T10:24:46Z</time>
      </trkpt>
      <trkpt lat="43.11376" lon="5.76705">
        <ele>-1.3</ele>
        <time>2016-05-25T10:24:58Z</time>
      </trkpt>
      <trkpt lat="43.11383" lon="5.76736">
        <ele>-1.3</ele>
        <time>2016-05-25T10:25:19Z</time>
      </trkpt>
      <trkpt lat="43.11386" lon="5.76744">
        <ele>-1.79</ele>
        <time>2016-05-25T10:25:25Z</time>
      </trkpt>
      <trkpt lat="43.11394" lon="5.76772">
        <ele>-1.79</ele>
        <time>2016-05-25T10:25:45Z</time>
      </trkpt>
      <trkpt lat="43.11404" lon="5.76803">
        <ele>-2.75</ele>
        <time>2016-05-25T10:26:07Z</time>
      </trkpt>
      <trkpt lat="43.11414" lon="5.76836">
        <ele>-4.19</ele>
        <time>2016-05-25T10:26:30Z</time>
      </trkpt>
      <trkpt lat="43.11424" lon="5.76865">
        <ele>-2.75</ele>
        <time>2016-05-25T10:26:50Z</time>
      </trkpt>
      <trkpt lat="43.11431" lon="5.76897">
        <ele>-2.75</ele>
        <time>2016-05-25T10:27:13Z</time>
      </trkpt>
      <trkpt lat="43.1144" lon="5.76919">
        <ele>-2.75</ele>
        <time>2016-05-25T10:27:30Z</time>
      </trkpt>
      <trkpt lat="43.11451" lon="5.76949">
        <ele>-3.23</ele>
        <time>2016-05-25T10:27:50Z</time>
      </trkpt>
      <trkpt lat="43.11461" lon="5.76983">
        <ele>-2.27</ele>
        <time>2016-05-25T10:28:12Z</time>
      </trkpt>
      <trkpt lat="43.11471" lon="5.77018">
        <ele>-2.27</ele>
        <time>2016-05-25T10:28:36Z</time>
      </trkpt>
      <trkpt lat="43.1148" lon="5.7705">
        <ele>-2.27</ele>
        <time>2016-05-25T10:28:58Z</time>
      </trkpt>
      <trkpt lat="43.11488" lon="5.77079">
        <ele>-2.27</ele>
        <time>2016-05-25T10:29:18Z</time>
      </trkpt>
      <trkpt lat="43.11494" lon="5.77103">
        <ele>-1.79</ele>
        <time>2016-05-25T10:29:35Z</time>
      </trkpt>
      <trkpt lat="43.115" lon="5.77136">
        <ele>-1.79</ele>
        <time>2016-05-25T10:29:59Z</time>
      </trkpt>
      <trkpt lat="43.11506" lon="5.77162">
        <ele>-1.79</ele>
        <time>2016-05-25T10:30:21Z</time>
      </trkpt>
      <trkpt lat="43.11513" lon="5.77188">
        <ele>-1.3</ele>
        <time>2016-05-25T10:30:40Z</time>
      </trkpt>
      <trkpt lat="43.11517" lon="5.77218">
        <ele>-1.3</ele>
        <time>2016-05-25T10:31:02Z</time>
      </trkpt>
      <trkpt lat="43.11528" lon="5.77253">
        <ele>-1.79</ele>
        <time>2016-05-25T10:31:26Z</time>
      </trkpt>
      <trkpt lat="43.11537" lon="5.77292">
        <ele>-1.79</ele>
        <time>2016-05-25T10:31:48Z</time>
      </trkpt>
      <trkpt lat="43.11538" lon="5.77319">
        <ele>-1.3</ele>
        <time>2016-05-25T10:32:09Z</time>
      </trkpt>
      <trkpt lat="43.11526" lon="5.77327">
        <ele>-0.82</ele>
        <time>2016-05-25T10:32:29Z</time>
      </trkpt>
      <trkpt lat="43.11516" lon="5.77335">
        <ele>-0.82</ele>
        <time>2016-05-25T10:32:43Z</time>
      </trkpt>
      <trkpt lat="43.11497" lon="5.77349">
        <ele>0.62</ele>
        <time>2016-05-25T10:33:03Z</time>
      </trkpt>
      <trkpt lat="43.11472" lon="5.77369">
        <ele>0.62</ele>
        <time>2016-05-25T10:33:24Z</time>
      </trkpt>
      <trkpt lat="43.11449" lon="5.77393">
        <ele>1.1</ele>
        <time>2016-05-25T10:33:44Z</time>
      </trkpt>
      <trkpt lat="43.11426" lon="5.77416">
        <ele>0.14</ele>
        <time>2016-05-25T10:34:04Z</time>
      </trkpt>
      <trkpt lat="43.11404" lon="5.77436">
        <ele>1.1</ele>
        <time>2016-05-25T10:34:24Z</time>
      </trkpt>
      <trkpt lat="43.11383" lon="5.77454">
        <ele>1.58</ele>
        <time>2016-05-25T10:34:43Z</time>
      </trkpt>
      <trkpt lat="43.11362" lon="5.77471">
        <ele>-0.34</ele>
        <time>2016-05-25T10:35:00Z</time>
      </trkpt>
      <trkpt lat="43.11333" lon="5.77498">
        <ele>0.14</ele>
        <time>2016-05-25T10:35:25Z</time>
      </trkpt>
      <trkpt lat="43.11313" lon="5.77515">
        <ele>1.1</ele>
        <time>2016-05-25T10:35:42Z</time>
      </trkpt>
      <trkpt lat="43.11284" lon="5.7754">
        <ele>1.58</ele>
        <time>2016-05-25T10:36:05Z</time>
      </trkpt>
      <trkpt lat="43.11258" lon="5.77565">
        <ele>1.1</ele>
        <time>2016-05-25T10:36:29Z</time>
      </trkpt>
      <trkpt lat="43.11236" lon="5.77584">
        <ele>1.1</ele>
        <time>2016-05-25T10:36:50Z</time>
      </trkpt>
      <trkpt lat="43.11219" lon="5.77596">
        <ele>1.1</ele>
        <time>2016-05-25T10:37:07Z</time>
      </trkpt>
      <trkpt lat="43.11201" lon="5.77606">
        <ele>1.1</ele>
        <time>2016-05-25T10:37:24Z</time>
      </trkpt>
      <trkpt lat="43.11182" lon="5.77617">
        <ele>0.62</ele>
        <time>2016-05-25T10:37:40Z</time>
      </trkpt>
      <trkpt lat="43.11155" lon="5.77631">
        <ele>0.62</ele>
        <time>2016-05-25T10:38:01Z</time>
      </trkpt>
      <trkpt lat="43.11129" lon="5.77645">
        <ele>0.62</ele>
        <time>2016-05-25T10:38:21Z</time>
      </trkpt>
      <trkpt lat="43.11102" lon="5.7766">
        <ele>0.14</ele>
        <time>2016-05-25T10:38:41Z</time>
      </trkpt>
      <trkpt lat="43.11076" lon="5.77676">
        <ele>0.14</ele>
        <time>2016-05-25T10:39:02Z</time>
      </trkpt>
      <trkpt lat="43.11055" lon="5.77692">
        <ele>-0.34</ele>
        <time>2016-05-25T10:39:21Z</time>
      </trkpt>
      <trkpt lat="43.11034" lon="5.77708">
        <ele>-0.34</ele>
        <time>2016-05-25T10:39:39Z</time>
      </trkpt>
      <trkpt lat="43.11015" lon="5.77724">
        <ele>-0.34</ele>
        <time>2016-05-25T10:39:56Z</time>
      </trkpt>
      <trkpt lat="43.10996" lon="5.77737">
        <ele>-0.82</ele>
        <time>2016-05-25T10:40:13Z</time>
      </trkpt>
      <trkpt lat="43.10975" lon="5.77754">
        <ele>-0.82</ele>
        <time>2016-05-25T10:40:33Z</time>
      </trkpt>
      <trkpt lat="43.10956" lon="5.7777">
        <ele>-1.3</ele>
        <time>2016-05-25T10:40:52Z</time>
      </trkpt>
      <trkpt lat="43.10936" lon="5.77786">
        <ele>-1.3</ele>
        <time>2016-05-25T10:41:13Z</time>
      </trkpt>
      <trkpt lat="43.10918" lon="5.77802">
        <ele>-0.82</ele>
        <time>2016-05-25T10:41:33Z</time>
      </trkpt>
      <trkpt lat="43.10901" lon="5.77813">
        <ele>-0.34</ele>
        <time>2016-05-25T10:41:49Z</time>
      </trkpt>
      <trkpt lat="43.10881" lon="5.77826">
        <ele>-0.34</ele>
        <time>2016-05-25T10:42:06Z</time>
      </trkpt>
      <trkpt lat="43.10855" lon="5.77844">
        <ele>-0.34</ele>
        <time>2016-05-25T10:42:26Z</time>
      </trkpt>
      <trkpt lat="43.10824" lon="5.77876">
        <ele>0.14</ele>
        <time>2016-05-25T10:42:50Z</time>
      </trkpt>
      <trkpt lat="43.10807" lon="5.77893">
        <ele>0.62</ele>
        <time>2016-05-25T10:43:07Z</time>
      </trkpt>
      <trkpt lat="43.10786" lon="5.77905">
        <ele>-0.34</ele>
        <time>2016-05-25T10:43:28Z</time>
      </trkpt>
      <trkpt lat="43.10757" lon="5.77914">
        <ele>-0.82</ele>
        <time>2016-05-25T10:43:51Z</time>
      </trkpt>
      <trkpt lat="43.10734" lon="5.77921">
        <ele>0.14</ele>
        <time>2016-05-25T10:44:11Z</time>
      </trkpt>
      <trkpt lat="43.1071" lon="5.77927">
        <ele>-0.34</ele>
        <time>2016-05-25T10:44:30Z</time>
      </trkpt>
      <trkpt lat="43.10681" lon="5.77937">
        <ele>-1.3</ele>
        <time>2016-05-25T10:44:52Z</time>
      </trkpt>
      <trkpt lat="43.10655" lon="5.77947">
        <ele>-1.3</ele>
        <time>2016-05-25T10:45:13Z</time>
      </trkpt>
      <trkpt lat="43.10629" lon="5.77956">
        <ele>-1.3</ele>
        <time>2016-05-25T10:45:33Z</time>
      </trkpt>
      <trkpt lat="43.10602" lon="5.77964">
        <ele>-1.79</ele>
        <time>2016-05-25T10:45:54Z</time>
      </trkpt>
      <trkpt lat="43.10577" lon="5.77972">
        <ele>-1.3</ele>
        <time>2016-05-25T10:46:14Z</time>
      </trkpt>
      <trkpt lat="43.10554" lon="5.77981">
        <ele>-1.3</ele>
        <time>2016-05-25T10:46:33Z</time>
      </trkpt>
      <trkpt lat="43.10526" lon="5.77992">
        <ele>-1.3</ele>
        <time>2016-05-25T10:46:54Z</time>
      </trkpt>
      <trkpt lat="43.10506" lon="5.78002">
        <ele>-2.27</ele>
        <time>2016-05-25T10:47:11Z</time>
      </trkpt>
      <trkpt lat="43.10483" lon="5.78016">
        <ele>-1.79</ele>
        <time>2016-05-25T10:47:29Z</time>
      </trkpt>
      <trkpt lat="43.1046" lon="5.78032">
        <ele>-1.79</ele>
        <time>2016-05-25T10:47:51Z</time>
      </trkpt>
      <trkpt lat="43.10436" lon="5.78047">
        <ele>-1.3</ele>
        <time>2016-05-25T10:48:11Z</time>
      </trkpt>
      <trkpt lat="43.1041" lon="5.78061">
        <ele>-1.79</ele>
        <time>2016-05-25T10:48:31Z</time>
      </trkpt>
      <trkpt lat="43.10378" lon="5.78079">
        <ele>-1.3</ele>
        <time>2016-05-25T10:48:54Z</time>
      </trkpt>
      <trkpt lat="43.10348" lon="5.78095">
        <ele>-1.79</ele>
        <time>2016-05-25T10:49:15Z</time>
      </trkpt>
      <trkpt lat="43.10343" lon="5.78102">
        <ele>-1.79</ele>
        <time>2016-05-25T10:49:21Z</time>
      </trkpt>
      <trkpt lat="43.10349" lon="5.78127">
        <ele>-1.3</ele>
        <time>2016-05-25T10:49:40Z</time>
      </trkpt>
      <trkpt lat="43.10365" lon="5.78162">
        <ele>-0.34</ele>
        <time>2016-05-25T10:50:03Z</time>
      </trkpt>
      <trkpt lat="43.1039" lon="5.78217">
        <ele>-0.34</ele>
        <time>2016-05-25T10:50:28Z</time>
      </trkpt>
      <trkpt lat="43.10419" lon="5.7828">
        <ele>0.14</ele>
        <time>2016-05-25T10:50:53Z</time>
      </trkpt>
      <trkpt lat="43.10453" lon="5.78354">
        <ele>0.14</ele>
        <time>2016-05-25T10:51:21Z</time>
      </trkpt>
      <trkpt lat="43.10482" lon="5.7842">
        <ele>0.62</ele>
        <time>2016-05-25T10:51:46Z</time>
      </trkpt>
      <trkpt lat="43.10506" lon="5.78473">
        <ele>0.62</ele>
        <time>2016-05-25T10:52:07Z</time>
      </trkpt>
      <trkpt lat="43.10532" lon="5.78532">
        <ele>0.62</ele>
        <time>2016-05-25T10:52:32Z</time>
      </trkpt>
      <trkpt lat="43.10558" lon="5.78588">
        <ele>1.1</ele>
        <time>2016-05-25T10:52:55Z</time>
      </trkpt>
      <trkpt lat="43.10589" lon="5.7866">
        <ele>0.62</ele>
        <time>2016-05-25T10:53:24Z</time>
      </trkpt>
      <trkpt lat="43.10619" lon="5.78725">
        <ele>1.1</ele>
        <time>2016-05-25T10:53:52Z</time>
      </trkpt>
      <trkpt lat="43.10647" lon="5.78786">
        <ele>1.1</ele>
        <time>2016-05-25T10:54:17Z</time>
      </trkpt>
      <trkpt lat="43.10674" lon="5.78847">
        <ele>0.62</ele>
        <time>2016-05-25T10:54:42Z</time>
      </trkpt>
      <trkpt lat="43.10697" lon="5.78899">
        <ele>0.62</ele>
        <time>2016-05-25T10:55:04Z</time>
      </trkpt>
      <trkpt lat="43.10719" lon="5.78946">
        <ele>0.62</ele>
        <time>2016-05-25T10:55:25Z</time>
      </trkpt>
      <trkpt lat="43.1074" lon="5.78993">
        <ele>1.1</ele>
        <time>2016-05-25T10:55:47Z</time>
      </trkpt>
      <trkpt lat="43.10767" lon="5.79052">
        <ele>0.14</ele>
        <time>2016-05-25T10:56:12Z</time>
      </trkpt>
      <trkpt lat="43.10796" lon="5.79121">
        <ele>0.14</ele>
        <time>2016-05-25T10:56:36Z</time>
      </trkpt>
      <trkpt lat="43.10828" lon="5.79199">
        <ele>0.14</ele>
        <time>2016-05-25T10:57:02Z</time>
      </trkpt>
      <trkpt lat="43.1086" lon="5.79271">
        <ele>-0.82</ele>
        <time>2016-05-25T10:57:28Z</time>
      </trkpt>
      <trkpt lat="43.10897" lon="5.79352">
        <ele>-0.82</ele>
        <time>2016-05-25T10:57:58Z</time>
      </trkpt>
      <trkpt lat="43.10928" lon="5.79421">
        <ele>-0.82</ele>
        <time>2016-05-25T10:58:26Z</time>
      </trkpt>
      <trkpt lat="43.10958" lon="5.79487">
        <ele>-0.34</ele>
        <time>2016-05-25T10:58:54Z</time>
      </trkpt>
      <trkpt lat="43.10983" lon="5.79542">
        <ele>-0.82</ele>
        <time>2016-05-25T10:59:18Z</time>
      </trkpt>
      <trkpt lat="43.11002" lon="5.79595">
        <ele>0.14</ele>
        <time>2016-05-25T10:59:40Z</time>
      </trkpt>
      <trkpt lat="43.11022" lon="5.79678">
        <ele>0.14</ele>
        <time>2016-05-25T11:00:09Z</time>
      </trkpt>
      <trkpt lat="43.11012" lon="5.79698">
        <ele>-0.82</ele>
        <time>2016-05-25T11:00:23Z</time>
      </trkpt>
      <trkpt lat="43.10984" lon="5.79682">
        <ele>-1.3</ele>
        <time>2016-05-25T11:00:44Z</time>
      </trkpt>
      <trkpt lat="43.10954" lon="5.79662">
        <ele>-1.3</ele>
        <time>2016-05-25T11:01:04Z</time>
      </trkpt>
      <trkpt lat="43.1092" lon="5.7964">
        <ele>-1.3</ele>
        <time>2016-05-25T11:01:23Z</time>
      </trkpt>
      <trkpt lat="43.1087" lon="5.79608">
        <ele>-1.3</ele>
        <time>2016-05-25T11:01:47Z</time>
      </trkpt>
      <trkpt lat="43.10827" lon="5.7958">
        <ele>-0.82</ele>
        <time>2016-05-25T11:02:07Z</time>
      </trkpt>
      <trkpt lat="43.10788" lon="5.79555">
        <ele>-1.79</ele>
        <time>2016-05-25T11:02:26Z</time>
      </trkpt>
      <trkpt lat="43.10738" lon="5.79528">
        <ele>-1.79</ele>
        <time>2016-05-25T11:02:49Z</time>
      </trkpt>
      <trkpt lat="43.10699" lon="5.79513">
        <ele>-1.79</ele>
        <time>2016-05-25T11:03:05Z</time>
      </trkpt>
      <trkpt lat="43.10644" lon="5.79488">
        <ele>-1.3</ele>
        <time>2016-05-25T11:03:27Z</time>
      </trkpt>
      <trkpt lat="43.10596" lon="5.79471">
        <ele>-1.79</ele>
        <time>2016-05-25T11:03:47Z</time>
      </trkpt>
      <trkpt lat="43.10539" lon="5.79441">
        <ele>-0.82</ele>
        <time>2016-05-25T11:04:10Z</time>
      </trkpt>
      <trkpt lat="43.10486" lon="5.79419">
        <ele>-1.79</ele>
        <time>2016-05-25T11:04:30Z</time>
      </trkpt>
      <trkpt lat="43.10425" lon="5.79392">
        <ele>-1.79</ele>
        <time>2016-05-25T11:04:52Z</time>
      </trkpt>
      <trkpt lat="43.10369" lon="5.79365">
        <ele>-1.3</ele>
        <time>2016-05-25T11:05:13Z</time>
      </trkpt>
      <trkpt lat="43.10331" lon="5.79345">
        <ele>-0.82</ele>
        <time>2016-05-25T11:05:29Z</time>
      </trkpt>
      <trkpt lat="43.10294" lon="5.79326">
        <ele>-0.82</ele>
        <time>2016-05-25T11:05:45Z</time>
      </trkpt>
      <trkpt lat="43.10252" lon="5.79305">
        <ele>-0.34</ele>
        <time>2016-05-25T11:06:04Z</time>
      </trkpt>
      <trkpt lat="43.10208" lon="5.79286">
        <ele>-1.3</ele>
        <time>2016-05-25T11:06:23Z</time>
      </trkpt>
      <trkpt lat="43.10164" lon="5.7927">
        <ele>-1.3</ele>
        <time>2016-05-25T11:06:41Z</time>
      </trkpt>
      <trkpt lat="43.10124" lon="5.79248">
        <ele>-0.82</ele>
        <time>2016-05-25T11:06:58Z</time>
      </trkpt>
      <trkpt lat="43.1008" lon="5.79226">
        <ele>-1.79</ele>
        <time>2016-05-25T11:07:16Z</time>
      </trkpt>
      <trkpt lat="43.10034" lon="5.79205">
        <ele>-1.79</ele>
        <time>2016-05-25T11:07:34Z</time>
      </trkpt>
      <trkpt lat="43.09986" lon="5.79183">
        <ele>-1.79</ele>
        <time>2016-05-25T11:07:53Z</time>
      </trkpt>
      <trkpt lat="43.09947" lon="5.79164">
        <ele>-1.3</ele>
        <time>2016-05-25T11:08:09Z</time>
      </trkpt>
      <trkpt lat="43.09907" lon="5.79141">
        <ele>-1.3</ele>
        <time>2016-05-25T11:08:27Z</time>
      </trkpt>
      <trkpt lat="43.09868" lon="5.79118">
        <ele>-1.3</ele>
        <time>2016-05-25T11:08:46Z</time>
      </trkpt>
      <trkpt lat="43.09828" lon="5.79095">
        <ele>-1.3</ele>
        <time>2016-05-25T11:09:04Z</time>
      </trkpt>
      <trkpt lat="43.0978" lon="5.79072">
        <ele>-1.79</ele>
        <time>2016-05-25T11:09:23Z</time>
      </trkpt>
      <trkpt lat="43.09729" lon="5.79049">
        <ele>-1.79</ele>
        <time>2016-05-25T11:09:44Z</time>
      </trkpt>
      <trkpt lat="43.09687" lon="5.7903">
        <ele>-1.3</ele>
        <time>2016-05-25T11:10:02Z</time>
      </trkpt>
      <trkpt lat="43.09639" lon="5.79006">
        <ele>-1.79</ele>
        <time>2016-05-25T11:10:23Z</time>
      </trkpt>
      <trkpt lat="43.09601" lon="5.78985">
        <ele>-1.3</ele>
        <time>2016-05-25T11:10:40Z</time>
      </trkpt>
      <trkpt lat="43.09564" lon="5.7896">
        <ele>-1.3</ele>
        <time>2016-05-25T11:10:59Z</time>
      </trkpt>
      <trkpt lat="43.09519" lon="5.78941">
        <ele>-1.79</ele>
        <time>2016-05-25T11:11:22Z</time>
      </trkpt>
      <trkpt lat="43.09483" lon="5.78924">
        <ele>-1.79</ele>
        <time>2016-05-25T11:11:43Z</time>
      </trkpt>
      <trkpt lat="43.09461" lon="5.78918">
        <ele>-1.79</ele>
        <time>2016-05-25T11:11:59Z</time>
      </trkpt>
      <trkpt lat="43.0944" lon="5.78906">
        <ele>-2.27</ele>
        <time>2016-05-25T11:12:17Z</time>
      </trkpt>
      <trkpt lat="43.09416" lon="5.78893">
        <ele>-2.27</ele>
        <time>2016-05-25T11:12:38Z</time>
      </trkpt>
      <trkpt lat="43.09396" lon="5.7888">
        <ele>-1.79</ele>
        <time>2016-05-25T11:12:57Z</time>
      </trkpt>
      <trkpt lat="43.09376" lon="5.78868">
        <ele>-1.79</ele>
        <time>2016-05-25T11:13:15Z</time>
      </trkpt>
      <trkpt lat="43.09358" lon="5.78861">
        <ele>-2.27</ele>
        <time>2016-05-25T11:13:33Z</time>
      </trkpt>
      <trkpt lat="43.0934" lon="5.78851">
        <ele>-2.27</ele>
        <time>2016-05-25T11:13:52Z</time>
      </trkpt>
      <trkpt lat="43.09328" lon="5.78844">
        <ele>-1.79</ele>
        <time>2016-05-25T11:14:08Z</time>
      </trkpt>
      <trkpt lat="43.09318" lon="5.78828">
        <ele>-1.79</ele>
        <time>2016-05-25T11:14:28Z</time>
      </trkpt>
      <trkpt lat="43.0931" lon="5.78813">
        <ele>-1.79</ele>
        <time>2016-05-25T11:14:48Z</time>
      </trkpt>
      <trkpt lat="43.09304" lon="5.78801">
        <ele>-1.3</ele>
        <time>2016-05-25T11:15:07Z</time>
      </trkpt>
      <trkpt lat="43.09299" lon="5.78789">
        <ele>-1.3</ele>
        <time>2016-05-25T11:15:24Z</time>
      </trkpt>
      <trkpt lat="43.09294" lon="5.78776">
        <ele>-1.3</ele>
        <time>2016-05-25T11:15:43Z</time>
      </trkpt>
      <trkpt lat="43.09288" lon="5.78763">
        <ele>-1.79</ele>
        <time>2016-05-25T11:16:05Z</time>
      </trkpt>
      <trkpt lat="43.09282" lon="5.78749">
        <ele>-1.79</ele>
        <time>2016-05-25T11:16:29Z</time>
      </trkpt>
      <trkpt lat="43.09278" lon="5.78735">
        <ele>-1.79</ele>
        <time>2016-05-25T11:16:49Z</time>
      </trkpt>
      <trkpt lat="43.09276" lon="5.78713">
        <ele>-0.82</ele>
        <time>2016-05-25T11:17:13Z</time>
      </trkpt>
      <trkpt lat="43.09277" lon="5.78691">
        <ele>-1.3</ele>
        <time>2016-05-25T11:17:35Z</time>
      </trkpt>
      <trkpt lat="43.09275" lon="5.78669">
        <ele>-0.82</ele>
        <time>2016-05-25T11:17:58Z</time>
      </trkpt>
      <trkpt lat="43.0927" lon="5.78646">
        <ele>-1.3</ele>
        <time>2016-05-25T11:18:21Z</time>
      </trkpt>
      <trkpt lat="43.09268" lon="5.78633">
        <ele>-0.82</ele>
        <time>2016-05-25T11:18:32Z</time>
      </trkpt>
      <trkpt lat="43.09258" lon="5.78602">
        <ele>-1.3</ele>
        <time>2016-05-25T11:18:54Z</time>
      </trkpt>
      <trkpt lat="43.09247" lon="5.7857">
        <ele>-1.3</ele>
        <time>2016-05-25T11:19:14Z</time>
      </trkpt>
      <trkpt lat="43.09236" lon="5.78539">
        <ele>-1.3</ele>
        <time>2016-05-25T11:19:31Z</time>
      </trkpt>
      <trkpt lat="43.09223" lon="5.78503">
        <ele>-1.3</ele>
        <time>2016-05-25T11:19:50Z</time>
      </trkpt>
      <trkpt lat="43.09206" lon="5.78461">
        <ele>-1.3</ele>
        <time>2016-05-25T11:20:09Z</time>
      </trkpt>
      <trkpt lat="43.09186" lon="5.78423">
        <ele>-1.3</ele>
        <time>2016-05-25T11:20:24Z</time>
      </trkpt>
      <trkpt lat="43.09144" lon="5.78385">
        <ele>-1.3</ele>
        <time>2016-05-25T11:20:44Z</time>
      </trkpt>
      <trkpt lat="43.091" lon="5.7837">
        <ele>-1.79</ele>
        <time>2016-05-25T11:21:04Z</time>
      </trkpt>
      <trkpt lat="43.09062" lon="5.78361">
        <ele>-1.79</ele>
        <time>2016-05-25T11:21:25Z</time>
      </trkpt>
      <trkpt lat="43.09026" lon="5.78353">
        <ele>-1.3</ele>
        <time>2016-05-25T11:21:45Z</time>
      </trkpt>
      <trkpt lat="43.08992" lon="5.78347">
        <ele>-1.3</ele>
        <time>2016-05-25T11:22:04Z</time>
      </trkpt>
      <trkpt lat="43.08949" lon="5.78339">
        <ele>-1.79</ele>
        <time>2016-05-25T11:22:25Z</time>
      </trkpt>
      <trkpt lat="43.08905" lon="5.78332">
        <ele>-2.75</ele>
        <time>2016-05-25T11:22:45Z</time>
      </trkpt>
      <trkpt lat="43.08861" lon="5.7832">
        <ele>-2.75</ele>
        <time>2016-05-25T11:23:07Z</time>
      </trkpt>
      <trkpt lat="43.08813" lon="5.78308">
        <ele>-3.23</ele>
        <time>2016-05-25T11:23:30Z</time>
      </trkpt>
      <trkpt lat="43.08771" lon="5.78302">
        <ele>-2.75</ele>
        <time>2016-05-25T11:23:50Z</time>
      </trkpt>
      <trkpt lat="43.08728" lon="5.78295">
        <ele>-2.75</ele>
        <time>2016-05-25T11:24:13Z</time>
      </trkpt>
      <trkpt lat="43.08694" lon="5.78283">
        <ele>-2.27</ele>
        <time>2016-05-25T11:24:34Z</time>
      </trkpt>
      <trkpt lat="43.08666" lon="5.7827">
        <ele>-2.27</ele>
        <time>2016-05-25T11:24:52Z</time>
      </trkpt>
      <trkpt lat="43.0864" lon="5.78263">
        <ele>-1.79</ele>
        <time>2016-05-25T11:25:10Z</time>
      </trkpt>
      <trkpt lat="43.08632" lon="5.78303">
        <ele>-1.3</ele>
        <time>2016-05-25T11:25:32Z</time>
      </trkpt>
      <trkpt lat="43.08624" lon="5.78369">
        <ele>-0.82</ele>
        <time>2016-05-25T11:25:53Z</time>
      </trkpt>
      <trkpt lat="43.0861" lon="5.78445">
        <ele>-0.34</ele>
        <time>2016-05-25T11:26:18Z</time>
      </trkpt>
      <trkpt lat="43.08596" lon="5.78516">
        <ele>-0.34</ele>
        <time>2016-05-25T11:26:47Z</time>
      </trkpt>
      <trkpt lat="43.08597" lon="5.78557">
        <ele>-0.82</ele>
        <time>2016-05-25T11:27:13Z</time>
      </trkpt>
      <trkpt lat="43.08618" lon="5.78606">
        <ele>0.14</ele>
        <time>2016-05-25T11:27:36Z</time>
      </trkpt>
      <trkpt lat="43.08647" lon="5.78678">
        <ele>0.14</ele>
        <time>2016-05-25T11:28:06Z</time>
      </trkpt>
      <trkpt lat="43.08652" lon="5.78717">
        <ele>-0.34</ele>
        <time>2016-05-25T11:28:27Z</time>
      </trkpt>
      <trkpt lat="43.08651" lon="5.78719">
        <ele>-0.34</ele>
        <time>2016-05-25T11:28:29Z</time>
      </trkpt>
      <trkpt lat="43.08643" lon="5.78718">
        <ele>-0.82</ele>
        <time>2016-05-25T11:28:36Z</time>
      </trkpt>
      <trkpt lat="43.08602" lon="5.78689">
        <ele>-1.3</ele>
        <time>2016-05-25T11:28:57Z</time>
      </trkpt>
      <trkpt lat="43.08557" lon="5.78658">
        <ele>-2.75</ele>
        <time>2016-05-25T11:29:17Z</time>
      </trkpt>
      <trkpt lat="43.08531" lon="5.78613">
        <ele>-1.79</ele>
        <time>2016-05-25T11:29:33Z</time>
      </trkpt>
      <trkpt lat="43.08509" lon="5.78529">
        <ele>-1.79</ele>
        <time>2016-05-25T11:29:59Z</time>
      </trkpt>
      <trkpt lat="43.08493" lon="5.78458">
        <ele>-1.79</ele>
        <time>2016-05-25T11:30:25Z</time>
      </trkpt>
      <trkpt lat="43.08501" lon="5.78395">
        <ele>-2.27</ele>
        <time>2016-05-25T11:30:48Z</time>
      </trkpt>
      <trkpt lat="43.08511" lon="5.78342">
        <ele>-2.27</ele>
        <time>2016-05-25T11:31:11Z</time>
      </trkpt>
      <trkpt lat="43.0852" lon="5.78281">
        <ele>-1.79</ele>
        <time>2016-05-25T11:31:42Z</time>
      </trkpt>
      <trkpt lat="43.08528" lon="5.78229">
        <ele>-1.3</ele>
        <time>2016-05-25T11:32:11Z</time>
      </trkpt>
      <trkpt lat="43.08513" lon="5.78218">
        <ele>-1.3</ele>
        <time>2016-05-25T11:32:28Z</time>
      </trkpt>
      <trkpt lat="43.08504" lon="5.78232">
        <ele>-1.3</ele>
        <time>2016-05-25T11:32:53Z</time>
      </trkpt>
      <trkpt lat="43.08489" lon="5.78242">
        <ele>-1.3</ele>
        <time>2016-05-25T11:33:21Z</time>
      </trkpt>
      <trkpt lat="43.08473" lon="5.78249">
        <ele>-0.82</ele>
        <time>2016-05-25T11:33:40Z</time>
      </trkpt>
      <trkpt lat="43.08472" lon="5.7825">
        <ele>-0.82</ele>
        <time>2016-05-25T11:33:41Z</time>
      </trkpt>
      <trkpt lat="43.08453" lon="5.78275">
        <ele>-1.3</ele>
        <time>2016-05-25T11:34:10Z</time>
      </trkpt>
      <trkpt lat="43.08436" lon="5.78285">
        <ele>-1.3</ele>
        <time>2016-05-25T11:34:32Z</time>
      </trkpt>
      <trkpt lat="43.08423" lon="5.78307">
        <ele>-1.3</ele>
        <time>2016-05-25T11:34:55Z</time>
      </trkpt>
      <trkpt lat="43.08423" lon="5.7831">
        <ele>-1.3</ele>
        <time>2016-05-25T11:34:57Z</time>
      </trkpt>
      <trkpt lat="43.08436" lon="5.7834">
        <ele>0.14</ele>
        <time>2016-05-25T11:35:22Z</time>
      </trkpt>
      <trkpt lat="43.08462" lon="5.7833">
        <ele>0.14</ele>
        <time>2016-05-25T11:35:44Z</time>
      </trkpt>
      <trkpt lat="43.0847" lon="5.78289">
        <ele>-1.3</ele>
        <time>2016-05-25T11:36:05Z</time>
      </trkpt>
      <trkpt lat="43.08458" lon="5.78237">
        <ele>-0.82</ele>
        <time>2016-05-25T11:36:32Z</time>
      </trkpt>
      <trkpt lat="43.08444" lon="5.782">
        <ele>-0.82</ele>
        <time>2016-05-25T11:36:55Z</time>
      </trkpt>
      <trkpt lat="43.08424" lon="5.78167">
        <ele>-1.79</ele>
        <time>2016-05-25T11:37:20Z</time>
      </trkpt>
      <trkpt lat="43.08415" lon="5.78165">
        <ele>-1.3</ele>
        <time>2016-05-25T11:37:44Z</time>
      </trkpt>
      <trkpt lat="43.08424" lon="5.78166">
        <ele>-0.82</ele>
        <time>2016-05-25T11:38:10Z</time>
      </trkpt>
      <trkpt lat="43.08429" lon="5.78174">
        <ele>-1.3</ele>
        <time>2016-05-25T11:38:36Z</time>
      </trkpt>
      <trkpt lat="43.08427" lon="5.78149">
        <ele>-1.3</ele>
        <time>2016-05-25T11:39:03Z</time>
      </trkpt>
      <trkpt lat="43.08421" lon="5.78141">
        <ele>-1.3</ele>
        <time>2016-05-25T11:39:21Z</time>
      </trkpt>
      <trkpt lat="43.08424" lon="5.78141">
        <ele>-1.3</ele>
        <time>2016-05-25T11:39:42Z</time>
      </trkpt>
      <trkpt lat="43.08427" lon="5.78149">
        <ele>-0.82</ele>
        <time>2016-05-25T11:40:05Z</time>
      </trkpt>
      <trkpt lat="43.0843" lon="5.7815">
        <ele>-0.82</ele>
        <time>2016-05-25T11:40:33Z</time>
      </trkpt>
      <trkpt lat="43.08435" lon="5.78148">
        <ele>-0.34</ele>
        <time>2016-05-25T11:40:58Z</time>
      </trkpt>
      <trkpt lat="43.08439" lon="5.78129">
        <ele>-1.3</ele>
        <time>2016-05-25T11:41:19Z</time>
      </trkpt>
      <trkpt lat="43.08433" lon="5.78119">
        <ele>-1.79</ele>
        <time>2016-05-25T11:41:40Z</time>
      </trkpt>
      <trkpt lat="43.08419" lon="5.78113">
        <ele>-1.3</ele>
        <time>2016-05-25T11:41:58Z</time>
      </trkpt>
      <trkpt lat="43.0843" lon="5.78116">
        <ele>-0.82</ele>
        <time>2016-05-25T11:42:17Z</time>
      </trkpt>
      <trkpt lat="43.08433" lon="5.78127">
        <ele>-1.3</ele>
        <time>2016-05-25T11:42:39Z</time>
      </trkpt>
      <trkpt lat="43.08442" lon="5.78111">
        <ele>-1.3</ele>
        <time>2016-05-25T11:42:57Z</time>
      </trkpt>
      <trkpt lat="43.08464" lon="5.78116">
        <ele>-0.34</ele>
        <time>2016-05-25T11:43:20Z</time>
      </trkpt>
      <trkpt lat="43.08475" lon="5.78156">
        <ele>-0.34</ele>
        <time>2016-05-25T11:43:48Z</time>
      </trkpt>
      <trkpt lat="43.08469" lon="5.78195">
        <ele>-0.82</ele>
        <time>2016-05-25T11:44:15Z</time>
      </trkpt>
      <trkpt lat="43.08466" lon="5.78208">
        <ele>-0.82</ele>
        <time>2016-05-25T11:44:37Z</time>
      </trkpt>
      <trkpt lat="43.08466" lon="5.7821">
        <ele>-1.3</ele>
        <time>2016-05-25T11:44:58Z</time>
      </trkpt>
      <trkpt lat="43.08466" lon="5.78209">
        <ele>-0.82</ele>
        <time>2016-05-25T11:45:17Z</time>
      </trkpt>
      <trkpt lat="43.08457" lon="5.78201">
        <ele>-0.82</ele>
        <time>2016-05-25T11:45:41Z</time>
      </trkpt>
      <trkpt lat="43.08436" lon="5.78195">
        <ele>-0.34</ele>
        <time>2016-05-25T11:46:07Z</time>
      </trkpt>
      <trkpt lat="43.08432" lon="5.78195">
        <ele>-0.34</ele>
        <time>2016-05-25T11:46:26Z</time>
      </trkpt>
      <trkpt lat="43.08433" lon="5.78195">
        <ele>-0.82</ele>
        <time>2016-05-25T11:46:48Z</time>
      </trkpt>
      <trkpt lat="43.08437" lon="5.78205">
        <ele>-0.82</ele>
        <time>2016-05-25T11:47:14Z</time>
      </trkpt>
      <trkpt lat="43.08437" lon="5.78217">
        <ele>-1.3</ele>
        <time>2016-05-25T11:47:42Z</time>
      </trkpt>
      <trkpt lat="43.08434" lon="5.7823">
        <ele>-0.82</ele>
        <time>2016-05-25T11:48:12Z</time>
      </trkpt>
      <trkpt lat="43.08432" lon="5.78234">
        <ele>-0.82</ele>
        <time>2016-05-25T11:48:45Z</time>
      </trkpt>
      <trkpt lat="43.08419" lon="5.78234">
        <ele>0.14</ele>
        <time>2016-05-25T11:49:15Z</time>
      </trkpt>
      <trkpt lat="43.08407" lon="5.78225">
        <ele>0.62</ele>
        <time>2016-05-25T11:49:45Z</time>
      </trkpt>
      <trkpt lat="43.08405" lon="5.78221">
        <ele>1.1</ele>
        <time>2016-05-25T11:50:16Z</time>
      </trkpt>
      <trkpt lat="43.08407" lon="5.78218">
        <ele>0.62</ele>
        <time>2016-05-25T11:50:41Z</time>
      </trkpt>
      <trkpt lat="43.08408" lon="5.78211">
        <ele>-0.34</ele>
        <time>2016-05-25T11:51:08Z</time>
      </trkpt>
      <trkpt lat="43.08409" lon="5.78206">
        <ele>-0.34</ele>
        <time>2016-05-25T11:51:30Z</time>
      </trkpt>
      <trkpt lat="43.08423" lon="5.78197">
        <ele>0.14</ele>
        <time>2016-05-25T11:51:57Z</time>
      </trkpt>
      <trkpt lat="43.08431" lon="5.78202">
        <ele>0.14</ele>
        <time>2016-05-25T11:52:22Z</time>
      </trkpt>
      <trkpt lat="43.08437" lon="5.78206">
        <ele>0.14</ele>
        <time>2016-05-25T11:52:52Z</time>
      </trkpt>
      <trkpt lat="43.08441" lon="5.78208">
        <ele>0.14</ele>
        <time>2016-05-25T11:53:19Z</time>
      </trkpt>
      <trkpt lat="43.08446" lon="5.78207">
        <ele>1.1</ele>
        <time>2016-05-25T11:53:47Z</time>
      </trkpt>
      <trkpt lat="43.08451" lon="5.78206">
        <ele>0.62</ele>
        <time>2016-05-25T11:54:09Z</time>
      </trkpt>
      <trkpt lat="43.08457" lon="5.78203">
        <ele>1.1</ele>
        <time>2016-05-25T11:54:37Z</time>
      </trkpt>
      <trkpt lat="43.0846" lon="5.78203">
        <ele>-0.34</ele>
        <time>2016-05-25T11:55:00Z</time>
      </trkpt>
      <trkpt lat="43.08462" lon="5.78206">
        <ele>-3.23</ele>
        <time>2016-05-25T11:55:25Z</time>
      </trkpt>
      <trkpt lat="43.08463" lon="5.78206">
        <ele>-2.75</ele>
        <time>2016-05-25T11:55:44Z</time>
      </trkpt>
      <trkpt lat="43.08464" lon="5.78205">
        <ele>-2.27</ele>
        <time>2016-05-25T11:56:10Z</time>
      </trkpt>
      <trkpt lat="43.08464" lon="5.78205">
        <ele>-2.27</ele>
        <time>2016-05-25T11:56:37Z</time>
      </trkpt>
      <trkpt lat="43.08464" lon="5.78208">
        <ele>-1.79</ele>
        <time>2016-05-25T11:57:01Z</time>
      </trkpt>
      <trkpt lat="43.08464" lon="5.78209">
        <ele>-1.3</ele>
        <time>2016-05-25T11:57:25Z</time>
      </trkpt>
      <trkpt lat="43.08464" lon="5.78209">
        <ele>-1.3</ele>
        <time>2016-05-25T11:57:42Z</time>
      </trkpt>
      <trkpt lat="43.08463" lon="5.78206">
        <ele>-0.34</ele>
        <time>2016-05-25T11:58:06Z</time>
      </trkpt>
      <trkpt lat="43.08463" lon="5.78205">
        <ele>-0.82</ele>
        <time>2016-05-25T11:58:31Z</time>
      </trkpt>
      <trkpt lat="43.08463" lon="5.78203">
        <ele>-0.82</ele>
        <time>2016-05-25T11:58:58Z</time>
      </trkpt>
      <trkpt lat="43.08463" lon="5.78203">
        <ele>-0.82</ele>
        <time>2016-05-25T11:59:26Z</time>
      </trkpt>
      <trkpt lat="43.08463" lon="5.78206">
        <ele>-0.82</ele>
        <time>2016-05-25T11:59:54Z</time>
      </trkpt>
      <trkpt lat="43.08465" lon="5.78208">
        <ele>-0.82</ele>
        <time>2016-05-25T12:00:19Z</time>
      </trkpt>
      <trkpt lat="43.08465" lon="5.78208">
        <ele>-0.82</ele>
        <time>2016-05-25T12:00:44Z</time>
      </trkpt>
      <trkpt lat="43.08465" lon="5.78208">
        <ele>-0.82</ele>
        <time>2016-05-25T12:01:05Z</time>
      </trkpt>
      <trkpt lat="43.08464" lon="5.78207">
        <ele>-0.82</ele>
        <time>2016-05-25T12:01:32Z</time>
      </trkpt>
      <trkpt lat="43.08463" lon="5.78206">
        <ele>-0.82</ele>
        <time>2016-05-25T12:01:56Z</time>
      </trkpt>
      <trkpt lat="43.08464" lon="5.78206">
        <ele>-0.34</ele>
        <time>2016-05-25T12:02:21Z</time>
      </trkpt>
      <trkpt lat="43.08465" lon="5.78208">
        <ele>-0.34</ele>
        <time>2016-05-25T12:02:41Z</time>
      </trkpt>
      <trkpt lat="43.08465" lon="5.78209">
        <ele>-0.82</ele>
        <time>2016-05-25T12:03:09Z</time>
      </trkpt>
      <trkpt lat="43.08466" lon="5.78209">
        <ele>-0.82</ele>
        <time>2016-05-25T12:03:33Z</time>
      </trkpt>
      <trkpt lat="43.08466" lon="5.78208">
        <ele>-0.34</ele>
        <time>2016-05-25T12:04:00Z</time>
      </trkpt>
      <trkpt lat="43.08465" lon="5.78207">
        <ele>-0.34</ele>
        <time>2016-05-25T12:04:23Z</time>
      </trkpt>
      <trkpt lat="43.08465" lon="5.78206">
        <ele>-0.34</ele>
        <time>2016-05-25T12:04:47Z</time>
      </trkpt>
      <trkpt lat="43.08465" lon="5.78206">
        <ele>-0.82</ele>
        <time>2016-05-25T12:05:10Z</time>
      </trkpt>
      <trkpt lat="43.08464" lon="5.78207">
        <ele>-0.82</ele>
        <time>2016-05-25T12:05:33Z</time>
      </trkpt>
      <trkpt lat="43.08464" lon="5.78206">
        <ele>-0.82</ele>
        <time>2016-05-25T12:06:00Z</time>
      </trkpt>
      <trkpt lat="43.08464" lon="5.78205">
        <ele>-0.34</ele>
        <time>2016-05-25T12:06:25Z</time>
      </trkpt>
      <trkpt lat="43.08465" lon="5.78205">
        <ele>-0.34</ele>
        <time>2016-05-25T12:06:52Z</time>
      </trkpt>
      <trkpt lat="43.08464" lon="5.78206">
        <ele>-0.34</ele>
        <time>2016-05-25T12:07:16Z</time>
      </trkpt>
      <trkpt lat="43.08464" lon="5.78206">
        <ele>-0.34</ele>
        <time>2016-05-25T12:07:42Z</time>
      </trkpt>
      <trkpt lat="43.08463" lon="5.78204">
        <ele>-0.82</ele>
        <time>2016-05-25T12:08:09Z</time>
      </trkpt>
      <trkpt lat="43.08463" lon="5.78203">
        <ele>-0.34</ele>
        <time>2016-05-25T12:08:33Z</time>
      </trkpt>
      <trkpt lat="43.08463" lon="5.78203">
        <ele>-0.34</ele>
        <time>2016-05-25T12:08:56Z</time>
      </trkpt>
      <trkpt lat="43.08463" lon="5.78203">
        <ele>-0.82</ele>
        <time>2016-05-25T12:09:17Z</time>
      </trkpt>
      <trkpt lat="43.08464" lon="5.78204">
        <ele>-0.82</ele>
        <time>2016-05-25T12:09:37Z</time>
      </trkpt>
      <trkpt lat="43.08464" lon="5.78204">
        <ele>-0.82</ele>
        <time>2016-05-25T12:10:04Z</time>
      </trkpt>
      <trkpt lat="43.08464" lon="5.78204">
        <ele>-0.82</ele>
        <time>2016-05-25T12:10:24Z</time>
      </trkpt>
      <trkpt lat="43.08464" lon="5.78205">
        <ele>-0.34</ele>
        <time>2016-05-25T12:10:47Z</time>
      </trkpt>
      <trkpt lat="43.08464" lon="5.78206">
        <ele>-0.82</ele>
        <time>2016-05-25T12:11:07Z</time>
      </trkpt>
      <trkpt lat="43.08464" lon="5.78207">
        <ele>-0.82</ele>
        <time>2016-05-25T12:11:29Z</time>
      </trkpt>
      <trkpt lat="43.08464" lon="5.78208">
        <ele>-0.34</ele>
        <time>2016-05-25T12:11:46Z</time>
      </trkpt>
      <trkpt lat="43.08464" lon="5.78206">
        <ele>-0.34</ele>
        <time>2016-05-25T12:12:02Z</time>
      </trkpt>
      <trkpt lat="43.08464" lon="5.78204">
        <ele>-0.82</ele>
        <time>2016-05-25T12:12:23Z</time>
      </trkpt>
      <trkpt lat="43.08463" lon="5.78204">
        <ele>-0.82</ele>
        <time>2016-05-25T12:12:45Z</time>
      </trkpt>
      <trkpt lat="43.08463" lon="5.78204">
        <ele>-0.82</ele>
        <time>2016-05-25T12:13:05Z</time>
      </trkpt>
      <trkpt lat="43.08463" lon="5.78207">
        <ele>-0.82</ele>
        <time>2016-05-25T12:13:24Z</time>
      </trkpt>
      <trkpt lat="43.08464" lon="5.78208">
        <ele>-0.82</ele>
        <time>2016-05-25T12:13:48Z</time>
      </trkpt>
      <trkpt lat="43.08464" lon="5.78209">
        <ele>-0.82</ele>
        <time>2016-05-25T12:14:08Z</time>
      </trkpt>
      <trkpt lat="43.08465" lon="5.78209">
        <ele>-0.82</ele>
        <time>2016-05-25T12:14:25Z</time>
      </trkpt>
      <trkpt lat="43.08466" lon="5.78208">
        <ele>-0.82</ele>
        <time>2016-05-25T12:14:42Z</time>
      </trkpt>
      <trkpt lat="43.08465" lon="5.78208">
        <ele>-1.3</ele>
        <time>2016-05-25T12:15:06Z</time>
      </trkpt>
      <trkpt lat="43.08465" lon="5.78208">
        <ele>-0.82</ele>
        <time>2016-05-25T12:15:25Z</time>
      </trkpt>
      <trkpt lat="43.08464" lon="5.78209">
        <ele>-0.82</ele>
        <time>2016-05-25T12:15:47Z</time>
      </trkpt>
      <trkpt lat="43.08464" lon="5.78209">
        <ele>-0.82</ele>
        <time>2016-05-25T12:16:14Z</time>
      </trkpt>
      <trkpt lat="43.08465" lon="5.7821">
        <ele>-0.34</ele>
        <time>2016-05-25T12:16:33Z</time>
      </trkpt>
      <trkpt lat="43.08465" lon="5.7821">
        <ele>-0.34</ele>
        <time>2016-05-25T12:16:53Z</time>
      </trkpt>
      <trkpt lat="43.08465" lon="5.78208">
        <ele>-0.82</ele>
        <time>2016-05-25T12:17:10Z</time>
      </trkpt>
      <trkpt lat="43.08464" lon="5.78206">
        <ele>-0.82</ele>
        <time>2016-05-25T12:17:33Z</time>
      </trkpt>
      <trkpt lat="43.08463" lon="5.78205">
        <ele>-0.34</ele>
        <time>2016-05-25T12:17:58Z</time>
      </trkpt>
      <trkpt lat="43.08462" lon="5.78205">
        <ele>-0.82</ele>
        <time>2016-05-25T12:18:21Z</time>
      </trkpt>
      <trkpt lat="43.08462" lon="5.78206">
        <ele>-1.3</ele>
        <time>2016-05-25T12:18:47Z</time>
      </trkpt>
      <trkpt lat="43.08463" lon="5.78207">
        <ele>-0.82</ele>
        <time>2016-05-25T12:19:06Z</time>
      </trkpt>
      <trkpt lat="43.08464" lon="5.78208">
        <ele>-0.82</ele>
        <time>2016-05-25T12:19:31Z</time>
      </trkpt>
      <trkpt lat="43.08465" lon="5.78209">
        <ele>-0.82</ele>
        <time>2016-05-25T12:19:56Z</time>
      </trkpt>
      <trkpt lat="43.08465" lon="5.78209">
        <ele>-0.82</ele>
        <time>2016-05-25T12:20:15Z</time>
      </trkpt>
      <trkpt lat="43.08465" lon="5.78208">
        <ele>-0.82</ele>
        <time>2016-05-25T12:20:36Z</time>
      </trkpt>
      <trkpt lat="43.08464" lon="5.78207">
        <ele>-0.82</ele>
        <time>2016-05-25T12:21:01Z</time>
      </trkpt>
      <trkpt lat="43.08464" lon="5.78208">
        <ele>-0.82</ele>
        <time>2016-05-25T12:21:22Z</time>
      </trkpt>
      <trkpt lat="43.08464" lon="5.78208">
        <ele>-1.3</ele>
        <time>2016-05-25T12:21:49Z</time>
      </trkpt>
      <trkpt lat="43.08465" lon="5.78208">
        <ele>-0.82</ele>
        <time>2016-05-25T12:22:10Z</time>
      </trkpt>
      <trkpt lat="43.08466" lon="5.78209">
        <ele>-0.34</ele>
        <time>2016-05-25T12:22:32Z</time>
      </trkpt>
      <trkpt lat="43.08466" lon="5.7821">
        <ele>-0.34</ele>
        <time>2016-05-25T12:22:55Z</time>
      </trkpt>
      <trkpt lat="43.08466" lon="5.78211">
        <ele>-0.34</ele>
        <time>2016-05-25T12:23:19Z</time>
      </trkpt>
      <trkpt lat="43.08466" lon="5.78211">
        <ele>-0.82</ele>
        <time>2016-05-25T12:23:39Z</time>
      </trkpt>
      <trkpt lat="43.08467" lon="5.78211">
        <ele>-1.3</ele>
        <time>2016-05-25T12:23:58Z</time>
      </trkpt>
      <trkpt lat="43.08466" lon="5.78209">
        <ele>-1.3</ele>
        <time>2016-05-25T12:24:20Z</time>
      </trkpt>
      <trkpt lat="43.08465" lon="5.78209">
        <ele>-0.34</ele>
        <time>2016-05-25T12:24:43Z</time>
      </trkpt>
      <trkpt lat="43.08464" lon="5.78209">
        <ele>-0.82</ele>
        <time>2016-05-25T12:25:03Z</time>
      </trkpt>
      <trkpt lat="43.08464" lon="5.78208">
        <ele>-0.34</ele>
        <time>2016-05-25T12:25:22Z</time>
      </trkpt>
      <trkpt lat="43.08465" lon="5.78208">
        <ele>-0.34</ele>
        <time>2016-05-25T12:25:46Z</time>
      </trkpt>
      <trkpt lat="43.08465" lon="5.78208">
        <ele>-0.34</ele>
        <time>2016-05-25T12:26:09Z</time>
      </trkpt>
      <trkpt lat="43.08464" lon="5.78207">
        <ele>-0.82</ele>
        <time>2016-05-25T12:26:30Z</time>
      </trkpt>
      <trkpt lat="43.08464" lon="5.78208">
        <ele>-0.82</ele>
        <time>2016-05-25T12:26:50Z</time>
      </trkpt>
      <trkpt lat="43.08464" lon="5.78209">
        <ele>-0.82</ele>
        <time>2016-05-25T12:27:10Z</time>
      </trkpt>
      <trkpt lat="43.08464" lon="5.78209">
        <ele>-0.34</ele>
        <time>2016-05-25T12:27:31Z</time>
      </trkpt>
      <trkpt lat="43.08464" lon="5.7821">
        <ele>-0.82</ele>
        <time>2016-05-25T12:27:47Z</time>
      </trkpt>
      <trkpt lat="43.08464" lon="5.78209">
        <ele>-0.82</ele>
        <time>2016-05-25T12:28:09Z</time>
      </trkpt>
      <trkpt lat="43.08464" lon="5.78208">
        <ele>-0.82</ele>
        <time>2016-05-25T12:28:33Z</time>
      </trkpt>
      <trkpt lat="43.08464" lon="5.78207">
        <ele>-1.3</ele>
        <time>2016-05-25T12:28:53Z</time>
      </trkpt>
      <trkpt lat="43.08464" lon="5.78207">
        <ele>-1.3</ele>
        <time>2016-05-25T12:29:10Z</time>
      </trkpt>
      <trkpt lat="43.08464" lon="5.78207">
        <ele>-1.79</ele>
        <time>2016-05-25T12:29:33Z</time>
      </trkpt>
      <trkpt lat="43.08464" lon="5.78208">
        <ele>-1.3</ele>
        <time>2016-05-25T12:29:51Z</time>
      </trkpt>
      <trkpt lat="43.08463" lon="5.78208">
        <ele>-1.3</ele>
        <time>2016-05-25T12:30:13Z</time>
      </trkpt>
      <trkpt lat="43.08463" lon="5.78208">
        <ele>-1.3</ele>
        <time>2016-05-25T12:30:34Z</time>
      </trkpt>
      <trkpt lat="43.08463" lon="5.78207">
        <ele>-1.3</ele>
        <time>2016-05-25T12:30:53Z</time>
      </trkpt>
      <trkpt lat="43.08462" lon="5.78206">
        <ele>-1.3</ele>
        <time>2016-05-25T12:31:15Z</time>
      </trkpt>
      <trkpt lat="43.08462" lon="5.78204">
        <ele>-1.3</ele>
        <time>2016-05-25T12:31:40Z</time>
      </trkpt>
      <trkpt lat="43.08462" lon="5.78204">
        <ele>-1.79</ele>
        <time>2016-05-25T12:32:03Z</time>
      </trkpt>
      <trkpt lat="43.08462" lon="5.78204">
        <ele>-1.79</ele>
        <time>2016-05-25T12:32:25Z</time>
      </trkpt>
      <trkpt lat="43.08462" lon="5.78204">
        <ele>-1.79</ele>
        <time>2016-05-25T12:32:44Z</time>
      </trkpt>
      <trkpt lat="43.08461" lon="5.78204">
        <ele>-1.79</ele>
        <time>2016-05-25T12:33:01Z</time>
      </trkpt>
      <trkpt lat="43.08461" lon="5.78204">
        <ele>-1.79</ele>
        <time>2016-05-25T12:33:23Z</time>
      </trkpt>
      <trkpt lat="43.08459" lon="5.78204">
        <ele>-1.79</ele>
        <time>2016-05-25T12:33:44Z</time>
      </trkpt>
      <trkpt lat="43.08459" lon="5.78203">
        <ele>-2.27</ele>
        <time>2016-05-25T12:34:07Z</time>
      </trkpt>
      <trkpt lat="43.0846" lon="5.78204">
        <ele>-2.75</ele>
        <time>2016-05-25T12:34:35Z</time>
      </trkpt>
      <trkpt lat="43.08461" lon="5.78205">
        <ele>-2.27</ele>
        <time>2016-05-25T12:35:00Z</time>
      </trkpt>
      <trkpt lat="43.08462" lon="5.78206">
        <ele>-1.79</ele>
        <time>2016-05-25T12:35:21Z</time>
      </trkpt>
      <trkpt lat="43.08463" lon="5.78206">
        <ele>-1.79</ele>
        <time>2016-05-25T12:35:42Z</time>
      </trkpt>
      <trkpt lat="43.08463" lon="5.78205">
        <ele>-1.79</ele>
        <time>2016-05-25T12:36:01Z</time>
      </trkpt>
      <trkpt lat="43.08462" lon="5.78204">
        <ele>-1.79</ele>
        <time>2016-05-25T12:36:23Z</time>
      </trkpt>
      <trkpt lat="43.08462" lon="5.78203">
        <ele>-1.79</ele>
        <time>2016-05-25T12:36:46Z</time>
      </trkpt>
      <trkpt lat="43.0846" lon="5.78203">
        <ele>-1.79</ele>
        <time>2016-05-25T12:37:08Z</time>
      </trkpt>
      <trkpt lat="43.08458" lon="5.78202">
        <ele>-2.27</ele>
        <time>2016-05-25T12:37:32Z</time>
      </trkpt>
      <trkpt lat="43.08457" lon="5.78201">
        <ele>-2.27</ele>
        <time>2016-05-25T12:37:59Z</time>
      </trkpt>
      <trkpt lat="43.08459" lon="5.78201">
        <ele>-2.75</ele>
        <time>2016-05-25T12:38:29Z</time>
      </trkpt>
      <trkpt lat="43.08461" lon="5.78202">
        <ele>-2.27</ele>
        <time>2016-05-25T12:38:56Z</time>
      </trkpt>
      <trkpt lat="43.08461" lon="5.78204">
        <ele>-2.75</ele>
        <time>2016-05-25T12:39:22Z</time>
      </trkpt>
      <trkpt lat="43.08462" lon="5.78205">
        <ele>-2.27</ele>
        <time>2016-05-25T12:39:41Z</time>
      </trkpt>
      <trkpt lat="43.08462" lon="5.78205">
        <ele>-2.27</ele>
        <time>2016-05-25T12:40:00Z</time>
      </trkpt>
      <trkpt lat="43.08462" lon="5.78203">
        <ele>-2.27</ele>
        <time>2016-05-25T12:40:17Z</time>
      </trkpt>
      <trkpt lat="43.08462" lon="5.78203">
        <ele>-1.79</ele>
        <time>2016-05-25T12:40:42Z</time>
      </trkpt>
      <trkpt lat="43.08462" lon="5.78204">
        <ele>-1.79</ele>
        <time>2016-05-25T12:41:03Z</time>
      </trkpt>
      <trkpt lat="43.08463" lon="5.78205">
        <ele>-1.79</ele>
        <time>2016-05-25T12:41:20Z</time>
      </trkpt>
      <trkpt lat="43.08463" lon="5.78205">
        <ele>-2.27</ele>
        <time>2016-05-25T12:41:38Z</time>
      </trkpt>
      <trkpt lat="43.08463" lon="5.78204">
        <ele>-2.27</ele>
        <time>2016-05-25T12:41:59Z</time>
      </trkpt>
      <trkpt lat="43.08464" lon="5.78203">
        <ele>-2.75</ele>
        <time>2016-05-25T12:42:20Z</time>
      </trkpt>
      <trkpt lat="43.08464" lon="5.78204">
        <ele>-2.75</ele>
        <time>2016-05-25T12:42:41Z</time>
      </trkpt>
      <trkpt lat="43.08464" lon="5.78206">
        <ele>-2.27</ele>
        <time>2016-05-25T12:43:06Z</time>
      </trkpt>
      <trkpt lat="43.08464" lon="5.78207">
        <ele>-2.27</ele>
        <time>2016-05-25T12:43:28Z</time>
      </trkpt>
      <trkpt lat="43.08466" lon="5.78209">
        <ele>-2.75</ele>
        <time>2016-05-25T12:43:47Z</time>
      </trkpt>
      <trkpt lat="43.08466" lon="5.78207">
        <ele>-2.75</ele>
        <time>2016-05-25T12:44:09Z</time>
      </trkpt>
      <trkpt lat="43.08466" lon="5.78205">
        <ele>-3.23</ele>
        <time>2016-05-25T12:44:24Z</time>
      </trkpt>
      <trkpt lat="43.08464" lon="5.78204">
        <ele>-3.23</ele>
        <time>2016-05-25T12:44:46Z</time>
      </trkpt>
      <trkpt lat="43.08463" lon="5.78204">
        <ele>-2.27</ele>
        <time>2016-05-25T12:45:10Z</time>
      </trkpt>
      <trkpt lat="43.08463" lon="5.78203">
        <ele>-2.75</ele>
        <time>2016-05-25T12:45:36Z</time>
      </trkpt>
      <trkpt lat="43.08464" lon="5.78204">
        <ele>-3.23</ele>
        <time>2016-05-25T12:45:59Z</time>
      </trkpt>
      <trkpt lat="43.08464" lon="5.78205">
        <ele>-3.23</ele>
        <time>2016-05-25T12:46:22Z</time>
      </trkpt>
      <trkpt lat="43.08464" lon="5.78206">
        <ele>-3.23</ele>
        <time>2016-05-25T12:46:40Z</time>
      </trkpt>
      <trkpt lat="43.08465" lon="5.78208">
        <ele>-3.23</ele>
        <time>2016-05-25T12:47:04Z</time>
      </trkpt>
      <trkpt lat="43.08466" lon="5.78208">
        <ele>-3.23</ele>
        <time>2016-05-25T12:47:33Z</time>
      </trkpt>
      <trkpt lat="43.08466" lon="5.78208">
        <ele>-3.23</ele>
        <time>2016-05-25T12:47:50Z</time>
      </trkpt>
      <trkpt lat="43.08466" lon="5.78208">
        <ele>-2.75</ele>
        <time>2016-05-25T12:48:12Z</time>
      </trkpt>
      <trkpt lat="43.08465" lon="5.78208">
        <ele>-3.23</ele>
        <time>2016-05-25T12:48:36Z</time>
      </trkpt>
      <trkpt lat="43.08465" lon="5.78207">
        <ele>-3.23</ele>
        <time>2016-05-25T12:49:02Z</time>
      </trkpt>
      <trkpt lat="43.08465" lon="5.78207">
        <ele>-3.23</ele>
        <time>2016-05-25T12:49:19Z</time>
      </trkpt>
      <trkpt lat="43.08465" lon="5.78207">
        <ele>-3.23</ele>
        <time>2016-05-25T12:49:37Z</time>
      </trkpt>
      <trkpt lat="43.08465" lon="5.78206">
        <ele>-3.71</ele>
        <time>2016-05-25T12:49:57Z</time>
      </trkpt>
      <trkpt lat="43.08465" lon="5.78206">
        <ele>-3.23</ele>
        <time>2016-05-25T12:50:19Z</time>
      </trkpt>
      <trkpt lat="43.08464" lon="5.78205">
        <ele>-3.23</ele>
        <time>2016-05-25T12:50:42Z</time>
      </trkpt>
      <trkpt lat="43.08464" lon="5.78204">
        <ele>-3.23</ele>
        <time>2016-05-25T12:51:04Z</time>
      </trkpt>
      <trkpt lat="43.08464" lon="5.78204">
        <ele>-3.23</ele>
        <time>2016-05-25T12:51:26Z</time>
      </trkpt>
      <trkpt lat="43.08464" lon="5.78204">
        <ele>-3.23</ele>
        <time>2016-05-25T12:51:48Z</time>
      </trkpt>
      <trkpt lat="43.08466" lon="5.78203">
        <ele>-3.23</ele>
        <time>2016-05-25T12:52:16Z</time>
      </trkpt>
      <trkpt lat="43.08466" lon="5.78203">
        <ele>-2.75</ele>
        <time>2016-05-25T12:52:42Z</time>
      </trkpt>
      <trkpt lat="43.08466" lon="5.78203">
        <ele>-2.75</ele>
        <time>2016-05-25T12:53:02Z</time>
      </trkpt>
      <trkpt lat="43.08467" lon="5.78203">
        <ele>-2.75</ele>
        <time>2016-05-25T12:53:23Z</time>
      </trkpt>
      <trkpt lat="43.08467" lon="5.78204">
        <ele>-2.27</ele>
        <time>2016-05-25T12:53:49Z</time>
      </trkpt>
      <trkpt lat="43.08467" lon="5.78205">
        <ele>-2.27</ele>
        <time>2016-05-25T12:54:12Z</time>
      </trkpt>
      <trkpt lat="43.08463" lon="5.78207">
        <ele>-1.79</ele>
        <time>2016-05-25T12:54:36Z</time>
      </trkpt>
      <trkpt lat="43.08453" lon="5.78216">
        <ele>-2.75</ele>
        <time>2016-05-25T12:54:59Z</time>
      </trkpt>
      <trkpt lat="43.08453" lon="5.78217">
        <ele>-2.75</ele>
        <time>2016-05-25T12:55:18Z</time>
      </trkpt>
      <trkpt lat="43.08463" lon="5.78225">
        <ele>-2.75</ele>
        <time>2016-05-25T12:55:40Z</time>
      </trkpt>
      <trkpt lat="43.08465" lon="5.78234">
        <ele>-3.23</ele>
        <time>2016-05-25T12:56:05Z</time>
      </trkpt>
      <trkpt lat="43.08464" lon="5.78237">
        <ele>-3.23</ele>
        <time>2016-05-25T12:56:32Z</time>
      </trkpt>
      <trkpt lat="43.08462" lon="5.78238">
        <ele>-3.71</ele>
        <time>2016-05-25T12:56:54Z</time>
      </trkpt>
      <trkpt lat="43.08468" lon="5.78239">
        <ele>-3.71</ele>
        <time>2016-05-25T12:57:17Z</time>
      </trkpt>
      <trkpt lat="43.08473" lon="5.78237">
        <ele>-3.71</ele>
        <time>2016-05-25T12:57:23Z</time>
      </trkpt>
      <trkpt lat="43.08501" lon="5.78241">
        <ele>-1.79</ele>
        <time>2016-05-25T12:57:48Z</time>
      </trkpt>
      <trkpt lat="43.08513" lon="5.78273">
        <ele>-2.27</ele>
        <time>2016-05-25T12:58:10Z</time>
      </trkpt>
      <trkpt lat="43.08526" lon="5.78312">
        <ele>-1.3</ele>
        <time>2016-05-25T12:58:32Z</time>
      </trkpt>
      <trkpt lat="43.08548" lon="5.78369">
        <ele>-2.75</ele>
        <time>2016-05-25T12:58:57Z</time>
      </trkpt>
      <trkpt lat="43.08565" lon="5.78418">
        <ele>-2.27</ele>
        <time>2016-05-25T12:59:19Z</time>
      </trkpt>
      <trkpt lat="43.0857" lon="5.78455">
        <ele>-3.23</ele>
        <time>2016-05-25T12:59:40Z</time>
      </trkpt>
      <trkpt lat="43.08558" lon="5.78474">
        <ele>-3.71</ele>
        <time>2016-05-25T12:59:58Z</time>
      </trkpt>
      <trkpt lat="43.08541" lon="5.78482">
        <ele>-3.23</ele>
        <time>2016-05-25T13:00:20Z</time>
      </trkpt>
      <trkpt lat="43.08522" lon="5.78491">
        <ele>-3.23</ele>
        <time>2016-05-25T13:00:43Z</time>
      </trkpt>
      <trkpt lat="43.08504" lon="5.785">
        <ele>-3.71</ele>
        <time>2016-05-25T13:01:05Z</time>
      </trkpt>
      <trkpt lat="43.08502" lon="5.78502">
        <ele>-3.71</ele>
        <time>2016-05-25T13:01:08Z</time>
      </trkpt>
      <trkpt lat="43.0849" lon="5.78536">
        <ele>-4.67</ele>
        <time>2016-05-25T13:01:31Z</time>
      </trkpt>
      <trkpt lat="43.08481" lon="5.78574">
        <ele>-3.23</ele>
        <time>2016-05-25T13:01:50Z</time>
      </trkpt>
      <trkpt lat="43.08473" lon="5.78635">
        <ele>-2.75</ele>
        <time>2016-05-25T13:02:15Z</time>
      </trkpt>
      <trkpt lat="43.08466" lon="5.78684">
        <ele>-2.75</ele>
        <time>2016-05-25T13:02:35Z</time>
      </trkpt>
      <trkpt lat="43.08466" lon="5.78747">
        <ele>-4.19</ele>
        <time>2016-05-25T13:02:59Z</time>
      </trkpt>
      <trkpt lat="43.08469" lon="5.78797">
        <ele>-4.19</ele>
        <time>2016-05-25T13:03:20Z</time>
      </trkpt>
      <trkpt lat="43.08455" lon="5.78845">
        <ele>-2.27</ele>
        <time>2016-05-25T13:03:42Z</time>
      </trkpt>
      <trkpt lat="43.08433" lon="5.78875">
        <ele>-4.19</ele>
        <time>2016-05-25T13:04:05Z</time>
      </trkpt>
      <trkpt lat="43.08412" lon="5.78916">
        <ele>-3.23</ele>
        <time>2016-05-25T13:04:32Z</time>
      </trkpt>
      <trkpt lat="43.08405" lon="5.7896">
        <ele>-2.75</ele>
        <time>2016-05-25T13:04:52Z</time>
      </trkpt>
      <trkpt lat="43.08405" lon="5.79004">
        <ele>-3.23</ele>
        <time>2016-05-25T13:05:10Z</time>
      </trkpt>
      <trkpt lat="43.08417" lon="5.79055">
        <ele>-1.79</ele>
        <time>2016-05-25T13:05:31Z</time>
      </trkpt>
      <trkpt lat="43.08418" lon="5.79114">
        <ele>-1.79</ele>
        <time>2016-05-25T13:05:56Z</time>
      </trkpt>
      <trkpt lat="43.08403" lon="5.79159">
        <ele>-1.79</ele>
        <time>2016-05-25T13:06:17Z</time>
      </trkpt>
      <trkpt lat="43.08397" lon="5.792">
        <ele>-2.27</ele>
        <time>2016-05-25T13:06:35Z</time>
      </trkpt>
      <trkpt lat="43.08418" lon="5.79259">
        <ele>-1.79</ele>
        <time>2016-05-25T13:07:01Z</time>
      </trkpt>
      <trkpt lat="43.08428" lon="5.79313">
        <ele>-2.75</ele>
        <time>2016-05-25T13:07:24Z</time>
      </trkpt>
      <trkpt lat="43.0843" lon="5.79349">
        <ele>-2.75</ele>
        <time>2016-05-25T13:07:42Z</time>
      </trkpt>
      <trkpt lat="43.08412" lon="5.79351">
        <ele>-2.75</ele>
        <time>2016-05-25T13:07:59Z</time>
      </trkpt>
      <trkpt lat="43.08392" lon="5.79308">
        <ele>-3.23</ele>
        <time>2016-05-25T13:08:24Z</time>
      </trkpt>
      <trkpt lat="43.08366" lon="5.79248">
        <ele>-2.27</ele>
        <time>2016-05-25T13:08:53Z</time>
      </trkpt>
      <trkpt lat="43.08341" lon="5.79205">
        <ele>-2.27</ele>
        <time>2016-05-25T13:09:15Z</time>
      </trkpt>
      <trkpt lat="43.08309" lon="5.79162">
        <ele>-3.23</ele>
        <time>2016-05-25T13:09:38Z</time>
      </trkpt>
      <trkpt lat="43.08279" lon="5.79138">
        <ele>-2.75</ele>
        <time>2016-05-25T13:09:58Z</time>
      </trkpt>
      <trkpt lat="43.08269" lon="5.7914">
        <ele>-2.75</ele>
        <time>2016-05-25T13:10:05Z</time>
      </trkpt>
      <trkpt lat="43.08266" lon="5.79173">
        <ele>-3.71</ele>
        <time>2016-05-25T13:10:22Z</time>
      </trkpt>
      <trkpt lat="43.08292" lon="5.79182">
        <ele>-3.23</ele>
        <time>2016-05-25T13:10:39Z</time>
      </trkpt>
      <trkpt lat="43.08319" lon="5.79147">
        <ele>-3.71</ele>
        <time>2016-05-25T13:11:01Z</time>
      </trkpt>
      <trkpt lat="43.08308" lon="5.79093">
        <ele>-3.71</ele>
        <time>2016-05-25T13:11:24Z</time>
      </trkpt>
      <trkpt lat="43.08286" lon="5.79026">
        <ele>-4.19</ele>
        <time>2016-05-25T13:11:53Z</time>
      </trkpt>
      <trkpt lat="43.08255" lon="5.78985">
        <ele>-3.71</ele>
        <time>2016-05-25T13:12:17Z</time>
      </trkpt>
      <trkpt lat="43.08223" lon="5.78962">
        <ele>-3.71</ele>
        <time>2016-05-25T13:12:39Z</time>
      </trkpt>
      <trkpt lat="43.08207" lon="5.78959">
        <ele>-3.23</ele>
        <time>2016-05-25T13:12:50Z</time>
      </trkpt>
      <trkpt lat="43.082" lon="5.78994">
        <ele>-5.15</ele>
        <time>2016-05-25T13:13:08Z</time>
      </trkpt>
      <trkpt lat="43.08216" lon="5.79039">
        <ele>-4.19</ele>
        <time>2016-05-25T13:13:29Z</time>
      </trkpt>
      <trkpt lat="43.08208" lon="5.79056">
        <ele>-3.71</ele>
        <time>2016-05-25T13:13:44Z</time>
      </trkpt>
      <trkpt lat="43.08197" lon="5.79058">
        <ele>-3.23</ele>
        <time>2016-05-25T13:13:54Z</time>
      </trkpt>
      <trkpt lat="43.08194" lon="5.79064">
        <ele>-2.75</ele>
        <time>2016-05-25T13:13:59Z</time>
      </trkpt>
      <trkpt lat="43.08207" lon="5.79088">
        <ele>-2.75</ele>
        <time>2016-05-25T13:14:15Z</time>
      </trkpt>
      <trkpt lat="43.08231" lon="5.79063">
        <ele>-3.71</ele>
        <time>2016-05-25T13:14:34Z</time>
      </trkpt>
      <trkpt lat="43.08255" lon="5.79008">
        <ele>-4.19</ele>
        <time>2016-05-25T13:15:01Z</time>
      </trkpt>
      <trkpt lat="43.08281" lon="5.78954">
        <ele>-4.67</ele>
        <time>2016-05-25T13:15:27Z</time>
      </trkpt>
      <trkpt lat="43.08309" lon="5.78884">
        <ele>-4.67</ele>
        <time>2016-05-25T13:15:55Z</time>
      </trkpt>
      <trkpt lat="43.08338" lon="5.78826">
        <ele>-4.19</ele>
        <time>2016-05-25T13:16:17Z</time>
      </trkpt>
      <trkpt lat="43.08368" lon="5.78768">
        <ele>-2.27</ele>
        <time>2016-05-25T13:16:41Z</time>
      </trkpt>
      <trkpt lat="43.08397" lon="5.78719">
        <ele>-1.3</ele>
        <time>2016-05-25T13:17:03Z</time>
      </trkpt>
      <trkpt lat="43.08432" lon="5.7866">
        <ele>-0.82</ele>
        <time>2016-05-25T13:17:29Z</time>
      </trkpt>
      <trkpt lat="43.08458" lon="5.78617">
        <ele>-1.79</ele>
        <time>2016-05-25T13:17:48Z</time>
      </trkpt>
      <trkpt lat="43.08484" lon="5.78575">
        <ele>-0.82</ele>
        <time>2016-05-25T13:18:05Z</time>
      </trkpt>
      <trkpt lat="43.08525" lon="5.78527">
        <ele>-1.79</ele>
        <time>2016-05-25T13:18:28Z</time>
      </trkpt>
      <trkpt lat="43.08568" lon="5.78478">
        <ele>-1.79</ele>
        <time>2016-05-25T13:18:51Z</time>
      </trkpt>
      <trkpt lat="43.0861" lon="5.78428">
        <ele>-2.27</ele>
        <time>2016-05-25T13:19:15Z</time>
      </trkpt>
      <trkpt lat="43.08641" lon="5.78375">
        <ele>-2.27</ele>
        <time>2016-05-25T13:19:38Z</time>
      </trkpt>
      <trkpt lat="43.08675" lon="5.78325">
        <ele>-2.27</ele>
        <time>2016-05-25T13:20:01Z</time>
      </trkpt>
      <trkpt lat="43.08709" lon="5.7828">
        <ele>-0.34</ele>
        <time>2016-05-25T13:20:24Z</time>
      </trkpt>
      <trkpt lat="43.08744" lon="5.78238">
        <ele>-0.82</ele>
        <time>2016-05-25T13:20:47Z</time>
      </trkpt>
      <trkpt lat="43.08783" lon="5.78199">
        <ele>-1.3</ele>
        <time>2016-05-25T13:21:12Z</time>
      </trkpt>
      <trkpt lat="43.08816" lon="5.78167">
        <ele>-0.82</ele>
        <time>2016-05-25T13:21:33Z</time>
      </trkpt>
      <trkpt lat="43.08851" lon="5.78135">
        <ele>-1.79</ele>
        <time>2016-05-25T13:21:54Z</time>
      </trkpt>
      <trkpt lat="43.08893" lon="5.78106">
        <ele>-2.75</ele>
        <time>2016-05-25T13:22:16Z</time>
      </trkpt>
      <trkpt lat="43.08935" lon="5.7807">
        <ele>-2.27</ele>
        <time>2016-05-25T13:22:38Z</time>
      </trkpt>
      <trkpt lat="43.08975" lon="5.78045">
        <ele>-2.27</ele>
        <time>2016-05-25T13:22:56Z</time>
      </trkpt>
      <trkpt lat="43.09026" lon="5.78013">
        <ele>-2.75</ele>
        <time>2016-05-25T13:23:18Z</time>
      </trkpt>
      <trkpt lat="43.09075" lon="5.77985">
        <ele>-3.23</ele>
        <time>2016-05-25T13:23:39Z</time>
      </trkpt>
      <trkpt lat="43.09123" lon="5.77967">
        <ele>-3.71</ele>
        <time>2016-05-25T13:23:59Z</time>
      </trkpt>
      <trkpt lat="43.09163" lon="5.7795">
        <ele>-3.23</ele>
        <time>2016-05-25T13:24:15Z</time>
      </trkpt>
      <trkpt lat="43.09217" lon="5.77925">
        <ele>-2.27</ele>
        <time>2016-05-25T13:24:37Z</time>
      </trkpt>
      <trkpt lat="43.0926" lon="5.77902">
        <ele>-3.23</ele>
        <time>2016-05-25T13:24:55Z</time>
      </trkpt>
      <trkpt lat="43.09302" lon="5.77871">
        <ele>-2.27</ele>
        <time>2016-05-25T13:25:14Z</time>
      </trkpt>
      <trkpt lat="43.0935" lon="5.77837">
        <ele>-1.79</ele>
        <time>2016-05-25T13:25:35Z</time>
      </trkpt>
      <trkpt lat="43.09396" lon="5.7781">
        <ele>-2.75</ele>
        <time>2016-05-25T13:25:54Z</time>
      </trkpt>
      <trkpt lat="43.09439" lon="5.77785">
        <ele>-2.27</ele>
        <time>2016-05-25T13:26:12Z</time>
      </trkpt>
      <trkpt lat="43.09484" lon="5.77758">
        <ele>-1.3</ele>
        <time>2016-05-25T13:26:31Z</time>
      </trkpt>
      <trkpt lat="43.09533" lon="5.77727">
        <ele>-2.27</ele>
        <time>2016-05-25T13:26:52Z</time>
      </trkpt>
      <trkpt lat="43.09588" lon="5.77687">
        <ele>-1.3</ele>
        <time>2016-05-25T13:27:14Z</time>
      </trkpt>
      <trkpt lat="43.09639" lon="5.77655">
        <ele>-1.3</ele>
        <time>2016-05-25T13:27:35Z</time>
      </trkpt>
      <trkpt lat="43.09691" lon="5.77616">
        <ele>-1.79</ele>
        <time>2016-05-25T13:27:57Z</time>
      </trkpt>
      <trkpt lat="43.09715" lon="5.77584">
        <ele>-1.79</ele>
        <time>2016-05-25T13:28:12Z</time>
      </trkpt>
      <trkpt lat="43.09742" lon="5.77547">
        <ele>-2.27</ele>
        <time>2016-05-25T13:28:26Z</time>
      </trkpt>
      <trkpt lat="43.09779" lon="5.77484">
        <ele>-2.27</ele>
        <time>2016-05-25T13:28:46Z</time>
      </trkpt>
      <trkpt lat="43.09816" lon="5.77424">
        <ele>-1.79</ele>
        <time>2016-05-25T13:29:06Z</time>
      </trkpt>
      <trkpt lat="43.09848" lon="5.77382">
        <ele>-1.79</ele>
        <time>2016-05-25T13:29:22Z</time>
      </trkpt>
      <trkpt lat="43.09881" lon="5.77335">
        <ele>-1.79</ele>
        <time>2016-05-25T13:29:39Z</time>
      </trkpt>
      <trkpt lat="43.09913" lon="5.77284">
        <ele>-1.79</ele>
        <time>2016-05-25T13:29:56Z</time>
      </trkpt>
      <trkpt lat="43.09942" lon="5.77238">
        <ele>-2.27</ele>
        <time>2016-05-25T13:30:12Z</time>
      </trkpt>
      <trkpt lat="43.09974" lon="5.77182">
        <ele>-2.75</ele>
        <time>2016-05-25T13:30:30Z</time>
      </trkpt>
      <trkpt lat="43.09999" lon="5.77141">
        <ele>-1.79</ele>
        <time>2016-05-25T13:30:44Z</time>
      </trkpt>
      <trkpt lat="43.1003" lon="5.77095">
        <ele>-2.27</ele>
        <time>2016-05-25T13:31:01Z</time>
      </trkpt>
      <trkpt lat="43.10056" lon="5.77058">
        <ele>-2.27</ele>
        <time>2016-05-25T13:31:15Z</time>
      </trkpt>
      <trkpt lat="43.10093" lon="5.7701">
        <ele>-1.79</ele>
        <time>2016-05-25T13:31:36Z</time>
      </trkpt>
      <trkpt lat="43.10119" lon="5.7697">
        <ele>-0.82</ele>
        <time>2016-05-25T13:31:52Z</time>
      </trkpt>
      <trkpt lat="43.10148" lon="5.76925">
        <ele>-1.3</ele>
        <time>2016-05-25T13:32:10Z</time>
      </trkpt>
      <trkpt lat="43.10178" lon="5.76883">
        <ele>-0.82</ele>
        <time>2016-05-25T13:32:27Z</time>
      </trkpt>
      <trkpt lat="43.10205" lon="5.76841">
        <ele>-0.82</ele>
        <time>2016-05-25T13:32:43Z</time>
      </trkpt>
      <trkpt lat="43.10234" lon="5.76797">
        <ele>-0.82</ele>
        <time>2016-05-25T13:33:00Z</time>
      </trkpt>
      <trkpt lat="43.10264" lon="5.76758">
        <ele>-0.34</ele>
        <time>2016-05-25T13:33:16Z</time>
      </trkpt>
      <trkpt lat="43.10305" lon="5.76704">
        <ele>-1.3</ele>
        <time>2016-05-25T13:33:37Z</time>
      </trkpt>
      <trkpt lat="43.10336" lon="5.76664">
        <ele>-1.3</ele>
        <time>2016-05-25T13:33:52Z</time>
      </trkpt>
      <trkpt lat="43.10378" lon="5.76612">
        <ele>-0.82</ele>
        <time>2016-05-25T13:34:12Z</time>
      </trkpt>
      <trkpt lat="43.10415" lon="5.76569">
        <ele>-0.82</ele>
        <time>2016-05-25T13:34:29Z</time>
      </trkpt>
      <trkpt lat="43.10447" lon="5.76533">
        <ele>-0.82</ele>
        <time>2016-05-25T13:34:44Z</time>
      </trkpt>
      <trkpt lat="43.10484" lon="5.76491">
        <ele>-0.34</ele>
        <time>2016-05-25T13:35:02Z</time>
      </trkpt>
      <trkpt lat="43.10513" lon="5.76451">
        <ele>-0.82</ele>
        <time>2016-05-25T13:35:17Z</time>
      </trkpt>
      <trkpt lat="43.10548" lon="5.76405">
        <ele>-1.3</ele>
        <time>2016-05-25T13:35:34Z</time>
      </trkpt>
      <trkpt lat="43.10581" lon="5.76358">
        <ele>-1.3</ele>
        <time>2016-05-25T13:35:50Z</time>
      </trkpt>
      <trkpt lat="43.10605" lon="5.76322">
        <ele>-0.82</ele>
        <time>2016-05-25T13:36:02Z</time>
      </trkpt>
      <trkpt lat="43.10639" lon="5.76275">
        <ele>-1.79</ele>
        <time>2016-05-25T13:36:18Z</time>
      </trkpt>
      <trkpt lat="43.10671" lon="5.76225">
        <ele>-2.27</ele>
        <time>2016-05-25T13:36:34Z</time>
      </trkpt>
      <trkpt lat="43.10704" lon="5.76174">
        <ele>-2.75</ele>
        <time>2016-05-25T13:36:50Z</time>
      </trkpt>
      <trkpt lat="43.10742" lon="5.76124">
        <ele>-2.27</ele>
        <time>2016-05-25T13:37:08Z</time>
      </trkpt>
      <trkpt lat="43.10776" lon="5.76081">
        <ele>-1.79</ele>
        <time>2016-05-25T13:37:24Z</time>
      </trkpt>
      <trkpt lat="43.1081" lon="5.76034">
        <ele>-2.27</ele>
        <time>2016-05-25T13:37:40Z</time>
      </trkpt>
      <trkpt lat="43.10834" lon="5.75995">
        <ele>-2.27</ele>
        <time>2016-05-25T13:37:52Z</time>
      </trkpt>
      <trkpt lat="43.10861" lon="5.75953">
        <ele>-2.27</ele>
        <time>2016-05-25T13:38:05Z</time>
      </trkpt>
      <trkpt lat="43.10893" lon="5.75908">
        <ele>-2.27</ele>
        <time>2016-05-25T13:38:20Z</time>
      </trkpt>
      <trkpt lat="43.1093" lon="5.75852">
        <ele>-2.75</ele>
        <time>2016-05-25T13:38:38Z</time>
      </trkpt>
      <trkpt lat="43.10968" lon="5.75802">
        <ele>-3.23</ele>
        <time>2016-05-25T13:38:55Z</time>
      </trkpt>
      <trkpt lat="43.11007" lon="5.75744">
        <ele>-2.75</ele>
        <time>2016-05-25T13:39:14Z</time>
      </trkpt>
      <trkpt lat="43.11041" lon="5.75688">
        <ele>-2.75</ele>
        <time>2016-05-25T13:39:31Z</time>
      </trkpt>
      <trkpt lat="43.11071" lon="5.7564">
        <ele>-2.27</ele>
        <time>2016-05-25T13:39:46Z</time>
      </trkpt>
      <trkpt lat="43.11105" lon="5.75586">
        <ele>-2.75</ele>
        <time>2016-05-25T13:40:03Z</time>
      </trkpt>
      <trkpt lat="43.11133" lon="5.75543">
        <ele>-2.75</ele>
        <time>2016-05-25T13:40:17Z</time>
      </trkpt>
      <trkpt lat="43.11159" lon="5.75502">
        <ele>-2.75</ele>
        <time>2016-05-25T13:40:31Z</time>
      </trkpt>
      <trkpt lat="43.1119" lon="5.75451">
        <ele>-2.75</ele>
        <time>2016-05-25T13:40:48Z</time>
      </trkpt>
      <trkpt lat="43.11226" lon="5.75398">
        <ele>-2.27</ele>
        <time>2016-05-25T13:41:06Z</time>
      </trkpt>
      <trkpt lat="43.11256" lon="5.7535">
        <ele>-2.75</ele>
        <time>2016-05-25T13:41:22Z</time>
      </trkpt>
      <trkpt lat="43.11295" lon="5.75289">
        <ele>-3.23</ele>
        <time>2016-05-25T13:41:42Z</time>
      </trkpt>
      <trkpt lat="43.11325" lon="5.75242">
        <ele>-3.71</ele>
        <time>2016-05-25T13:41:57Z</time>
      </trkpt>
      <trkpt lat="43.11357" lon="5.75192">
        <ele>-4.19</ele>
        <time>2016-05-25T13:42:14Z</time>
      </trkpt>
      <trkpt lat="43.11396" lon="5.75135">
        <ele>-3.71</ele>
        <time>2016-05-25T13:42:33Z</time>
      </trkpt>
      <trkpt lat="43.11431" lon="5.75083">
        <ele>-4.67</ele>
        <time>2016-05-25T13:42:50Z</time>
      </trkpt>
      <trkpt lat="43.11461" lon="5.75037">
        <ele>-4.19</ele>
        <time>2016-05-25T13:43:05Z</time>
      </trkpt>
      <trkpt lat="43.11493" lon="5.7499">
        <ele>-4.19</ele>
        <time>2016-05-25T13:43:20Z</time>
      </trkpt>
      <trkpt lat="43.11531" lon="5.74935">
        <ele>-5.15</ele>
        <time>2016-05-25T13:43:38Z</time>
      </trkpt>
      <trkpt lat="43.11564" lon="5.74885">
        <ele>-5.15</ele>
        <time>2016-05-25T13:43:54Z</time>
      </trkpt>
      <trkpt lat="43.11606" lon="5.74827">
        <ele>-2.75</ele>
        <time>2016-05-25T13:44:14Z</time>
      </trkpt>
      <trkpt lat="43.11639" lon="5.74778">
        <ele>-1.79</ele>
        <time>2016-05-25T13:44:30Z</time>
      </trkpt>
      <trkpt lat="43.11676" lon="5.74724">
        <ele>-1.79</ele>
        <time>2016-05-25T13:44:48Z</time>
      </trkpt>
      <trkpt lat="43.11714" lon="5.74668">
        <ele>-2.27</ele>
        <time>2016-05-25T13:45:06Z</time>
      </trkpt>
      <trkpt lat="43.11748" lon="5.74614">
        <ele>-1.3</ele>
        <time>2016-05-25T13:45:23Z</time>
      </trkpt>
      <trkpt lat="43.11777" lon="5.74567">
        <ele>-0.82</ele>
        <time>2016-05-25T13:45:38Z</time>
      </trkpt>
      <trkpt lat="43.11804" lon="5.74526">
        <ele>-1.3</ele>
        <time>2016-05-25T13:45:52Z</time>
      </trkpt>
      <trkpt lat="43.11839" lon="5.74473">
        <ele>-2.27</ele>
        <time>2016-05-25T13:46:10Z</time>
      </trkpt>
      <trkpt lat="43.11866" lon="5.74429">
        <ele>-1.3</ele>
        <time>2016-05-25T13:46:24Z</time>
      </trkpt>
      <trkpt lat="43.11894" lon="5.74386">
        <ele>-0.82</ele>
        <time>2016-05-25T13:46:38Z</time>
      </trkpt>
      <trkpt lat="43.11929" lon="5.74338">
        <ele>-1.3</ele>
        <time>2016-05-25T13:46:55Z</time>
      </trkpt>
      <trkpt lat="43.11968" lon="5.74282">
        <ele>-1.3</ele>
        <time>2016-05-25T13:47:15Z</time>
      </trkpt>
      <trkpt lat="43.12008" lon="5.74228">
        <ele>-1.3</ele>
        <time>2016-05-25T13:47:34Z</time>
      </trkpt>
      <trkpt lat="43.12043" lon="5.74179">
        <ele>-1.3</ele>
        <time>2016-05-25T13:47:52Z</time>
      </trkpt>
      <trkpt lat="43.12072" lon="5.74137">
        <ele>-2.27</ele>
        <time>2016-05-25T13:48:07Z</time>
      </trkpt>
      <trkpt lat="43.12103" lon="5.74092">
        <ele>-2.27</ele>
        <time>2016-05-25T13:48:23Z</time>
      </trkpt>
      <trkpt lat="43.12136" lon="5.74044">
        <ele>-1.79</ele>
        <time>2016-05-25T13:48:40Z</time>
      </trkpt>
      <trkpt lat="43.12166" lon="5.73998">
        <ele>-1.79</ele>
        <time>2016-05-25T13:48:56Z</time>
      </trkpt>
      <trkpt lat="43.12198" lon="5.73948">
        <ele>-2.75</ele>
        <time>2016-05-25T13:49:13Z</time>
      </trkpt>
      <trkpt lat="43.12231" lon="5.73898">
        <ele>-2.27</ele>
        <time>2016-05-25T13:49:30Z</time>
      </trkpt>
      <trkpt lat="43.12259" lon="5.73856">
        <ele>-2.27</ele>
        <time>2016-05-25T13:49:44Z</time>
      </trkpt>
      <trkpt lat="43.12289" lon="5.73812">
        <ele>-2.27</ele>
        <time>2016-05-25T13:49:59Z</time>
      </trkpt>
      <trkpt lat="43.12321" lon="5.73764">
        <ele>-2.27</ele>
        <time>2016-05-25T13:50:15Z</time>
      </trkpt>
      <trkpt lat="43.12358" lon="5.73711">
        <ele>-1.79</ele>
        <time>2016-05-25T13:50:33Z</time>
      </trkpt>
      <trkpt lat="43.1239" lon="5.73665">
        <ele>-1.79</ele>
        <time>2016-05-25T13:50:49Z</time>
      </trkpt>
      <trkpt lat="43.12429" lon="5.73607">
        <ele>-1.79</ele>
        <time>2016-05-25T13:51:08Z</time>
      </trkpt>
      <trkpt lat="43.12465" lon="5.73554">
        <ele>-2.75</ele>
        <time>2016-05-25T13:51:25Z</time>
      </trkpt>
      <trkpt lat="43.12497" lon="5.73509">
        <ele>-2.75</ele>
        <time>2016-05-25T13:51:40Z</time>
      </trkpt>
      <trkpt lat="43.12534" lon="5.73458">
        <ele>-2.27</ele>
        <time>2016-05-25T13:51:57Z</time>
      </trkpt>
      <trkpt lat="43.12573" lon="5.73405">
        <ele>-1.3</ele>
        <time>2016-05-25T13:52:15Z</time>
      </trkpt>
      <trkpt lat="43.12607" lon="5.73351">
        <ele>-1.79</ele>
        <time>2016-05-25T13:52:32Z</time>
      </trkpt>
      <trkpt lat="43.12636" lon="5.73303">
        <ele>-1.79</ele>
        <time>2016-05-25T13:52:46Z</time>
      </trkpt>
      <trkpt lat="43.1267" lon="5.73249">
        <ele>-1.3</ele>
        <time>2016-05-25T13:53:02Z</time>
      </trkpt>
      <trkpt lat="43.12702" lon="5.73204">
        <ele>-1.79</ele>
        <time>2016-05-25T13:53:16Z</time>
      </trkpt>
      <trkpt lat="43.12737" lon="5.73161">
        <ele>-1.3</ele>
        <time>2016-05-25T13:53:31Z</time>
      </trkpt>
      <trkpt lat="43.12777" lon="5.73111">
        <ele>-0.82</ele>
        <time>2016-05-25T13:53:48Z</time>
      </trkpt>
      <trkpt lat="43.12813" lon="5.73073">
        <ele>-0.82</ele>
        <time>2016-05-25T13:54:03Z</time>
      </trkpt>
      <trkpt lat="43.12858" lon="5.7303">
        <ele>-0.82</ele>
        <time>2016-05-25T13:54:22Z</time>
      </trkpt>
      <trkpt lat="43.12902" lon="5.73005">
        <ele>-0.82</ele>
        <time>2016-05-25T13:54:40Z</time>
      </trkpt>
      <trkpt lat="43.12929" lon="5.73019">
        <ele>-0.34</ele>
        <time>2016-05-25T13:54:52Z</time>
      </trkpt>
      <trkpt lat="43.12934" lon="5.73077">
        <ele>-0.82</ele>
        <time>2016-05-25T13:55:07Z</time>
      </trkpt>
      <trkpt lat="43.12928" lon="5.7313">
        <ele>-1.3</ele>
        <time>2016-05-25T13:55:23Z</time>
      </trkpt>
      <trkpt lat="43.1292" lon="5.73171">
        <ele>-0.34</ele>
        <time>2016-05-25T13:55:38Z</time>
      </trkpt>
      <trkpt lat="43.12912" lon="5.7321">
        <ele>0.14</ele>
        <time>2016-05-25T13:55:52Z</time>
      </trkpt>
      <trkpt lat="43.12899" lon="5.73264">
        <ele>-0.34</ele>
        <time>2016-05-25T13:56:10Z</time>
      </trkpt>
      <trkpt lat="43.12883" lon="5.73315">
        <ele>0.62</ele>
        <time>2016-05-25T13:56:26Z</time>
      </trkpt>
      <trkpt lat="43.1287" lon="5.73372">
        <ele>1.1</ele>
        <time>2016-05-25T13:56:42Z</time>
      </trkpt>
      <trkpt lat="43.12855" lon="5.73432">
        <ele>1.1</ele>
        <time>2016-05-25T13:56:58Z</time>
      </trkpt>
      <trkpt lat="43.12842" lon="5.73491">
        <ele>1.1</ele>
        <time>2016-05-25T13:57:13Z</time>
      </trkpt>
      <trkpt lat="43.12828" lon="5.73545">
        <ele>-0.34</ele>
        <time>2016-05-25T13:57:27Z</time>
      </trkpt>
      <trkpt lat="43.12816" lon="5.73601">
        <ele>0.14</ele>
        <time>2016-05-25T13:57:41Z</time>
      </trkpt>
      <trkpt lat="43.12805" lon="5.73664">
        <ele>-0.34</ele>
        <time>2016-05-25T13:57:57Z</time>
      </trkpt>
      <trkpt lat="43.12795" lon="5.73728">
        <ele>-0.82</ele>
        <time>2016-05-25T13:58:13Z</time>
      </trkpt>
      <trkpt lat="43.12783" lon="5.73785">
        <ele>-0.34</ele>
        <time>2016-05-25T13:58:28Z</time>
      </trkpt>
      <trkpt lat="43.12775" lon="5.7383">
        <ele>0.62</ele>
        <time>2016-05-25T13:58:40Z</time>
      </trkpt>
      <trkpt lat="43.12763" lon="5.73878">
        <ele>1.1</ele>
        <time>2016-05-25T13:58:53Z</time>
      </trkpt>
      <trkpt lat="43.1275" lon="5.73931">
        <ele>0.62</ele>
        <time>2016-05-25T13:59:07Z</time>
      </trkpt>
      <trkpt lat="43.12737" lon="5.73982">
        <ele>0.62</ele>
        <time>2016-05-25T13:59:20Z</time>
      </trkpt>
      <trkpt lat="43.1272" lon="5.74045">
        <ele>1.1</ele>
        <time>2016-05-25T13:59:36Z</time>
      </trkpt>
      <trkpt lat="43.12704" lon="5.7411">
        <ele>0.62</ele>
        <time>2016-05-25T13:59:52Z</time>
      </trkpt>
      <trkpt lat="43.12694" lon="5.7417">
        <ele>-0.82</ele>
        <time>2016-05-25T14:00:06Z</time>
      </trkpt>
      <trkpt lat="43.12684" lon="5.74244">
        <ele>-1.3</ele>
        <time>2016-05-25T14:00:23Z</time>
      </trkpt>
      <trkpt lat="43.12677" lon="5.74315">
        <ele>-0.82</ele>
        <time>2016-05-25T14:00:39Z</time>
      </trkpt>
      <trkpt lat="43.12667" lon="5.74374">
        <ele>-0.34</ele>
        <time>2016-05-25T14:00:53Z</time>
      </trkpt>
      <trkpt lat="43.12656" lon="5.74447">
        <ele>0.14</ele>
        <time>2016-05-25T14:01:09Z</time>
      </trkpt>
      <trkpt lat="43.12646" lon="5.74515">
        <ele>-0.82</ele>
        <time>2016-05-25T14:01:24Z</time>
      </trkpt>
      <trkpt lat="43.12638" lon="5.74589">
        <ele>-0.34</ele>
        <time>2016-05-25T14:01:40Z</time>
      </trkpt>
      <trkpt lat="43.12626" lon="5.74659">
        <ele>0.14</ele>
        <time>2016-05-25T14:01:56Z</time>
      </trkpt>
      <trkpt lat="43.12621" lon="5.74722">
        <ele>0.14</ele>
        <time>2016-05-25T14:02:10Z</time>
      </trkpt>
      <trkpt lat="43.12615" lon="5.74792">
        <ele>0.14</ele>
        <time>2016-05-25T14:02:25Z</time>
      </trkpt>
      <trkpt lat="43.12611" lon="5.74868">
        <ele>0.62</ele>
        <time>2016-05-25T14:02:42Z</time>
      </trkpt>
      <trkpt lat="43.12607" lon="5.74932">
        <ele>1.1</ele>
        <time>2016-05-25T14:02:56Z</time>
      </trkpt>
      <trkpt lat="43.12602" lon="5.75011">
        <ele>1.1</ele>
        <time>2016-05-25T14:03:13Z</time>
      </trkpt>
      <trkpt lat="43.12598" lon="5.7509">
        <ele>1.1</ele>
        <time>2016-05-25T14:03:30Z</time>
      </trkpt>
      <trkpt lat="43.12597" lon="5.75157">
        <ele>0.62</ele>
        <time>2016-05-25T14:03:44Z</time>
      </trkpt>
      <trkpt lat="43.12606" lon="5.75233">
        <ele>0.14</ele>
        <time>2016-05-25T14:04:00Z</time>
      </trkpt>
      <trkpt lat="43.12619" lon="5.75325">
        <ele>-0.82</ele>
        <time>2016-05-25T14:04:20Z</time>
      </trkpt>
      <trkpt lat="43.12635" lon="5.75395">
        <ele>-1.3</ele>
        <time>2016-05-25T14:04:36Z</time>
      </trkpt>
      <trkpt lat="43.12657" lon="5.75459">
        <ele>-1.3</ele>
        <time>2016-05-25T14:04:51Z</time>
      </trkpt>
      <trkpt lat="43.12683" lon="5.75525">
        <ele>-1.3</ele>
        <time>2016-05-25T14:05:07Z</time>
      </trkpt>
      <trkpt lat="43.12723" lon="5.75591">
        <ele>-0.82</ele>
        <time>2016-05-25T14:05:26Z</time>
      </trkpt>
      <trkpt lat="43.12765" lon="5.75644">
        <ele>-0.82</ele>
        <time>2016-05-25T14:05:44Z</time>
      </trkpt>
      <trkpt lat="43.12824" lon="5.75686">
        <ele>-0.82</ele>
        <time>2016-05-25T14:06:06Z</time>
      </trkpt>
      <trkpt lat="43.12888" lon="5.75719">
        <ele>-1.79</ele>
        <time>2016-05-25T14:06:30Z</time>
      </trkpt>
      <trkpt lat="43.12951" lon="5.75747">
        <ele>-0.82</ele>
        <time>2016-05-25T14:06:54Z</time>
      </trkpt>
      <trkpt lat="43.13007" lon="5.75774">
        <ele>-0.34</ele>
        <time>2016-05-25T14:07:16Z</time>
      </trkpt>
      <trkpt lat="43.13057" lon="5.75798">
        <ele>-0.34</ele>
        <time>2016-05-25T14:07:36Z</time>
      </trkpt>
      <trkpt lat="43.13116" lon="5.75822">
        <ele>0.14</ele>
        <time>2016-05-25T14:08:00Z</time>
      </trkpt>
      <trkpt lat="43.13173" lon="5.75849">
        <ele>-0.34</ele>
        <time>2016-05-25T14:08:24Z</time>
      </trkpt>
      <trkpt lat="43.13233" lon="5.75873">
        <ele>-0.34</ele>
        <time>2016-05-25T14:08:48Z</time>
      </trkpt>
      <trkpt lat="43.13307" lon="5.75903">
        <ele>-0.82</ele>
        <time>2016-05-25T14:09:18Z</time>
      </trkpt>
      <trkpt lat="43.13372" lon="5.7593">
        <ele>-0.82</ele>
        <time>2016-05-25T14:09:44Z</time>
      </trkpt>
      <trkpt lat="43.1343" lon="5.75959">
        <ele>-0.82</ele>
        <time>2016-05-25T14:10:08Z</time>
      </trkpt>
      <trkpt lat="43.13473" lon="5.76005">
        <ele>-1.3</ele>
        <time>2016-05-25T14:10:29Z</time>
      </trkpt>
      <trkpt lat="43.13474" lon="5.76049">
        <ele>-0.82</ele>
        <time>2016-05-25T14:10:43Z</time>
      </trkpt>
      <trkpt lat="43.13465" lon="5.76077">
        <ele>-0.34</ele>
        <time>2016-05-25T14:10:57Z</time>
      </trkpt>
      <trkpt lat="43.13459" lon="5.76119">
        <ele>-1.3</ele>
        <time>2016-05-25T14:11:17Z</time>
      </trkpt>
      <trkpt lat="43.13453" lon="5.7617">
        <ele>-1.79</ele>
        <time>2016-05-25T14:11:39Z</time>
      </trkpt>
      <trkpt lat="43.13443" lon="5.76217">
        <ele>-0.34</ele>
        <time>2016-05-25T14:11:59Z</time>
      </trkpt>
      <trkpt lat="43.13436" lon="5.76247">
        <ele>-0.34</ele>
        <time>2016-05-25T14:12:13Z</time>
      </trkpt>
      <trkpt lat="43.13422" lon="5.76286">
        <ele>-0.82</ele>
        <time>2016-05-25T14:12:33Z</time>
      </trkpt>
      <trkpt lat="43.1341" lon="5.76321">
        <ele>-0.82</ele>
        <time>2016-05-25T14:12:52Z</time>
      </trkpt>
      <trkpt lat="43.13399" lon="5.76353">
        <ele>-0.34</ele>
        <time>2016-05-25T14:13:09Z</time>
      </trkpt>
      <trkpt lat="43.13388" lon="5.76381">
        <ele>-0.82</ele>
        <time>2016-05-25T14:13:23Z</time>
      </trkpt>
      <trkpt lat="43.13374" lon="5.76413">
        <ele>-0.82</ele>
        <time>2016-05-25T14:13:39Z</time>
      </trkpt>
      <trkpt lat="43.13363" lon="5.76435">
        <ele>-1.79</ele>
        <time>2016-05-25T14:13:51Z</time>
      </trkpt>
      <trkpt lat="43.13346" lon="5.76467">
        <ele>-1.79</ele>
        <time>2016-05-25T14:14:09Z</time>
      </trkpt>
      <trkpt lat="43.13333" lon="5.765">
        <ele>-1.3</ele>
        <time>2016-05-25T14:14:26Z</time>
      </trkpt>
      <trkpt lat="43.1332" lon="5.76532">
        <ele>-0.82</ele>
        <time>2016-05-25T14:14:41Z</time>
      </trkpt>
      <trkpt lat="43.13307" lon="5.76566">
        <ele>-1.79</ele>
        <time>2016-05-25T14:14:56Z</time>
      </trkpt>
      <trkpt lat="43.13289" lon="5.766">
        <ele>-2.75</ele>
        <time>2016-05-25T14:15:14Z</time>
      </trkpt>
      <trkpt lat="43.13272" lon="5.76625">
        <ele>-2.75</ele>
        <time>2016-05-25T14:15:30Z</time>
      </trkpt>
      <trkpt lat="43.13252" lon="5.76648">
        <ele>-2.75</ele>
        <time>2016-05-25T14:15:48Z</time>
      </trkpt>
      <trkpt lat="43.13234" lon="5.76671">
        <ele>-2.75</ele>
        <time>2016-05-25T14:16:05Z</time>
      </trkpt>
      <trkpt lat="43.13219" lon="5.76692">
        <ele>-2.27</ele>
        <time>2016-05-25T14:16:21Z</time>
      </trkpt>
      <trkpt lat="43.13203" lon="5.76714">
        <ele>-3.23</ele>
        <time>2016-05-25T14:16:38Z</time>
      </trkpt>
      <trkpt lat="43.13189" lon="5.76738">
        <ele>-2.27</ele>
        <time>2016-05-25T14:16:54Z</time>
      </trkpt>
      <trkpt lat="43.13171" lon="5.76757">
        <ele>-1.79</ele>
        <time>2016-05-25T14:17:11Z</time>
      </trkpt>
      <trkpt lat="43.13159" lon="5.7678">
        <ele>-2.27</ele>
        <time>2016-05-25T14:17:26Z</time>
      </trkpt>
      <trkpt lat="43.13145" lon="5.76819">
        <ele>-1.79</ele>
        <time>2016-05-25T14:17:44Z</time>
      </trkpt>
      <trkpt lat="43.13139" lon="5.7683">
        <ele>-1.3</ele>
        <time>2016-05-25T14:17:50Z</time>
      </trkpt>
      <trkpt lat="43.13116" lon="5.76858">
        <ele>-1.3</ele>
        <time>2016-05-25T14:18:06Z</time>
      </trkpt>
      <trkpt lat="43.13117" lon="5.76903">
        <ele>-1.3</ele>
        <time>2016-05-25T14:18:23Z</time>
      </trkpt>
      <trkpt lat="43.13115" lon="5.76958">
        <ele>-1.3</ele>
        <time>2016-05-25T14:18:41Z</time>
      </trkpt>
      <trkpt lat="43.13116" lon="5.77022">
        <ele>-1.79</ele>
        <time>2016-05-25T14:19:02Z</time>
      </trkpt>
      <trkpt lat="43.1311" lon="5.77067">
        <ele>-0.34</ele>
        <time>2016-05-25T14:19:18Z</time>
      </trkpt>
      <trkpt lat="43.13097" lon="5.77111">
        <ele>-0.82</ele>
        <time>2016-05-25T14:19:35Z</time>
      </trkpt>
      <trkpt lat="43.1308" lon="5.7714">
        <ele>-1.79</ele>
        <time>2016-05-25T14:19:53Z</time>
      </trkpt>
      <trkpt lat="43.13065" lon="5.77119">
        <ele>-2.75</ele>
        <time>2016-05-25T14:20:10Z</time>
      </trkpt>
      <trkpt lat="43.13065" lon="5.77063">
        <ele>-2.27</ele>
        <time>2016-05-25T14:20:32Z</time>
      </trkpt>
      <trkpt lat="43.13063" lon="5.77005">
        <ele>-2.27</ele>
        <time>2016-05-25T14:20:54Z</time>
      </trkpt>
      <trkpt lat="43.13074" lon="5.76958">
        <ele>-2.27</ele>
        <time>2016-05-25T14:21:12Z</time>
      </trkpt>
      <trkpt lat="43.13101" lon="5.76905">
        <ele>-1.79</ele>
        <time>2016-05-25T14:21:35Z</time>
      </trkpt>
      <trkpt lat="43.13126" lon="5.76859">
        <ele>-2.27</ele>
        <time>2016-05-25T14:21:56Z</time>
      </trkpt>
      <trkpt lat="43.13138" lon="5.76813">
        <ele>-2.27</ele>
        <time>2016-05-25T14:22:15Z</time>
      </trkpt>
      <trkpt lat="43.13153" lon="5.76758">
        <ele>-2.75</ele>
        <time>2016-05-25T14:22:36Z</time>
      </trkpt>
      <trkpt lat="43.13176" lon="5.76712">
        <ele>-2.75</ele>
        <time>2016-05-25T14:22:56Z</time>
      </trkpt>
      <trkpt lat="43.13197" lon="5.76663">
        <ele>-2.75</ele>
        <time>2016-05-25T14:23:17Z</time>
      </trkpt>
      <trkpt lat="43.13209" lon="5.7661">
        <ele>-2.27</ele>
        <time>2016-05-25T14:23:37Z</time>
      </trkpt>
      <trkpt lat="43.13214" lon="5.76551">
        <ele>-1.79</ele>
        <time>2016-05-25T14:23:58Z</time>
      </trkpt>
      <trkpt lat="43.13214" lon="5.76497">
        <ele>-1.79</ele>
        <time>2016-05-25T14:24:18Z</time>
      </trkpt>
      <trkpt lat="43.1321" lon="5.76434">
        <ele>-0.82</ele>
        <time>2016-05-25T14:24:42Z</time>
      </trkpt>
      <trkpt lat="43.13204" lon="5.76367">
        <ele>-1.3</ele>
        <time>2016-05-25T14:25:06Z</time>
      </trkpt>
      <trkpt lat="43.13223" lon="5.7634">
        <ele>-1.79</ele>
        <time>2016-05-25T14:25:20Z</time>
      </trkpt>
      <trkpt lat="43.13258" lon="5.7634">
        <ele>-2.75</ele>
        <time>2016-05-25T14:25:39Z</time>
      </trkpt>
      <trkpt lat="43.13264" lon="5.76371">
        <ele>-1.79</ele>
        <time>2016-05-25T14:25:53Z</time>
      </trkpt>
      <trkpt lat="43.13252" lon="5.76402">
        <ele>-1.79</ele>
        <time>2016-05-25T14:26:09Z</time>
      </trkpt>
      <trkpt lat="43.13241" lon="5.76437">
        <ele>-2.75</ele>
        <time>2016-05-25T14:26:25Z</time>
      </trkpt>
      <trkpt lat="43.13229" lon="5.76482">
        <ele>-3.23</ele>
        <time>2016-05-25T14:26:43Z</time>
      </trkpt>
      <trkpt lat="43.13216" lon="5.76524">
        <ele>-2.75</ele>
        <time>2016-05-25T14:27:00Z</time>
      </trkpt>
      <trkpt lat="43.13204" lon="5.76567">
        <ele>-2.75</ele>
        <time>2016-05-25T14:27:17Z</time>
      </trkpt>
      <trkpt lat="43.132" lon="5.76607">
        <ele>-4.19</ele>
        <time>2016-05-25T14:27:31Z</time>
      </trkpt>
      <trkpt lat="43.13198" lon="5.76654">
        <ele>-4.19</ele>
        <time>2016-05-25T14:27:46Z</time>
      </trkpt>
      <trkpt lat="43.13191" lon="5.76706">
        <ele>-3.23</ele>
        <time>2016-05-25T14:28:03Z</time>
      </trkpt>
      <trkpt lat="43.1319" lon="5.76757">
        <ele>-3.71</ele>
        <time>2016-05-25T14:28:20Z</time>
      </trkpt>
      <trkpt lat="43.13196" lon="5.7681">
        <ele>-2.27</ele>
        <time>2016-05-25T14:28:37Z</time>
      </trkpt>
      <trkpt lat="43.13203" lon="5.76876">
        <ele>-2.27</ele>
        <time>2016-05-25T14:28:59Z</time>
      </trkpt>
      <trkpt lat="43.13199" lon="5.7692">
        <ele>-2.27</ele>
        <time>2016-05-25T14:29:14Z</time>
      </trkpt>
      <trkpt lat="43.13182" lon="5.76975">
        <ele>-1.79</ele>
        <time>2016-05-25T14:29:34Z</time>
      </trkpt>
      <trkpt lat="43.13168" lon="5.77017">
        <ele>-1.79</ele>
        <time>2016-05-25T14:29:51Z</time>
      </trkpt>
      <trkpt lat="43.13148" lon="5.77073">
        <ele>-1.79</ele>
        <time>2016-05-25T14:30:14Z</time>
      </trkpt>
      <trkpt lat="43.1313" lon="5.77114">
        <ele>-1.3</ele>
        <time>2016-05-25T14:30:32Z</time>
      </trkpt>
      <trkpt lat="43.13109" lon="5.77147">
        <ele>-0.82</ele>
        <time>2016-05-25T14:30:50Z</time>
      </trkpt>
      <trkpt lat="43.1309" lon="5.7716">
        <ele>-0.34</ele>
        <time>2016-05-25T14:31:07Z</time>
      </trkpt>
      <trkpt lat="43.13089" lon="5.77159">
        <ele>-0.34</ele>
        <time>2016-05-25T14:31:09Z</time>
      </trkpt>
      <trkpt lat="43.13094" lon="5.7713">
        <ele>-0.82</ele>
        <time>2016-05-25T14:31:26Z</time>
      </trkpt>
      <trkpt lat="43.13118" lon="5.77101">
        <ele>-1.79</ele>
        <time>2016-05-25T14:31:42Z</time>
      </trkpt>
      <trkpt lat="43.13121" lon="5.77047">
        <ele>-1.79</ele>
        <time>2016-05-25T14:32:01Z</time>
      </trkpt>
      <trkpt lat="43.13115" lon="5.76989">
        <ele>-1.79</ele>
        <time>2016-05-25T14:32:22Z</time>
      </trkpt>
      <trkpt lat="43.13118" lon="5.76931">
        <ele>-2.27</ele>
        <time>2016-05-25T14:32:42Z</time>
      </trkpt>
      <trkpt lat="43.13125" lon="5.76877">
        <ele>-1.79</ele>
        <time>2016-05-25T14:33:00Z</time>
      </trkpt>
      <trkpt lat="43.13123" lon="5.76804">
        <ele>-1.3</ele>
        <time>2016-05-25T14:33:25Z</time>
      </trkpt>
      <trkpt lat="43.13125" lon="5.76757">
        <ele>-1.79</ele>
        <time>2016-05-25T14:33:41Z</time>
      </trkpt>
      <trkpt lat="43.13118" lon="5.76693">
        <ele>-1.79</ele>
        <time>2016-05-25T14:34:03Z</time>
      </trkpt>
      <trkpt lat="43.13109" lon="5.7663">
        <ele>-1.79</ele>
        <time>2016-05-25T14:34:24Z</time>
      </trkpt>
      <trkpt lat="43.13104" lon="5.76574">
        <ele>-1.79</ele>
        <time>2016-05-25T14:34:42Z</time>
      </trkpt>
      <trkpt lat="43.13113" lon="5.76526">
        <ele>-1.79</ele>
        <time>2016-05-25T14:34:58Z</time>
      </trkpt>
      <trkpt lat="43.1313" lon="5.76471">
        <ele>-1.79</ele>
        <time>2016-05-25T14:35:17Z</time>
      </trkpt>
      <trkpt lat="43.13146" lon="5.7641">
        <ele>-2.27</ele>
        <time>2016-05-25T14:35:37Z</time>
      </trkpt>
      <trkpt lat="43.13162" lon="5.76354">
        <ele>-1.79</ele>
        <time>2016-05-25T14:35:56Z</time>
      </trkpt>
      <trkpt lat="43.13178" lon="5.76299">
        <ele>-1.3</ele>
        <time>2016-05-25T14:36:15Z</time>
      </trkpt>
      <trkpt lat="43.132" lon="5.76264">
        <ele>-0.82</ele>
        <time>2016-05-25T14:36:31Z</time>
      </trkpt>
      <trkpt lat="43.13238" lon="5.76257">
        <ele>-0.82</ele>
        <time>2016-05-25T14:36:52Z</time>
      </trkpt>
      <trkpt lat="43.1325" lon="5.76291">
        <ele>-1.3</ele>
        <time>2016-05-25T14:37:07Z</time>
      </trkpt>
      <trkpt lat="43.1325" lon="5.76296">
        <ele>-1.3</ele>
        <time>2016-05-25T14:37:09Z</time>
      </trkpt>
      <trkpt lat="43.13237" lon="5.7633">
        <ele>-1.79</ele>
        <time>2016-05-25T14:37:25Z</time>
      </trkpt>
      <trkpt lat="43.13223" lon="5.76364">
        <ele>-0.82</ele>
        <time>2016-05-25T14:37:41Z</time>
      </trkpt>
      <trkpt lat="43.13209" lon="5.76396">
        <ele>-0.82</ele>
        <time>2016-05-25T14:37:57Z</time>
      </trkpt>
      <trkpt lat="43.13189" lon="5.76409">
        <ele>-1.3</ele>
        <time>2016-05-25T14:38:15Z</time>
      </trkpt>
      <trkpt lat="43.13175" lon="5.76424">
        <ele>-0.82</ele>
        <time>2016-05-25T14:38:34Z</time>
      </trkpt>
      <trkpt lat="43.13162" lon="5.76443">
        <ele>-0.34</ele>
        <time>2016-05-25T14:38:54Z</time>
      </trkpt>
      <trkpt lat="43.13158" lon="5.76451">
        <ele>-0.34</ele>
        <time>2016-05-25T14:39:00Z</time>
      </trkpt>
      <trkpt lat="43.13155" lon="5.76459">
        <ele>-0.34</ele>
        <time>2016-05-25T14:39:06Z</time>
      </trkpt>
      <trkpt lat="43.13138" lon="5.76486">
        <ele>0.14</ele>
        <time>2016-05-25T14:39:27Z</time>
      </trkpt>
      <trkpt lat="43.13123" lon="5.7651">
        <ele>-0.34</ele>
        <time>2016-05-25T14:39:45Z</time>
      </trkpt>
      <trkpt lat="43.13108" lon="5.7653">
        <ele>-0.34</ele>
        <time>2016-05-25T14:40:04Z</time>
      </trkpt>
      <trkpt lat="43.13106" lon="5.76532">
        <ele>-0.34</ele>
        <time>2016-05-25T14:40:06Z</time>
      </trkpt>
      <trkpt lat="43.13097" lon="5.76548">
        <ele>-0.34</ele>
        <time>2016-05-25T14:40:18Z</time>
      </trkpt>
      <trkpt lat="43.13085" lon="5.76571">
        <ele>0.14</ele>
        <time>2016-05-25T14:40:35Z</time>
      </trkpt>
      <trkpt lat="43.13074" lon="5.76587">
        <ele>-2.27</ele>
        <time>2016-05-25T14:40:50Z</time>
      </trkpt>
      <trkpt lat="43.13072" lon="5.76591">
        <ele>-2.75</ele>
        <time>2016-05-25T14:40:53Z</time>
      </trkpt>
      <trkpt lat="43.1307" lon="5.76596">
        <ele>-2.75</ele>
        <time>2016-05-25T14:40:57Z</time>
      </trkpt>
      <trkpt lat="43.1306" lon="5.76613">
        <ele>-1.79</ele>
        <time>2016-05-25T14:41:10Z</time>
      </trkpt>
      <trkpt lat="43.13056" lon="5.76619">
        <ele>-1.3</ele>
        <time>2016-05-25T14:41:15Z</time>
      </trkpt>
      <trkpt lat="43.1304" lon="5.76644">
        <ele>-1.3</ele>
        <time>2016-05-25T14:41:36Z</time>
      </trkpt>
      <trkpt lat="43.13028" lon="5.76663">
        <ele>-1.3</ele>
        <time>2016-05-25T14:41:52Z</time>
      </trkpt>
      <trkpt lat="43.13021" lon="5.76683">
        <ele>-1.3</ele>
        <time>2016-05-25T14:42:04Z</time>
      </trkpt>
      <trkpt lat="43.13016" lon="5.76689">
        <ele>-1.3</ele>
        <time>2016-05-25T14:42:09Z</time>
      </trkpt>
      <trkpt lat="43.13012" lon="5.76694">
        <ele>-1.3</ele>
        <time>2016-05-25T14:42:13Z</time>
      </trkpt>
      <trkpt lat="43.13004" lon="5.76711">
        <ele>-1.3</ele>
        <time>2016-05-25T14:42:23Z</time>
      </trkpt>
      <trkpt lat="43.12997" lon="5.76734">
        <ele>-1.3</ele>
        <time>2016-05-25T14:42:36Z</time>
      </trkpt>
      <trkpt lat="43.12979" lon="5.76748">
        <ele>-2.27</ele>
        <time>2016-05-25T14:42:55Z</time>
      </trkpt>
      <trkpt lat="43.12978" lon="5.76751">
        <ele>-2.27</ele>
        <time>2016-05-25T14:42:58Z</time>
      </trkpt>
      <trkpt lat="43.12967" lon="5.76768">
        <ele>-1.3</ele>
        <time>2016-05-25T14:43:15Z</time>
      </trkpt>
      <trkpt lat="43.12959" lon="5.76784">
        <ele>-1.79</ele>
        <time>2016-05-25T14:43:29Z</time>
      </trkpt>
      <trkpt lat="43.12951" lon="5.768">
        <ele>-1.3</ele>
        <time>2016-05-25T14:43:44Z</time>
      </trkpt>
      <trkpt lat="43.12949" lon="5.76804">
        <ele>-1.3</ele>
        <time>2016-05-25T14:43:47Z</time>
      </trkpt>
      <trkpt lat="43.12943" lon="5.76817">
        <ele>-1.3</ele>
        <time>2016-05-25T14:43:58Z</time>
      </trkpt>
      <trkpt lat="43.12934" lon="5.76838">
        <ele>-1.3</ele>
        <time>2016-05-25T14:44:14Z</time>
      </trkpt>
      <trkpt lat="43.12925" lon="5.76853">
        <ele>-0.82</ele>
        <time>2016-05-25T14:44:26Z</time>
      </trkpt>
      <trkpt lat="43.12921" lon="5.76862">
        <ele>-0.34</ele>
        <time>2016-05-25T14:44:32Z</time>
      </trkpt>
      <trkpt lat="43.12919" lon="5.7687">
        <ele>-0.82</ele>
        <time>2016-05-25T14:44:36Z</time>
      </trkpt>
      <trkpt lat="43.12908" lon="5.76886">
        <ele>-1.79</ele>
        <time>2016-05-25T14:44:49Z</time>
      </trkpt>
      <trkpt lat="43.12902" lon="5.76889">
        <ele>-1.3</ele>
        <time>2016-05-25T14:44:55Z</time>
      </trkpt>
      <trkpt lat="43.12894" lon="5.76866">
        <ele>-0.34</ele>
        <time>2016-05-25T14:45:13Z</time>
      </trkpt>
      <trkpt lat="43.12907" lon="5.76834">
        <ele>-0.82</ele>
        <time>2016-05-25T14:45:30Z</time>
      </trkpt>
      <trkpt lat="43.12918" lon="5.76795">
        <ele>-1.3</ele>
        <time>2016-05-25T14:45:46Z</time>
      </trkpt>
      <trkpt lat="43.12919" lon="5.76741">
        <ele>-0.82</ele>
        <time>2016-05-25T14:46:05Z</time>
      </trkpt>
      <trkpt lat="43.12925" lon="5.767">
        <ele>-1.3</ele>
        <time>2016-05-25T14:46:20Z</time>
      </trkpt>
      <trkpt lat="43.12938" lon="5.76652">
        <ele>-1.3</ele>
        <time>2016-05-25T14:46:37Z</time>
      </trkpt>
      <trkpt lat="43.12949" lon="5.76607">
        <ele>-1.3</ele>
        <time>2016-05-25T14:46:53Z</time>
      </trkpt>
      <trkpt lat="43.1296" lon="5.76569">
        <ele>-1.79</ele>
        <time>2016-05-25T14:47:07Z</time>
      </trkpt>
      <trkpt lat="43.12973" lon="5.76522">
        <ele>-1.79</ele>
        <time>2016-05-25T14:47:24Z</time>
      </trkpt>
      <trkpt lat="43.12974" lon="5.76471">
        <ele>-1.3</ele>
        <time>2016-05-25T14:47:41Z</time>
      </trkpt>
      <trkpt lat="43.12968" lon="5.76416">
        <ele>-0.34</ele>
        <time>2016-05-25T14:48:00Z</time>
      </trkpt>
      <trkpt lat="43.12966" lon="5.76369">
        <ele>0.14</ele>
        <time>2016-05-25T14:48:16Z</time>
      </trkpt>
      <trkpt lat="43.12962" lon="5.76319">
        <ele>0.62</ele>
        <time>2016-05-25T14:48:34Z</time>
      </trkpt>
      <trkpt lat="43.12966" lon="5.76275">
        <ele>0.14</ele>
        <time>2016-05-25T14:48:51Z</time>
      </trkpt>
      <trkpt lat="43.12973" lon="5.7623">
        <ele>-0.34</ele>
        <time>2016-05-25T14:49:07Z</time>
      </trkpt>
      <trkpt lat="43.12973" lon="5.76178">
        <ele>0.62</ele>
        <time>2016-05-25T14:49:25Z</time>
      </trkpt>
      <trkpt lat="43.12975" lon="5.76131">
        <ele>0.62</ele>
        <time>2016-05-25T14:49:41Z</time>
      </trkpt>
      <trkpt lat="43.12981" lon="5.76092">
        <ele>0.14</ele>
        <time>2016-05-25T14:49:55Z</time>
      </trkpt>
      <trkpt lat="43.12997" lon="5.76052">
        <ele>-0.82</ele>
        <time>2016-05-25T14:50:11Z</time>
      </trkpt>
      <trkpt lat="43.13008" lon="5.76011">
        <ele>-0.34</ele>
        <time>2016-05-25T14:50:26Z</time>
      </trkpt>
      <trkpt lat="43.1303" lon="5.75979">
        <ele>-1.3</ele>
        <time>2016-05-25T14:50:42Z</time>
      </trkpt>
      <trkpt lat="43.13054" lon="5.75956">
        <ele>-1.79</ele>
        <time>2016-05-25T14:50:58Z</time>
      </trkpt>
      <trkpt lat="43.13085" lon="5.75945">
        <ele>-1.79</ele>
        <time>2016-05-25T14:51:16Z</time>
      </trkpt>
      <trkpt lat="43.13115" lon="5.7592">
        <ele>-1.3</ele>
        <time>2016-05-25T14:51:35Z</time>
      </trkpt>
      <trkpt lat="43.13121" lon="5.7589">
        <ele>-1.79</ele>
        <time>2016-05-25T14:51:47Z</time>
      </trkpt>
      <trkpt lat="43.13125" lon="5.75846">
        <ele>-2.27</ele>
        <time>2016-05-25T14:52:03Z</time>
      </trkpt>
      <trkpt lat="43.13109" lon="5.75808">
        <ele>-1.3</ele>
        <time>2016-05-25T14:52:20Z</time>
      </trkpt>
      <trkpt lat="43.13085" lon="5.75803">
        <ele>-0.82</ele>
        <time>2016-05-25T14:52:36Z</time>
      </trkpt>
      <trkpt lat="43.13074" lon="5.7582">
        <ele>-1.79</ele>
        <time>2016-05-25T14:52:52Z</time>
      </trkpt>
      <trkpt lat="43.13064" lon="5.75841">
        <ele>-1.79</ele>
        <time>2016-05-25T14:53:08Z</time>
      </trkpt>
      <trkpt lat="43.13059" lon="5.75876">
        <ele>-1.3</ele>
        <time>2016-05-25T14:53:24Z</time>
      </trkpt>
      <trkpt lat="43.13056" lon="5.75913">
        <ele>-0.82</ele>
        <time>2016-05-25T14:53:38Z</time>
      </trkpt>
      <trkpt lat="43.13055" lon="5.75918">
        <ele>-0.82</ele>
        <time>2016-05-25T14:53:40Z</time>
      </trkpt>
      <trkpt lat="43.13044" lon="5.7594">
        <ele>-1.3</ele>
        <time>2016-05-25T14:53:52Z</time>
      </trkpt>
      <trkpt lat="43.13041" lon="5.75945">
        <ele>-2.27</ele>
        <time>2016-05-25T14:53:56Z</time>
      </trkpt>
      <trkpt lat="43.13038" lon="5.7595">
        <ele>-2.75</ele>
        <time>2016-05-25T14:54:00Z</time>
      </trkpt>
      <trkpt lat="43.13021" lon="5.75958">
        <ele>-2.75</ele>
        <time>2016-05-25T14:54:18Z</time>
      </trkpt>
      <trkpt lat="43.13013" lon="5.75969">
        <ele>-3.23</ele>
        <time>2016-05-25T14:54:32Z</time>
      </trkpt>
      <trkpt lat="43.13013" lon="5.7597">
        <ele>-3.23</ele>
        <time>2016-05-25T14:54:33Z</time>
      </trkpt>
      <trkpt lat="43.1301" lon="5.7598">
        <ele>-3.23</ele>
        <time>2016-05-25T14:54:40Z</time>
      </trkpt>
      <trkpt lat="43.13001" lon="5.76009">
        <ele>-2.27</ele>
        <time>2016-05-25T14:54:56Z</time>
      </trkpt>
      <trkpt lat="43.12986" lon="5.76028">
        <ele>-1.3</ele>
        <time>2016-05-25T14:55:12Z</time>
      </trkpt>
      <trkpt lat="43.12974" lon="5.76048">
        <ele>-0.82</ele>
        <time>2016-05-25T14:55:29Z</time>
      </trkpt>
      <trkpt lat="43.12982" lon="5.76091">
        <ele>0.62</ele>
        <time>2016-05-25T14:55:45Z</time>
      </trkpt>
      <trkpt lat="43.13002" lon="5.76142">
        <ele>0.62</ele>
        <time>2016-05-25T14:56:01Z</time>
      </trkpt>
      <trkpt lat="43.1302" lon="5.76194">
        <ele>0.14</ele>
        <time>2016-05-25T14:56:18Z</time>
      </trkpt>
      <trkpt lat="43.13041" lon="5.76248">
        <ele>0.14</ele>
        <time>2016-05-25T14:56:37Z</time>
      </trkpt>
      <trkpt lat="43.13061" lon="5.76291">
        <ele>0.14</ele>
        <time>2016-05-25T14:56:54Z</time>
      </trkpt>
      <trkpt lat="43.13088" lon="5.7634">
        <ele>0.14</ele>
        <time>2016-05-25T14:57:14Z</time>
      </trkpt>
      <trkpt lat="43.13115" lon="5.76379">
        <ele>-0.34</ele>
        <time>2016-05-25T14:57:32Z</time>
      </trkpt>
      <trkpt lat="43.13157" lon="5.76412">
        <ele>-1.3</ele>
        <time>2016-05-25T14:57:55Z</time>
      </trkpt>
      <trkpt lat="43.13197" lon="5.76423">
        <ele>-1.79</ele>
        <time>2016-05-25T14:58:15Z</time>
      </trkpt>
      <trkpt lat="43.13228" lon="5.76405">
        <ele>-1.79</ele>
        <time>2016-05-25T14:58:34Z</time>
      </trkpt>
      <trkpt lat="43.13236" lon="5.76361">
        <ele>-0.82</ele>
        <time>2016-05-25T14:58:52Z</time>
      </trkpt>
      <trkpt lat="43.13241" lon="5.76321">
        <ele>-0.82</ele>
        <time>2016-05-25T14:59:08Z</time>
      </trkpt>
      <trkpt lat="43.13245" lon="5.76277">
        <ele>-0.34</ele>
        <time>2016-05-25T14:59:26Z</time>
      </trkpt>
      <trkpt lat="43.13242" lon="5.76232">
        <ele>-0.82</ele>
        <time>2016-05-25T14:59:45Z</time>
      </trkpt>
      <trkpt lat="43.13235" lon="5.76179">
        <ele>-0.82</ele>
        <time>2016-05-25T15:00:05Z</time>
      </trkpt>
      <trkpt lat="43.13226" lon="5.76129">
        <ele>-0.82</ele>
        <time>2016-05-25T15:00:23Z</time>
      </trkpt>
      <trkpt lat="43.13209" lon="5.76124">
        <ele>-1.79</ele>
        <time>2016-05-25T15:00:34Z</time>
      </trkpt>
      <trkpt lat="43.13194" lon="5.76124">
        <ele>-1.79</ele>
        <time>2016-05-25T15:00:50Z</time>
      </trkpt>
      <trkpt lat="43.13192" lon="5.76134">
        <ele>-2.27</ele>
        <time>2016-05-25T15:01:03Z</time>
      </trkpt>
      <trkpt lat="43.13191" lon="5.76145">
        <ele>-1.79</ele>
        <time>2016-05-25T15:01:13Z</time>
      </trkpt>
      <trkpt lat="43.13186" lon="5.76172">
        <ele>-1.3</ele>
        <time>2016-05-25T15:01:28Z</time>
      </trkpt>
      <trkpt lat="43.13173" lon="5.7621">
        <ele>-0.82</ele>
        <time>2016-05-25T15:01:45Z</time>
      </trkpt>
      <trkpt lat="43.13163" lon="5.7625">
        <ele>-0.82</ele>
        <time>2016-05-25T15:02:01Z</time>
      </trkpt>
      <trkpt lat="43.13151" lon="5.7629">
        <ele>-0.34</ele>
        <time>2016-05-25T15:02:17Z</time>
      </trkpt>
      <trkpt lat="43.13156" lon="5.76325">
        <ele>-0.34</ele>
        <time>2016-05-25T15:02:28Z</time>
      </trkpt>
      <trkpt lat="43.13151" lon="5.76345">
        <ele>-0.82</ele>
        <time>2016-05-25T15:02:35Z</time>
      </trkpt>
      <trkpt lat="43.13134" lon="5.76339">
        <ele>-0.82</ele>
        <time>2016-05-25T15:02:47Z</time>
      </trkpt>
      <trkpt lat="43.13106" lon="5.76313">
        <ele>-0.34</ele>
        <time>2016-05-25T15:03:08Z</time>
      </trkpt>
      <trkpt lat="43.13071" lon="5.76279">
        <ele>-0.34</ele>
        <time>2016-05-25T15:03:29Z</time>
      </trkpt>
      <trkpt lat="43.13044" lon="5.76242">
        <ele>-0.82</ele>
        <time>2016-05-25T15:03:46Z</time>
      </trkpt>
      <trkpt lat="43.13012" lon="5.76203">
        <ele>-1.79</ele>
        <time>2016-05-25T15:04:04Z</time>
      </trkpt>
      <trkpt lat="43.12973" lon="5.76161">
        <ele>-1.79</ele>
        <time>2016-05-25T15:04:24Z</time>
      </trkpt>
      <trkpt lat="43.12945" lon="5.76142">
        <ele>-1.3</ele>
        <time>2016-05-25T15:04:40Z</time>
      </trkpt>
      <trkpt lat="43.12912" lon="5.76106">
        <ele>-1.79</ele>
        <time>2016-05-25T15:04:59Z</time>
      </trkpt>
      <trkpt lat="43.12879" lon="5.76077">
        <ele>-0.82</ele>
        <time>2016-05-25T15:05:16Z</time>
      </trkpt>
      <trkpt lat="43.12847" lon="5.76047">
        <ele>-0.82</ele>
        <time>2016-05-25T15:05:35Z</time>
      </trkpt>
      <trkpt lat="43.12825" lon="5.76026">
        <ele>-1.79</ele>
        <time>2016-05-25T15:05:50Z</time>
      </trkpt>
      <trkpt lat="43.12798" lon="5.75999">
        <ele>-0.82</ele>
        <time>2016-05-25T15:06:07Z</time>
      </trkpt>
      <trkpt lat="43.12774" lon="5.75968">
        <ele>-0.82</ele>
        <time>2016-05-25T15:06:26Z</time>
      </trkpt>
      <trkpt lat="43.12741" lon="5.75933">
        <ele>-2.27</ele>
        <time>2016-05-25T15:06:46Z</time>
      </trkpt>
      <trkpt lat="43.12714" lon="5.7591">
        <ele>-2.27</ele>
        <time>2016-05-25T15:07:02Z</time>
      </trkpt>
      <trkpt lat="43.12686" lon="5.75883">
        <ele>-1.3</ele>
        <time>2016-05-25T15:07:18Z</time>
      </trkpt>
      <trkpt lat="43.12658" lon="5.75861">
        <ele>-0.82</ele>
        <time>2016-05-25T15:07:33Z</time>
      </trkpt>
      <trkpt lat="43.12631" lon="5.75846">
        <ele>-2.27</ele>
        <time>2016-05-25T15:07:48Z</time>
      </trkpt>
      <trkpt lat="43.12609" lon="5.75818">
        <ele>-1.3</ele>
        <time>2016-05-25T15:08:03Z</time>
      </trkpt>
      <trkpt lat="43.12581" lon="5.75789">
        <ele>-1.3</ele>
        <time>2016-05-25T15:08:18Z</time>
      </trkpt>
      <trkpt lat="43.12549" lon="5.75755">
        <ele>-1.79</ele>
        <time>2016-05-25T15:08:35Z</time>
      </trkpt>
      <trkpt lat="43.12521" lon="5.75728">
        <ele>-2.27</ele>
        <time>2016-05-25T15:08:50Z</time>
      </trkpt>
      <trkpt lat="43.12485" lon="5.75692">
        <ele>-2.27</ele>
        <time>2016-05-25T15:09:08Z</time>
      </trkpt>
      <trkpt lat="43.12449" lon="5.75667">
        <ele>-2.27</ele>
        <time>2016-05-25T15:09:25Z</time>
      </trkpt>
      <trkpt lat="43.12411" lon="5.75634">
        <ele>-2.75</ele>
        <time>2016-05-25T15:09:43Z</time>
      </trkpt>
      <trkpt lat="43.1237" lon="5.75603">
        <ele>-1.79</ele>
        <time>2016-05-25T15:10:01Z</time>
      </trkpt>
      <trkpt lat="43.12336" lon="5.75578">
        <ele>-2.75</ele>
        <time>2016-05-25T15:10:18Z</time>
      </trkpt>
      <trkpt lat="43.12295" lon="5.75535">
        <ele>-2.27</ele>
        <time>2016-05-25T15:10:39Z</time>
      </trkpt>
      <trkpt lat="43.12264" lon="5.75513">
        <ele>-1.3</ele>
        <time>2016-05-25T15:10:54Z</time>
      </trkpt>
      <trkpt lat="43.12239" lon="5.75494">
        <ele>-2.27</ele>
        <time>2016-05-25T15:11:08Z</time>
      </trkpt>
      <trkpt lat="43.12209" lon="5.75465">
        <ele>-2.27</ele>
        <time>2016-05-25T15:11:26Z</time>
      </trkpt>
      <trkpt lat="43.12179" lon="5.75421">
        <ele>-2.27</ele>
        <time>2016-05-25T15:11:44Z</time>
      </trkpt>
      <trkpt lat="43.12139" lon="5.75373">
        <ele>-2.75</ele>
        <time>2016-05-25T15:12:05Z</time>
      </trkpt>
      <trkpt lat="43.1211" lon="5.7533">
        <ele>-2.75</ele>
        <time>2016-05-25T15:12:23Z</time>
      </trkpt>
      <trkpt lat="43.12083" lon="5.75288">
        <ele>-2.27</ele>
        <time>2016-05-25T15:12:39Z</time>
      </trkpt>
      <trkpt lat="43.12044" lon="5.7525">
        <ele>-1.3</ele>
        <time>2016-05-25T15:12:57Z</time>
      </trkpt>
      <trkpt lat="43.12012" lon="5.75227">
        <ele>-1.3</ele>
        <time>2016-05-25T15:13:13Z</time>
      </trkpt>
      <trkpt lat="43.11987" lon="5.75212">
        <ele>-2.75</ele>
        <time>2016-05-25T15:13:26Z</time>
      </trkpt>
      <trkpt lat="43.11957" lon="5.75198">
        <ele>-3.23</ele>
        <time>2016-05-25T15:13:41Z</time>
      </trkpt>
      <trkpt lat="43.1193" lon="5.75179">
        <ele>-2.75</ele>
        <time>2016-05-25T15:13:57Z</time>
      </trkpt>
      <trkpt lat="43.11895" lon="5.75151">
        <ele>-1.3</ele>
        <time>2016-05-25T15:14:15Z</time>
      </trkpt>
      <trkpt lat="43.11871" lon="5.75147">
        <ele>-0.34</ele>
        <time>2016-05-25T15:14:29Z</time>
      </trkpt>
      <trkpt lat="43.11869" lon="5.75157">
        <ele>-0.34</ele>
        <time>2016-05-25T15:14:35Z</time>
      </trkpt>
      <trkpt lat="43.11869" lon="5.75164">
        <ele>-0.34</ele>
        <time>2016-05-25T15:14:39Z</time>
      </trkpt>
      <trkpt lat="43.11865" lon="5.75194">
        <ele>0.14</ele>
        <time>2016-05-25T15:14:54Z</time>
      </trkpt>
      <trkpt lat="43.11858" lon="5.75226">
        <ele>-0.82</ele>
        <time>2016-05-25T15:15:08Z</time>
      </trkpt>
      <trkpt lat="43.11843" lon="5.75277">
        <ele>-1.3</ele>
        <time>2016-05-25T15:15:26Z</time>
      </trkpt>
      <trkpt lat="43.11825" lon="5.75334">
        <ele>-1.3</ele>
        <time>2016-05-25T15:15:44Z</time>
      </trkpt>
      <trkpt lat="43.11811" lon="5.75373">
        <ele>-2.27</ele>
        <time>2016-05-25T15:15:57Z</time>
      </trkpt>
      <trkpt lat="43.11795" lon="5.75425">
        <ele>-1.79</ele>
        <time>2016-05-25T15:16:13Z</time>
      </trkpt>
      <trkpt lat="43.1178" lon="5.75472">
        <ele>-0.82</ele>
        <time>2016-05-25T15:16:27Z</time>
      </trkpt>
      <trkpt lat="43.11764" lon="5.75534">
        <ele>-0.82</ele>
        <time>2016-05-25T15:16:44Z</time>
      </trkpt>
      <trkpt lat="43.11747" lon="5.75595">
        <ele>0.14</ele>
        <time>2016-05-25T15:17:00Z</time>
      </trkpt>
      <trkpt lat="43.11728" lon="5.75654">
        <ele>-0.34</ele>
        <time>2016-05-25T15:17:17Z</time>
      </trkpt>
      <trkpt lat="43.11714" lon="5.75694">
        <ele>-0.82</ele>
        <time>2016-05-25T15:17:29Z</time>
      </trkpt>
      <trkpt lat="43.11702" lon="5.75749">
        <ele>-0.82</ele>
        <time>2016-05-25T15:17:44Z</time>
      </trkpt>
      <trkpt lat="43.11693" lon="5.75808">
        <ele>-0.34</ele>
        <time>2016-05-25T15:17:59Z</time>
      </trkpt>
      <trkpt lat="43.11689" lon="5.7587">
        <ele>0.14</ele>
        <time>2016-05-25T15:18:14Z</time>
      </trkpt>
      <trkpt lat="43.11691" lon="5.75943">
        <ele>0.14</ele>
        <time>2016-05-25T15:18:32Z</time>
      </trkpt>
      <trkpt lat="43.11699" lon="5.76009">
        <ele>0.62</ele>
        <time>2016-05-25T15:18:49Z</time>
      </trkpt>
      <trkpt lat="43.11709" lon="5.76093">
        <ele>1.58</ele>
        <time>2016-05-25T15:19:11Z</time>
      </trkpt>
      <trkpt lat="43.11719" lon="5.76167">
        <ele>2.06</ele>
        <time>2016-05-25T15:19:29Z</time>
      </trkpt>
      <trkpt lat="43.11735" lon="5.76236">
        <ele>1.58</ele>
        <time>2016-05-25T15:19:46Z</time>
      </trkpt>
      <trkpt lat="43.11767" lon="5.76296">
        <ele>1.1</ele>
        <time>2016-05-25T15:20:05Z</time>
      </trkpt>
      <trkpt lat="43.11808" lon="5.76302">
        <ele>1.1</ele>
        <time>2016-05-25T15:20:23Z</time>
      </trkpt>
      <trkpt lat="43.11839" lon="5.76306">
        <ele>0.62</ele>
        <time>2016-05-25T15:20:38Z</time>
      </trkpt>
      <trkpt lat="43.11878" lon="5.76307">
        <ele>0.62</ele>
        <time>2016-05-25T15:20:57Z</time>
      </trkpt>
      <trkpt lat="43.11917" lon="5.76304">
        <ele>0.62</ele>
        <time>2016-05-25T15:21:17Z</time>
      </trkpt>
      <trkpt lat="43.11961" lon="5.76305">
        <ele>1.1</ele>
        <time>2016-05-25T15:21:40Z</time>
      </trkpt>
      <trkpt lat="43.11994" lon="5.76304">
        <ele>0.62</ele>
        <time>2016-05-25T15:21:57Z</time>
      </trkpt>
      <trkpt lat="43.12029" lon="5.76303">
        <ele>0.14</ele>
        <time>2016-05-25T15:22:14Z</time>
      </trkpt>
      <trkpt lat="43.12063" lon="5.76303">
        <ele>0.62</ele>
        <time>2016-05-25T15:22:31Z</time>
      </trkpt>
      <trkpt lat="43.12098" lon="5.763">
        <ele>0.14</ele>
        <time>2016-05-25T15:22:48Z</time>
      </trkpt>
      <trkpt lat="43.12133" lon="5.76297">
        <ele>-1.3</ele>
        <time>2016-05-25T15:23:04Z</time>
      </trkpt>
      <trkpt lat="43.12177" lon="5.76291">
        <ele>-0.34</ele>
        <time>2016-05-25T15:23:24Z</time>
      </trkpt>
      <trkpt lat="43.12215" lon="5.76291">
        <ele>0.62</ele>
        <time>2016-05-25T15:23:41Z</time>
      </trkpt>
      <trkpt lat="43.12256" lon="5.76292">
        <ele>0.62</ele>
        <time>2016-05-25T15:24:01Z</time>
      </trkpt>
      <trkpt lat="43.12296" lon="5.76287">
        <ele>1.1</ele>
        <time>2016-05-25T15:24:21Z</time>
      </trkpt>
      <trkpt lat="43.12335" lon="5.76285">
        <ele>0.62</ele>
        <time>2016-05-25T15:24:42Z</time>
      </trkpt>
      <trkpt lat="43.1237" lon="5.76279">
        <ele>-0.34</ele>
        <time>2016-05-25T15:25:01Z</time>
      </trkpt>
      <trkpt lat="43.12404" lon="5.76273">
        <ele>-0.82</ele>
        <time>2016-05-25T15:25:19Z</time>
      </trkpt>
      <trkpt lat="43.12437" lon="5.76269">
        <ele>-1.79</ele>
        <time>2016-05-25T15:25:36Z</time>
      </trkpt>
      <trkpt lat="43.12474" lon="5.76266">
        <ele>-0.82</ele>
        <time>2016-05-25T15:25:55Z</time>
      </trkpt>
      <trkpt lat="43.12503" lon="5.76265">
        <ele>-0.34</ele>
        <time>2016-05-25T15:26:10Z</time>
      </trkpt>
      <trkpt lat="43.12529" lon="5.76263">
        <ele>0.62</ele>
        <time>2016-05-25T15:26:25Z</time>
      </trkpt>
      <trkpt lat="43.12562" lon="5.76266">
        <ele>0.14</ele>
        <time>2016-05-25T15:26:44Z</time>
      </trkpt>
      <trkpt lat="43.12591" lon="5.76264">
        <ele>0.14</ele>
        <time>2016-05-25T15:27:02Z</time>
      </trkpt>
      <trkpt lat="43.12618" lon="5.76262">
        <ele>0.62</ele>
        <time>2016-05-25T15:27:19Z</time>
      </trkpt>
      <trkpt lat="43.12647" lon="5.7626">
        <ele>0.14</ele>
        <time>2016-05-25T15:27:38Z</time>
      </trkpt>
      <trkpt lat="43.12683" lon="5.7626">
        <ele>0.62</ele>
        <time>2016-05-25T15:28:00Z</time>
      </trkpt>
      <trkpt lat="43.12709" lon="5.76263">
        <ele>0.14</ele>
        <time>2016-05-25T15:28:15Z</time>
      </trkpt>
      <trkpt lat="43.12742" lon="5.7627">
        <ele>-0.82</ele>
        <time>2016-05-25T15:28:33Z</time>
      </trkpt>
      <trkpt lat="43.12782" lon="5.7628">
        <ele>-1.3</ele>
        <time>2016-05-25T15:28:55Z</time>
      </trkpt>
      <trkpt lat="43.12815" lon="5.76288">
        <ele>0.14</ele>
        <time>2016-05-25T15:29:12Z</time>
      </trkpt>
      <trkpt lat="43.12851" lon="5.76303">
        <ele>0.62</ele>
        <time>2016-05-25T15:29:31Z</time>
      </trkpt>
      <trkpt lat="43.12895" lon="5.76323">
        <ele>0.14</ele>
        <time>2016-05-25T15:29:55Z</time>
      </trkpt>
      <trkpt lat="43.12931" lon="5.76338">
        <ele>0.14</ele>
        <time>2016-05-25T15:30:15Z</time>
      </trkpt>
      <trkpt lat="43.12962" lon="5.76347">
        <ele>0.14</ele>
        <time>2016-05-25T15:30:33Z</time>
      </trkpt>
      <trkpt lat="43.12992" lon="5.76353">
        <ele>-0.34</ele>
        <time>2016-05-25T15:30:51Z</time>
      </trkpt>
      <trkpt lat="43.13026" lon="5.76362">
        <ele>0.62</ele>
        <time>2016-05-25T15:31:10Z</time>
      </trkpt>
      <trkpt lat="43.13059" lon="5.76372">
        <ele>-0.82</ele>
        <time>2016-05-25T15:31:29Z</time>
      </trkpt>
      <trkpt lat="43.13095" lon="5.76383">
        <ele>-1.79</ele>
        <time>2016-05-25T15:31:49Z</time>
      </trkpt>
      <trkpt lat="43.13133" lon="5.76388">
        <ele>-2.75</ele>
        <time>2016-05-25T15:32:08Z</time>
      </trkpt>
      <trkpt lat="43.13163" lon="5.76373">
        <ele>-2.27</ele>
        <time>2016-05-25T15:32:24Z</time>
      </trkpt>
      <trkpt lat="43.13158" lon="5.76338">
        <ele>-0.82</ele>
        <time>2016-05-25T15:32:38Z</time>
      </trkpt>
      <trkpt lat="43.13139" lon="5.76304">
        <ele>1.1</ele>
        <time>2016-05-25T15:32:56Z</time>
      </trkpt>
      <trkpt lat="43.13121" lon="5.76273">
        <ele>1.1</ele>
        <time>2016-05-25T15:33:13Z</time>
      </trkpt>
      <trkpt lat="43.13102" lon="5.76241">
        <ele>0.62</ele>
        <time>2016-05-25T15:33:31Z</time>
      </trkpt>
      <trkpt lat="43.13083" lon="5.76196">
        <ele>0.14</ele>
        <time>2016-05-25T15:33:51Z</time>
      </trkpt>
      <trkpt lat="43.13057" lon="5.76151">
        <ele>0.14</ele>
        <time>2016-05-25T15:34:12Z</time>
      </trkpt>
      <trkpt lat="43.13027" lon="5.76104">
        <ele>0.62</ele>
        <time>2016-05-25T15:34:33Z</time>
      </trkpt>
      <trkpt lat="43.12998" lon="5.76064">
        <ele>1.1</ele>
        <time>2016-05-25T15:34:51Z</time>
      </trkpt>
      <trkpt lat="43.12965" lon="5.76019">
        <ele>1.1</ele>
        <time>2016-05-25T15:35:11Z</time>
      </trkpt>
      <trkpt lat="43.12939" lon="5.75986">
        <ele>0.62</ele>
        <time>2016-05-25T15:35:27Z</time>
      </trkpt>
      <trkpt lat="43.12911" lon="5.75943">
        <ele>1.1</ele>
        <time>2016-05-25T15:35:47Z</time>
      </trkpt>
      <trkpt lat="43.12887" lon="5.75914">
        <ele>0.62</ele>
        <time>2016-05-25T15:36:02Z</time>
      </trkpt>
      <trkpt lat="43.12865" lon="5.75885">
        <ele>0.14</ele>
        <time>2016-05-25T15:36:19Z</time>
      </trkpt>
      <trkpt lat="43.12839" lon="5.75847">
        <ele>-0.82</ele>
        <time>2016-05-25T15:36:40Z</time>
      </trkpt>
      <trkpt lat="43.12818" lon="5.75819">
        <ele>-1.3</ele>
        <time>2016-05-25T15:36:56Z</time>
      </trkpt>
      <trkpt lat="43.12795" lon="5.75786">
        <ele>-0.34</ele>
        <time>2016-05-25T15:37:12Z</time>
      </trkpt>
      <trkpt lat="43.12765" lon="5.75742">
        <ele>1.1</ele>
        <time>2016-05-25T15:37:31Z</time>
      </trkpt>
      <trkpt lat="43.12744" lon="5.75713">
        <ele>2.06</ele>
        <time>2016-05-25T15:37:44Z</time>
      </trkpt>
      <trkpt lat="43.1271" lon="5.75683">
        <ele>2.54</ele>
        <time>2016-05-25T15:38:03Z</time>
      </trkpt>
      <trkpt lat="43.12686" lon="5.75661">
        <ele>1.1</ele>
        <time>2016-05-25T15:38:18Z</time>
      </trkpt>
      <trkpt lat="43.12663" lon="5.75634">
        <ele>0.14</ele>
        <time>2016-05-25T15:38:34Z</time>
      </trkpt>
      <trkpt lat="43.12645" lon="5.75611">
        <ele>0.62</ele>
        <time>2016-05-25T15:38:47Z</time>
      </trkpt>
      <trkpt lat="43.12621" lon="5.7558">
        <ele>1.1</ele>
        <time>2016-05-25T15:39:04Z</time>
      </trkpt>
      <trkpt lat="43.12595" lon="5.75546">
        <ele>2.54</ele>
        <time>2016-05-25T15:39:21Z</time>
      </trkpt>
      <trkpt lat="43.12573" lon="5.75524">
        <ele>3.5</ele>
        <time>2016-05-25T15:39:35Z</time>
      </trkpt>
      <trkpt lat="43.12542" lon="5.75496">
        <ele>3.5</ele>
        <time>2016-05-25T15:39:54Z</time>
      </trkpt>
      <trkpt lat="43.12515" lon="5.75476">
        <ele>2.54</ele>
        <time>2016-05-25T15:40:10Z</time>
      </trkpt>
      <trkpt lat="43.12492" lon="5.75459">
        <ele>0.62</ele>
        <time>2016-05-25T15:40:25Z</time>
      </trkpt>
      <trkpt lat="43.12468" lon="5.75434">
        <ele>-0.34</ele>
        <time>2016-05-25T15:40:42Z</time>
      </trkpt>
      <trkpt lat="43.12439" lon="5.75403">
        <ele>-0.34</ele>
        <time>2016-05-25T15:41:01Z</time>
      </trkpt>
      <trkpt lat="43.12415" lon="5.75376">
        <ele>-0.34</ele>
        <time>2016-05-25T15:41:18Z</time>
      </trkpt>
      <trkpt lat="43.12387" lon="5.75348">
        <ele>0.14</ele>
        <time>2016-05-25T15:41:36Z</time>
      </trkpt>
      <trkpt lat="43.12363" lon="5.75328">
        <ele>-0.34</ele>
        <time>2016-05-25T15:41:51Z</time>
      </trkpt>
      <trkpt lat="43.12336" lon="5.75306">
        <ele>-0.34</ele>
        <time>2016-05-25T15:42:08Z</time>
      </trkpt>
      <trkpt lat="43.12318" lon="5.75286">
        <ele>-0.82</ele>
        <time>2016-05-25T15:42:21Z</time>
      </trkpt>
      <trkpt lat="43.12293" lon="5.75259">
        <ele>-2.27</ele>
        <time>2016-05-25T15:42:37Z</time>
      </trkpt>
      <trkpt lat="43.12266" lon="5.75233">
        <ele>-2.75</ele>
        <time>2016-05-25T15:42:53Z</time>
      </trkpt>
      <trkpt lat="43.12243" lon="5.7521">
        <ele>-2.27</ele>
        <time>2016-05-25T15:43:08Z</time>
      </trkpt>
      <trkpt lat="43.12219" lon="5.75189">
        <ele>-2.75</ele>
        <time>2016-05-25T15:43:23Z</time>
      </trkpt>
      <trkpt lat="43.12199" lon="5.75169">
        <ele>-2.27</ele>
        <time>2016-05-25T15:43:37Z</time>
      </trkpt>
      <trkpt lat="43.12171" lon="5.75147">
        <ele>-1.79</ele>
        <time>2016-05-25T15:43:55Z</time>
      </trkpt>
      <trkpt lat="43.12145" lon="5.75125">
        <ele>-2.75</ele>
        <time>2016-05-25T15:44:13Z</time>
      </trkpt>
      <trkpt lat="43.12124" lon="5.75107">
        <ele>-2.75</ele>
        <time>2016-05-25T15:44:27Z</time>
      </trkpt>
      <trkpt lat="43.12096" lon="5.75078">
        <ele>-4.19</ele>
        <time>2016-05-25T15:44:48Z</time>
      </trkpt>
      <trkpt lat="43.12075" lon="5.75057">
        <ele>-3.71</ele>
        <time>2016-05-25T15:45:04Z</time>
      </trkpt>
      <trkpt lat="43.12054" lon="5.75035">
        <ele>-2.27</ele>
        <time>2016-05-25T15:45:20Z</time>
      </trkpt>
      <trkpt lat="43.1203" lon="5.75008">
        <ele>-1.79</ele>
        <time>2016-05-25T15:45:38Z</time>
      </trkpt>
      <trkpt lat="43.12027" lon="5.75004">
        <ele>-1.3</ele>
        <time>2016-05-25T15:45:40Z</time>
      </trkpt>
      <trkpt lat="43.12009" lon="5.75006">
        <ele>-0.82</ele>
        <time>2016-05-25T15:45:55Z</time>
      </trkpt>
      <trkpt lat="43.12008" lon="5.75007">
        <ele>-0.82</ele>
        <time>2016-05-25T15:45:56Z</time>
      </trkpt>
      <trkpt lat="43.12004" lon="5.75025">
        <ele>0.14</ele>
        <time>2016-05-25T15:46:10Z</time>
      </trkpt>
      <trkpt lat="43.12" lon="5.75038">
        <ele>-0.34</ele>
        <time>2016-05-25T15:46:19Z</time>
      </trkpt>
      <trkpt lat="43.11992" lon="5.75075">
        <ele>-0.82</ele>
        <time>2016-05-25T15:46:39Z</time>
      </trkpt>
      <trkpt lat="43.11982" lon="5.75113">
        <ele>0.14</ele>
        <time>2016-05-25T15:46:57Z</time>
      </trkpt>
      <trkpt lat="43.11965" lon="5.75156">
        <ele>-0.34</ele>
        <time>2016-05-25T15:47:16Z</time>
      </trkpt>
      <trkpt lat="43.11949" lon="5.75197">
        <ele>-0.82</ele>
        <time>2016-05-25T15:47:33Z</time>
      </trkpt>
      <trkpt lat="43.1193" lon="5.75237">
        <ele>-1.3</ele>
        <time>2016-05-25T15:47:49Z</time>
      </trkpt>
      <trkpt lat="43.11909" lon="5.75287">
        <ele>-1.3</ele>
        <time>2016-05-25T15:48:08Z</time>
      </trkpt>
      <trkpt lat="43.11889" lon="5.75332">
        <ele>-1.3</ele>
        <time>2016-05-25T15:48:24Z</time>
      </trkpt>
      <trkpt lat="43.11869" lon="5.75379">
        <ele>-1.79</ele>
        <time>2016-05-25T15:48:41Z</time>
      </trkpt>
      <trkpt lat="43.1185" lon="5.75425">
        <ele>-1.3</ele>
        <time>2016-05-25T15:48:57Z</time>
      </trkpt>
      <trkpt lat="43.11827" lon="5.75479">
        <ele>-1.79</ele>
        <time>2016-05-25T15:49:15Z</time>
      </trkpt>
      <trkpt lat="43.11808" lon="5.75526">
        <ele>-1.3</ele>
        <time>2016-05-25T15:49:31Z</time>
      </trkpt>
      <trkpt lat="43.11787" lon="5.75576">
        <ele>-0.82</ele>
        <time>2016-05-25T15:49:48Z</time>
      </trkpt>
      <trkpt lat="43.11769" lon="5.75621">
        <ele>-0.82</ele>
        <time>2016-05-25T15:50:03Z</time>
      </trkpt>
      <trkpt lat="43.11746" lon="5.75673">
        <ele>-0.82</ele>
        <time>2016-05-25T15:50:21Z</time>
      </trkpt>
      <trkpt lat="43.11724" lon="5.75724">
        <ele>-0.34</ele>
        <time>2016-05-25T15:50:39Z</time>
      </trkpt>
      <trkpt lat="43.11703" lon="5.75782">
        <ele>-0.34</ele>
        <time>2016-05-25T15:50:58Z</time>
      </trkpt>
      <trkpt lat="43.1169" lon="5.75847">
        <ele>0.14</ele>
        <time>2016-05-25T15:51:16Z</time>
      </trkpt>
      <trkpt lat="43.1169" lon="5.75897">
        <ele>-1.3</ele>
        <time>2016-05-25T15:51:29Z</time>
      </trkpt>
      <trkpt lat="43.11694" lon="5.75956">
        <ele>-1.3</ele>
        <time>2016-05-25T15:51:46Z</time>
      </trkpt>
      <trkpt lat="43.117" lon="5.76003">
        <ele>-0.82</ele>
        <time>2016-05-25T15:52:01Z</time>
      </trkpt>
      <trkpt lat="43.11707" lon="5.76052">
        <ele>0.14</ele>
        <time>2016-05-25T15:52:17Z</time>
      </trkpt>
      <trkpt lat="43.11714" lon="5.76099">
        <ele>-0.34</ele>
        <time>2016-05-25T15:52:34Z</time>
      </trkpt>
      <trkpt lat="43.11721" lon="5.76151">
        <ele>0.14</ele>
        <time>2016-05-25T15:52:53Z</time>
      </trkpt>
      <trkpt lat="43.1173" lon="5.76196">
        <ele>0.14</ele>
        <time>2016-05-25T15:53:10Z</time>
      </trkpt>
      <trkpt lat="43.11737" lon="5.7624">
        <ele>0.14</ele>
        <time>2016-05-25T15:53:27Z</time>
      </trkpt>
      <trkpt lat="43.11749" lon="5.76282">
        <ele>0.14</ele>
        <time>2016-05-25T15:53:44Z</time>
      </trkpt>
      <trkpt lat="43.11777" lon="5.76304">
        <ele>0.14</ele>
        <time>2016-05-25T15:54:01Z</time>
      </trkpt>
      <trkpt lat="43.11807" lon="5.76309">
        <ele>-0.34</ele>
        <time>2016-05-25T15:54:20Z</time>
      </trkpt>
      <trkpt lat="43.11836" lon="5.7631">
        <ele>-1.79</ele>
        <time>2016-05-25T15:54:40Z</time>
      </trkpt>
      <trkpt lat="43.11865" lon="5.76306">
        <ele>-0.82</ele>
        <time>2016-05-25T15:55:01Z</time>
      </trkpt>
      <trkpt lat="43.11886" lon="5.76298">
        <ele>-1.3</ele>
        <time>2016-05-25T15:55:17Z</time>
      </trkpt>
      <trkpt lat="43.1191" lon="5.76292">
        <ele>-0.82</ele>
        <time>2016-05-25T15:55:34Z</time>
      </trkpt>
      <trkpt lat="43.11938" lon="5.76285">
        <ele>-0.34</ele>
        <time>2016-05-25T15:55:53Z</time>
      </trkpt>
      <trkpt lat="43.1196" lon="5.76282">
        <ele>-0.82</ele>
        <time>2016-05-25T15:56:08Z</time>
      </trkpt>
      <trkpt lat="43.1198" lon="5.76276">
        <ele>-0.82</ele>
        <time>2016-05-25T15:56:22Z</time>
      </trkpt>
      <trkpt lat="43.12002" lon="5.7627">
        <ele>-0.82</ele>
        <time>2016-05-25T15:56:37Z</time>
      </trkpt>
      <trkpt lat="43.12027" lon="5.76265">
        <ele>-0.82</ele>
        <time>2016-05-25T15:56:55Z</time>
      </trkpt>
      <trkpt lat="43.12053" lon="5.76263">
        <ele>-0.82</ele>
        <time>2016-05-25T15:57:14Z</time>
      </trkpt>
      <trkpt lat="43.12081" lon="5.76256">
        <ele>0.14</ele>
        <time>2016-05-25T15:57:34Z</time>
      </trkpt>
      <trkpt lat="43.12108" lon="5.76248">
        <ele>0.62</ele>
        <time>2016-05-25T15:57:53Z</time>
      </trkpt>
      <trkpt lat="43.12132" lon="5.76244">
        <ele>0.62</ele>
        <time>2016-05-25T15:58:10Z</time>
      </trkpt>
      <trkpt lat="43.12154" lon="5.7624">
        <ele>0.62</ele>
        <time>2016-05-25T15:58:27Z</time>
      </trkpt>
      <trkpt lat="43.12178" lon="5.76239">
        <ele>0.62</ele>
        <time>2016-05-25T15:58:44Z</time>
      </trkpt>
      <trkpt lat="43.12205" lon="5.76236">
        <ele>-0.82</ele>
        <time>2016-05-25T15:59:04Z</time>
      </trkpt>
      <trkpt lat="43.12225" lon="5.76238">
        <ele>-0.82</ele>
        <time>2016-05-25T15:59:19Z</time>
      </trkpt>
      <trkpt lat="43.1225" lon="5.76233">
        <ele>-0.34</ele>
        <time>2016-05-25T15:59:38Z</time>
      </trkpt>
      <trkpt lat="43.12279" lon="5.76227">
        <ele>0.14</ele>
        <time>2016-05-25T16:00:00Z</time>
      </trkpt>
      <trkpt lat="43.12301" lon="5.76225">
        <ele>0.62</ele>
        <time>2016-05-25T16:00:18Z</time>
      </trkpt>
      <trkpt lat="43.12324" lon="5.76224">
        <ele>0.14</ele>
        <time>2016-05-25T16:00:36Z</time>
      </trkpt>
      <trkpt lat="43.12344" lon="5.76221">
        <ele>-0.82</ele>
        <time>2016-05-25T16:00:53Z</time>
      </trkpt>
      <trkpt lat="43.12361" lon="5.76216">
        <ele>-0.34</ele>
        <time>2016-05-25T16:01:08Z</time>
      </trkpt>
      <trkpt lat="43.12385" lon="5.76218">
        <ele>-0.34</ele>
        <time>2016-05-25T16:01:29Z</time>
      </trkpt>
      <trkpt lat="43.12393" lon="5.76216">
        <ele>-0.34</ele>
        <time>2016-05-25T16:01:36Z</time>
      </trkpt>
      <trkpt lat="43.12418" lon="5.76218">
        <ele>0.14</ele>
        <time>2016-05-25T16:01:58Z</time>
      </trkpt>
      <trkpt lat="43.12439" lon="5.76223">
        <ele>0.14</ele>
        <time>2016-05-25T16:02:16Z</time>
      </trkpt>
      <trkpt lat="43.12462" lon="5.76227">
        <ele>1.58</ele>
        <time>2016-05-25T16:02:35Z</time>
      </trkpt>
      <trkpt lat="43.12492" lon="5.76236">
        <ele>0.14</ele>
        <time>2016-05-25T16:02:59Z</time>
      </trkpt>
      <trkpt lat="43.12519" lon="5.76251">
        <ele>-0.82</ele>
        <time>2016-05-25T16:03:19Z</time>
      </trkpt>
      <trkpt lat="43.12548" lon="5.76262">
        <ele>0.14</ele>
        <time>2016-05-25T16:03:39Z</time>
      </trkpt>
      <trkpt lat="43.12569" lon="5.76269">
        <ele>0.14</ele>
        <time>2016-05-25T16:03:54Z</time>
      </trkpt>
      <trkpt lat="43.12597" lon="5.76278">
        <ele>-0.34</ele>
        <time>2016-05-25T16:04:15Z</time>
      </trkpt>
      <trkpt lat="43.1262" lon="5.76285">
        <ele>0.14</ele>
        <time>2016-05-25T16:04:32Z</time>
      </trkpt>
      <trkpt lat="43.12643" lon="5.76289">
        <ele>0.14</ele>
        <time>2016-05-25T16:04:50Z</time>
      </trkpt>
      <trkpt lat="43.12668" lon="5.76296">
        <ele>-0.34</ele>
        <time>2016-05-25T16:05:11Z</time>
      </trkpt>
      <trkpt lat="43.12684" lon="5.76301">
        <ele>-0.34</ele>
        <time>2016-05-25T16:05:24Z</time>
      </trkpt>
      <trkpt lat="43.12711" lon="5.76311">
        <ele>-0.34</ele>
        <time>2016-05-25T16:05:45Z</time>
      </trkpt>
      <trkpt lat="43.12734" lon="5.76323">
        <ele>0.14</ele>
        <time>2016-05-25T16:06:03Z</time>
      </trkpt>
      <trkpt lat="43.12761" lon="5.76332">
        <ele>-0.34</ele>
        <time>2016-05-25T16:06:25Z</time>
      </trkpt>
      <trkpt lat="43.12786" lon="5.76342">
        <ele>-0.34</ele>
        <time>2016-05-25T16:06:45Z</time>
      </trkpt>
      <trkpt lat="43.12809" lon="5.76352">
        <ele>0.14</ele>
        <time>2016-05-25T16:07:04Z</time>
      </trkpt>
      <trkpt lat="43.12832" lon="5.76365">
        <ele>-0.34</ele>
        <time>2016-05-25T16:07:24Z</time>
      </trkpt>
      <trkpt lat="43.12858" lon="5.76373">
        <ele>-0.34</ele>
        <time>2016-05-25T16:07:45Z</time>
      </trkpt>
      <trkpt lat="43.1288" lon="5.7638">
        <ele>-1.3</ele>
        <time>2016-05-25T16:08:03Z</time>
      </trkpt>
      <trkpt lat="43.129" lon="5.76386">
        <ele>0.14</ele>
        <time>2016-05-25T16:08:20Z</time>
      </trkpt>
      <trkpt lat="43.1292" lon="5.76387">
        <ele>-0.82</ele>
        <time>2016-05-25T16:08:37Z</time>
      </trkpt>
      <trkpt lat="43.12943" lon="5.76391">
        <ele>-0.82</ele>
        <time>2016-05-25T16:08:58Z</time>
      </trkpt>
      <trkpt lat="43.12965" lon="5.76401">
        <ele>0.14</ele>
        <time>2016-05-25T16:09:20Z</time>
      </trkpt>
      <trkpt lat="43.12991" lon="5.76408">
        <ele>-0.34</ele>
        <time>2016-05-25T16:09:45Z</time>
      </trkpt>
      <trkpt lat="43.13013" lon="5.76413">
        <ele>-0.82</ele>
        <time>2016-05-25T16:10:06Z</time>
      </trkpt>
      <trkpt lat="43.1303" lon="5.76415">
        <ele>-2.27</ele>
        <time>2016-05-25T16:10:22Z</time>
      </trkpt>
      <trkpt lat="43.13049" lon="5.76417">
        <ele>-1.3</ele>
        <time>2016-05-25T16:10:39Z</time>
      </trkpt>
      <trkpt lat="43.13075" lon="5.76415">
        <ele>-1.3</ele>
        <time>2016-05-25T16:11:02Z</time>
      </trkpt>
      <trkpt lat="43.131" lon="5.76413">
        <ele>-1.79</ele>
        <time>2016-05-25T16:11:25Z</time>
      </trkpt>
      <trkpt lat="43.13126" lon="5.76408">
        <ele>-2.27</ele>
        <time>2016-05-25T16:11:46Z</time>
      </trkpt>
      <trkpt lat="43.13146" lon="5.76397">
        <ele>-2.27</ele>
        <time>2016-05-25T16:12:03Z</time>
      </trkpt>
      <trkpt lat="43.13157" lon="5.76362">
        <ele>-1.79</ele>
        <time>2016-05-25T16:12:24Z</time>
      </trkpt>
      <trkpt lat="43.13156" lon="5.7633">
        <ele>-0.34</ele>
        <time>2016-05-25T16:12:39Z</time>
      </trkpt>
      <trkpt lat="43.13151" lon="5.76285">
        <ele>0.62</ele>
        <time>2016-05-25T16:12:58Z</time>
      </trkpt>
      <trkpt lat="43.13149" lon="5.76236">
        <ele>-0.34</ele>
        <time>2016-05-25T16:13:16Z</time>
      </trkpt>
      <trkpt lat="43.13146" lon="5.76186">
        <ele>-0.34</ele>
        <time>2016-05-25T16:13:34Z</time>
      </trkpt>
      <trkpt lat="43.13138" lon="5.76123">
        <ele>-0.82</ele>
        <time>2016-05-25T16:13:56Z</time>
      </trkpt>
      <trkpt lat="43.13134" lon="5.76074">
        <ele>-0.34</ele>
        <time>2016-05-25T16:14:14Z</time>
      </trkpt>
      <trkpt lat="43.13125" lon="5.76031">
        <ele>0.14</ele>
        <time>2016-05-25T16:14:31Z</time>
      </trkpt>
      <trkpt lat="43.13117" lon="5.75981">
        <ele>-0.82</ele>
        <time>2016-05-25T16:14:50Z</time>
      </trkpt>
      <trkpt lat="43.13105" lon="5.75931">
        <ele>0.62</ele>
        <time>2016-05-25T16:15:10Z</time>
      </trkpt>
      <trkpt lat="43.13094" lon="5.75879">
        <ele>-0.34</ele>
        <time>2016-05-25T16:15:30Z</time>
      </trkpt>
      <trkpt lat="43.13085" lon="5.75828">
        <ele>-1.3</ele>
        <time>2016-05-25T16:15:49Z</time>
      </trkpt>
      <trkpt lat="43.13076" lon="5.75784">
        <ele>-0.34</ele>
        <time>2016-05-25T16:16:06Z</time>
      </trkpt>
      <trkpt lat="43.13067" lon="5.75751">
        <ele>-1.3</ele>
        <time>2016-05-25T16:16:21Z</time>
      </trkpt>
      <trkpt lat="43.13068" lon="5.75739">
        <ele>-1.3</ele>
        <time>2016-05-25T16:16:26Z</time>
      </trkpt>
      <trkpt lat="43.13083" lon="5.75736">
        <ele>-1.3</ele>
        <time>2016-05-25T16:16:38Z</time>
      </trkpt>
      <trkpt lat="43.13093" lon="5.75771">
        <ele>-0.34</ele>
        <time>2016-05-25T16:16:57Z</time>
      </trkpt>
      <trkpt lat="43.13103" lon="5.75803">
        <ele>-0.34</ele>
        <time>2016-05-25T16:17:13Z</time>
      </trkpt>
      <trkpt lat="43.13124" lon="5.75837">
        <ele>-0.34</ele>
        <time>2016-05-25T16:17:34Z</time>
      </trkpt>
      <trkpt lat="43.13137" lon="5.75875">
        <ele>0.14</ele>
        <time>2016-05-25T16:17:54Z</time>
      </trkpt>
      <trkpt lat="43.13142" lon="5.75907">
        <ele>-0.34</ele>
        <time>2016-05-25T16:18:10Z</time>
      </trkpt>
      <trkpt lat="43.13154" lon="5.7595">
        <ele>-0.34</ele>
        <time>2016-05-25T16:18:32Z</time>
      </trkpt>
      <trkpt lat="43.13162" lon="5.7598">
        <ele>0.14</ele>
        <time>2016-05-25T16:18:48Z</time>
      </trkpt>
      <trkpt lat="43.13169" lon="5.76017">
        <ele>-0.82</ele>
        <time>2016-05-25T16:19:07Z</time>
      </trkpt>
      <trkpt lat="43.13172" lon="5.76051">
        <ele>-0.82</ele>
        <time>2016-05-25T16:19:24Z</time>
      </trkpt>
      <trkpt lat="43.13173" lon="5.76061">
        <ele>-0.82</ele>
        <time>2016-05-25T16:19:29Z</time>
      </trkpt>
      <trkpt lat="43.13173" lon="5.76071">
        <ele>-0.82</ele>
        <time>2016-05-25T16:19:34Z</time>
      </trkpt>
      <trkpt lat="43.13173" lon="5.76077">
        <ele>-0.82</ele>
        <time>2016-05-25T16:19:37Z</time>
      </trkpt>
      <trkpt lat="43.13174" lon="5.76094">
        <ele>-0.82</ele>
        <time>2016-05-25T16:19:45Z</time>
      </trkpt>
      <trkpt lat="43.1317" lon="5.76121">
        <ele>-0.34</ele>
        <time>2016-05-25T16:19:59Z</time>
      </trkpt>
      <trkpt lat="43.13168" lon="5.76133">
        <ele>0.14</ele>
        <time>2016-05-25T16:20:05Z</time>
      </trkpt>
      <trkpt lat="43.1317" lon="5.76168">
        <ele>0.14</ele>
        <time>2016-05-25T16:20:21Z</time>
      </trkpt>
      <trkpt lat="43.1318" lon="5.76207">
        <ele>0.62</ele>
        <time>2016-05-25T16:20:41Z</time>
      </trkpt>
      <trkpt lat="43.13186" lon="5.76244">
        <ele>0.14</ele>
        <time>2016-05-25T16:21:00Z</time>
      </trkpt>
      <trkpt lat="43.13192" lon="5.76284">
        <ele>0.62</ele>
        <time>2016-05-25T16:21:20Z</time>
      </trkpt>
      <trkpt lat="43.1321" lon="5.7632">
        <ele>-0.34</ele>
        <time>2016-05-25T16:21:42Z</time>
      </trkpt>
      <trkpt lat="43.13214" lon="5.76335">
        <ele>-0.82</ele>
        <time>2016-05-25T16:21:50Z</time>
      </trkpt>
    </trkseg>
  </trk>
</gpx>